<?xml version="1.0" encoding="UTF-8" standalone="no" ?>
<gpx xmlns="http://www.topografix.com/GPX/1/1" xmlns:xsi="http://www.w3.org/2001/XMLSchema-instance" xsi:schemaLocation="http://www.topografix.com/GPX/1/1 http://www.topografix.com/GPX/1/1/gpx.xsd" version="1.1" creator="VisuGPX - https://www.visugpx.com">
  <metadata>
    <name>Crotenay Golf La Roche du Midi......</name>
  </metadata>
  <trk>
    <name><![CDATA[Crotenay Golf La Roche du Midi......_1]]></name>
    <extensions>
      <line xmlns="http://www.topografix.com/GPX/gpx_style/0/2">
        <color>0000FF</color>
        <width>4</width>
      </line>
    </extensions>
    <trkseg>
      <trkpt lat="46.75772" lon="5.80362">
        <ele>481.9</ele>
        <time>2022-02-23T13:03:35Z</time>
      </trkpt>
      <trkpt lat="46.75768" lon="5.80357">
        <ele>484.8</ele>
        <time>2022-02-23T13:03:39Z</time>
      </trkpt>
      <trkpt lat="46.75772" lon="5.80359">
        <ele>500.2</ele>
        <time>2022-02-23T13:04:35Z</time>
      </trkpt>
      <trkpt lat="46.75777" lon="5.80356">
        <ele>500.8</ele>
        <time>2022-02-23T13:04:42Z</time>
      </trkpt>
      <trkpt lat="46.75781" lon="5.80355">
        <ele>501.7</ele>
        <time>2022-02-23T13:04:48Z</time>
      </trkpt>
      <trkpt lat="46.75786" lon="5.80353">
        <ele>502.8</ele>
        <time>2022-02-23T13:04:56Z</time>
      </trkpt>
      <trkpt lat="46.75791" lon="5.80353">
        <ele>503</ele>
        <time>2022-02-23T13:05:02Z</time>
      </trkpt>
      <trkpt lat="46.75795" lon="5.80353">
        <ele>502.7</ele>
        <time>2022-02-23T13:05:07Z</time>
      </trkpt>
      <trkpt lat="46.758" lon="5.80352">
        <ele>502.3</ele>
        <time>2022-02-23T13:05:12Z</time>
      </trkpt>
      <trkpt lat="46.75805" lon="5.80353">
        <ele>502.3</ele>
        <time>2022-02-23T13:05:16Z</time>
      </trkpt>
      <trkpt lat="46.7581" lon="5.80353">
        <ele>502.7</ele>
        <time>2022-02-23T13:05:20Z</time>
      </trkpt>
      <trkpt lat="46.75815" lon="5.80355">
        <ele>503.4</ele>
        <time>2022-02-23T13:05:26Z</time>
      </trkpt>
      <trkpt lat="46.75819" lon="5.80359">
        <ele>504.1</ele>
        <time>2022-02-23T13:05:31Z</time>
      </trkpt>
      <trkpt lat="46.75823" lon="5.80361">
        <ele>504.8</ele>
        <time>2022-02-23T13:05:35Z</time>
      </trkpt>
      <trkpt lat="46.75829" lon="5.80361">
        <ele>505.9</ele>
        <time>2022-02-23T13:05:40Z</time>
      </trkpt>
      <trkpt lat="46.75833" lon="5.80364">
        <ele>507.1</ele>
        <time>2022-02-23T13:05:46Z</time>
      </trkpt>
      <trkpt lat="46.75838" lon="5.80366">
        <ele>507.8</ele>
        <time>2022-02-23T13:05:50Z</time>
      </trkpt>
      <trkpt lat="46.75842" lon="5.8037">
        <ele>508.4</ele>
        <time>2022-02-23T13:05:55Z</time>
      </trkpt>
      <trkpt lat="46.75846" lon="5.80373">
        <ele>509</ele>
        <time>2022-02-23T13:06:00Z</time>
      </trkpt>
      <trkpt lat="46.75851" lon="5.80375">
        <ele>509.4</ele>
        <time>2022-02-23T13:06:04Z</time>
      </trkpt>
      <trkpt lat="46.75856" lon="5.80378">
        <ele>509.7</ele>
        <time>2022-02-23T13:06:09Z</time>
      </trkpt>
      <trkpt lat="46.75861" lon="5.80381">
        <ele>509.7</ele>
        <time>2022-02-23T13:06:14Z</time>
      </trkpt>
      <trkpt lat="46.75865" lon="5.80385">
        <ele>509.4</ele>
        <time>2022-02-23T13:06:20Z</time>
      </trkpt>
      <trkpt lat="46.75869" lon="5.80388">
        <ele>508.9</ele>
        <time>2022-02-23T13:06:26Z</time>
      </trkpt>
      <trkpt lat="46.75874" lon="5.80389">
        <ele>508.4</ele>
        <time>2022-02-23T13:06:32Z</time>
      </trkpt>
      <trkpt lat="46.75879" lon="5.80392">
        <ele>507.9</ele>
        <time>2022-02-23T13:06:37Z</time>
      </trkpt>
      <trkpt lat="46.75884" lon="5.80395">
        <ele>507.5</ele>
        <time>2022-02-23T13:06:42Z</time>
      </trkpt>
      <trkpt lat="46.75889" lon="5.80398">
        <ele>507.4</ele>
        <time>2022-02-23T13:06:47Z</time>
      </trkpt>
      <trkpt lat="46.75894" lon="5.804">
        <ele>507.4</ele>
        <time>2022-02-23T13:06:52Z</time>
      </trkpt>
      <trkpt lat="46.75899" lon="5.80403">
        <ele>507.3</ele>
        <time>2022-02-23T13:06:57Z</time>
      </trkpt>
      <trkpt lat="46.75903" lon="5.80407">
        <ele>507.1</ele>
        <time>2022-02-23T13:07:02Z</time>
      </trkpt>
      <trkpt lat="46.75907" lon="5.8041">
        <ele>506.6</ele>
        <time>2022-02-23T13:07:07Z</time>
      </trkpt>
      <trkpt lat="46.75912" lon="5.80413">
        <ele>506.2</ele>
        <time>2022-02-23T13:07:11Z</time>
      </trkpt>
      <trkpt lat="46.75916" lon="5.80415">
        <ele>505.7</ele>
        <time>2022-02-23T13:07:15Z</time>
      </trkpt>
      <trkpt lat="46.7592" lon="5.80419">
        <ele>505.3</ele>
        <time>2022-02-23T13:07:19Z</time>
      </trkpt>
      <trkpt lat="46.75925" lon="5.80424">
        <ele>505.4</ele>
        <time>2022-02-23T13:07:24Z</time>
      </trkpt>
      <trkpt lat="46.75929" lon="5.80427">
        <ele>505.7</ele>
        <time>2022-02-23T13:07:30Z</time>
      </trkpt>
      <trkpt lat="46.75933" lon="5.8043">
        <ele>505.9</ele>
        <time>2022-02-23T13:07:35Z</time>
      </trkpt>
      <trkpt lat="46.75937" lon="5.80433">
        <ele>506.5</ele>
        <time>2022-02-23T13:07:41Z</time>
      </trkpt>
      <trkpt lat="46.75942" lon="5.80437">
        <ele>507.3</ele>
        <time>2022-02-23T13:07:46Z</time>
      </trkpt>
      <trkpt lat="46.75946" lon="5.80441">
        <ele>508</ele>
        <time>2022-02-23T13:07:50Z</time>
      </trkpt>
      <trkpt lat="46.75951" lon="5.80445">
        <ele>508.9</ele>
        <time>2022-02-23T13:07:55Z</time>
      </trkpt>
      <trkpt lat="46.75955" lon="5.8045">
        <ele>509.6</ele>
        <time>2022-02-23T13:07:59Z</time>
      </trkpt>
      <trkpt lat="46.7596" lon="5.80454">
        <ele>510.4</ele>
        <time>2022-02-23T13:08:03Z</time>
      </trkpt>
      <trkpt lat="46.75963" lon="5.80458">
        <ele>511.1</ele>
        <time>2022-02-23T13:08:07Z</time>
      </trkpt>
      <trkpt lat="46.75968" lon="5.80463">
        <ele>511.9</ele>
        <time>2022-02-23T13:08:12Z</time>
      </trkpt>
      <trkpt lat="46.75971" lon="5.80466">
        <ele>512.7</ele>
        <time>2022-02-23T13:08:16Z</time>
      </trkpt>
      <trkpt lat="46.75976" lon="5.80471">
        <ele>513.8</ele>
        <time>2022-02-23T13:08:21Z</time>
      </trkpt>
      <trkpt lat="46.7598" lon="5.80474">
        <ele>515</ele>
        <time>2022-02-23T13:08:26Z</time>
      </trkpt>
      <trkpt lat="46.75985" lon="5.80479">
        <ele>516.2</ele>
        <time>2022-02-23T13:08:31Z</time>
      </trkpt>
      <trkpt lat="46.75989" lon="5.80483">
        <ele>517.2</ele>
        <time>2022-02-23T13:08:35Z</time>
      </trkpt>
      <trkpt lat="46.75993" lon="5.80486">
        <ele>518</ele>
        <time>2022-02-23T13:08:39Z</time>
      </trkpt>
      <trkpt lat="46.75998" lon="5.8049">
        <ele>518.8</ele>
        <time>2022-02-23T13:08:44Z</time>
      </trkpt>
      <trkpt lat="46.76002" lon="5.80495">
        <ele>519.2</ele>
        <time>2022-02-23T13:08:49Z</time>
      </trkpt>
      <trkpt lat="46.76007" lon="5.805">
        <ele>519.1</ele>
        <time>2022-02-23T13:08:53Z</time>
      </trkpt>
      <trkpt lat="46.76011" lon="5.80505">
        <ele>519</ele>
        <time>2022-02-23T13:08:58Z</time>
      </trkpt>
      <trkpt lat="46.76014" lon="5.80509">
        <ele>518.9</ele>
        <time>2022-02-23T13:09:02Z</time>
      </trkpt>
      <trkpt lat="46.76018" lon="5.80514">
        <ele>518.2</ele>
        <time>2022-02-23T13:09:07Z</time>
      </trkpt>
      <trkpt lat="46.76021" lon="5.80519">
        <ele>517.8</ele>
        <time>2022-02-23T13:09:11Z</time>
      </trkpt>
      <trkpt lat="46.76025" lon="5.80522">
        <ele>517.7</ele>
        <time>2022-02-23T13:09:15Z</time>
      </trkpt>
      <trkpt lat="46.76029" lon="5.80528">
        <ele>517.7</ele>
        <time>2022-02-23T13:09:21Z</time>
      </trkpt>
      <trkpt lat="46.76032" lon="5.80533">
        <ele>517.4</ele>
        <time>2022-02-23T13:09:27Z</time>
      </trkpt>
      <trkpt lat="46.76036" lon="5.80538">
        <ele>517</ele>
        <time>2022-02-23T13:09:32Z</time>
      </trkpt>
      <trkpt lat="46.76039" lon="5.80543">
        <ele>516.7</ele>
        <time>2022-02-23T13:09:37Z</time>
      </trkpt>
      <trkpt lat="46.76043" lon="5.80547">
        <ele>516.3</ele>
        <time>2022-02-23T13:09:42Z</time>
      </trkpt>
      <trkpt lat="46.76047" lon="5.80552">
        <ele>515.7</ele>
        <time>2022-02-23T13:09:47Z</time>
      </trkpt>
      <trkpt lat="46.76051" lon="5.80556">
        <ele>514.6</ele>
        <time>2022-02-23T13:09:52Z</time>
      </trkpt>
      <trkpt lat="46.76054" lon="5.8056">
        <ele>514</ele>
        <time>2022-02-23T13:09:57Z</time>
      </trkpt>
      <trkpt lat="46.76058" lon="5.80564">
        <ele>513.2</ele>
        <time>2022-02-23T13:10:02Z</time>
      </trkpt>
      <trkpt lat="46.76062" lon="5.80569">
        <ele>512.4</ele>
        <time>2022-02-23T13:10:07Z</time>
      </trkpt>
      <trkpt lat="46.76066" lon="5.80573">
        <ele>511.8</ele>
        <time>2022-02-23T13:10:12Z</time>
      </trkpt>
      <trkpt lat="46.76069" lon="5.80577">
        <ele>511.5</ele>
        <time>2022-02-23T13:10:16Z</time>
      </trkpt>
      <trkpt lat="46.76074" lon="5.8058">
        <ele>511.1</ele>
        <time>2022-02-23T13:10:21Z</time>
      </trkpt>
      <trkpt lat="46.76078" lon="5.80584">
        <ele>510.2</ele>
        <time>2022-02-23T13:10:27Z</time>
      </trkpt>
      <trkpt lat="46.76083" lon="5.80587">
        <ele>509.5</ele>
        <time>2022-02-23T13:10:31Z</time>
      </trkpt>
      <trkpt lat="46.76087" lon="5.8059">
        <ele>509.1</ele>
        <time>2022-02-23T13:10:35Z</time>
      </trkpt>
      <trkpt lat="46.76091" lon="5.80595">
        <ele>508.8</ele>
        <time>2022-02-23T13:10:40Z</time>
      </trkpt>
      <trkpt lat="46.76095" lon="5.80599">
        <ele>508.7</ele>
        <time>2022-02-23T13:10:47Z</time>
      </trkpt>
      <trkpt lat="46.76099" lon="5.80601">
        <ele>508.8</ele>
        <time>2022-02-23T13:10:51Z</time>
      </trkpt>
      <trkpt lat="46.76104" lon="5.80603">
        <ele>508.7</ele>
        <time>2022-02-23T13:10:55Z</time>
      </trkpt>
      <trkpt lat="46.76109" lon="5.80606">
        <ele>508.9</ele>
        <time>2022-02-23T13:10:59Z</time>
      </trkpt>
      <trkpt lat="46.76114" lon="5.8061">
        <ele>509.1</ele>
        <time>2022-02-23T13:11:04Z</time>
      </trkpt>
      <trkpt lat="46.76118" lon="5.80614">
        <ele>509.3</ele>
        <time>2022-02-23T13:11:09Z</time>
      </trkpt>
      <trkpt lat="46.76123" lon="5.80617">
        <ele>509.4</ele>
        <time>2022-02-23T13:11:13Z</time>
      </trkpt>
      <trkpt lat="46.76128" lon="5.80621">
        <ele>508.9</ele>
        <time>2022-02-23T13:11:17Z</time>
      </trkpt>
      <trkpt lat="46.76132" lon="5.80624">
        <ele>508.1</ele>
        <time>2022-02-23T13:11:21Z</time>
      </trkpt>
      <trkpt lat="46.76136" lon="5.80628">
        <ele>507.4</ele>
        <time>2022-02-23T13:11:25Z</time>
      </trkpt>
      <trkpt lat="46.76141" lon="5.80631">
        <ele>506.8</ele>
        <time>2022-02-23T13:11:29Z</time>
      </trkpt>
      <trkpt lat="46.76145" lon="5.80635">
        <ele>506.2</ele>
        <time>2022-02-23T13:11:34Z</time>
      </trkpt>
      <trkpt lat="46.76149" lon="5.8064">
        <ele>506.5</ele>
        <time>2022-02-23T13:11:42Z</time>
      </trkpt>
      <trkpt lat="46.76153" lon="5.80644">
        <ele>507.7</ele>
        <time>2022-02-23T13:11:48Z</time>
      </trkpt>
      <trkpt lat="46.76158" lon="5.80646">
        <ele>508.3</ele>
        <time>2022-02-23T13:11:52Z</time>
      </trkpt>
      <trkpt lat="46.76162" lon="5.80649">
        <ele>508.8</ele>
        <time>2022-02-23T13:11:56Z</time>
      </trkpt>
      <trkpt lat="46.76165" lon="5.80654">
        <ele>509.1</ele>
        <time>2022-02-23T13:12:00Z</time>
      </trkpt>
      <trkpt lat="46.7617" lon="5.80656">
        <ele>509.5</ele>
        <time>2022-02-23T13:12:04Z</time>
      </trkpt>
      <trkpt lat="46.76174" lon="5.80658">
        <ele>510</ele>
        <time>2022-02-23T13:12:08Z</time>
      </trkpt>
      <trkpt lat="46.76179" lon="5.8066">
        <ele>510.3</ele>
        <time>2022-02-23T13:12:12Z</time>
      </trkpt>
      <trkpt lat="46.76183" lon="5.80661">
        <ele>510.6</ele>
        <time>2022-02-23T13:12:16Z</time>
      </trkpt>
      <trkpt lat="46.76188" lon="5.80663">
        <ele>510.7</ele>
        <time>2022-02-23T13:12:21Z</time>
      </trkpt>
      <trkpt lat="46.76193" lon="5.80664">
        <ele>510.7</ele>
        <time>2022-02-23T13:12:25Z</time>
      </trkpt>
      <trkpt lat="46.76198" lon="5.80663">
        <ele>510.6</ele>
        <time>2022-02-23T13:12:30Z</time>
      </trkpt>
      <trkpt lat="46.76202" lon="5.80662">
        <ele>510.4</ele>
        <time>2022-02-23T13:12:36Z</time>
      </trkpt>
      <trkpt lat="46.76208" lon="5.80661">
        <ele>510.1</ele>
        <time>2022-02-23T13:12:41Z</time>
      </trkpt>
      <trkpt lat="46.76213" lon="5.80661">
        <ele>509.6</ele>
        <time>2022-02-23T13:12:45Z</time>
      </trkpt>
      <trkpt lat="46.76218" lon="5.80661">
        <ele>509</ele>
        <time>2022-02-23T13:12:49Z</time>
      </trkpt>
      <trkpt lat="46.76223" lon="5.8066">
        <ele>508.5</ele>
        <time>2022-02-23T13:12:53Z</time>
      </trkpt>
      <trkpt lat="46.76228" lon="5.80659">
        <ele>508.1</ele>
        <time>2022-02-23T13:12:58Z</time>
      </trkpt>
      <trkpt lat="46.76233" lon="5.80659">
        <ele>507.1</ele>
        <time>2022-02-23T13:13:03Z</time>
      </trkpt>
      <trkpt lat="46.76237" lon="5.80658">
        <ele>506.2</ele>
        <time>2022-02-23T13:13:08Z</time>
      </trkpt>
      <trkpt lat="46.76242" lon="5.80656">
        <ele>505.4</ele>
        <time>2022-02-23T13:13:14Z</time>
      </trkpt>
      <trkpt lat="46.76246" lon="5.80654">
        <ele>505</ele>
        <time>2022-02-23T13:13:18Z</time>
      </trkpt>
      <trkpt lat="46.76251" lon="5.80652">
        <ele>504.7</ele>
        <time>2022-02-23T13:13:22Z</time>
      </trkpt>
      <trkpt lat="46.76256" lon="5.80647">
        <ele>504.8</ele>
        <time>2022-02-23T13:13:27Z</time>
      </trkpt>
      <trkpt lat="46.76259" lon="5.80643">
        <ele>504.9</ele>
        <time>2022-02-23T13:13:31Z</time>
      </trkpt>
      <trkpt lat="46.76264" lon="5.80639">
        <ele>505.1</ele>
        <time>2022-02-23T13:13:36Z</time>
      </trkpt>
      <trkpt lat="46.76267" lon="5.80634">
        <ele>505.6</ele>
        <time>2022-02-23T13:13:41Z</time>
      </trkpt>
      <trkpt lat="46.76271" lon="5.80629">
        <ele>506.3</ele>
        <time>2022-02-23T13:13:46Z</time>
      </trkpt>
      <trkpt lat="46.76274" lon="5.80624">
        <ele>506.8</ele>
        <time>2022-02-23T13:13:51Z</time>
      </trkpt>
      <trkpt lat="46.76278" lon="5.8062">
        <ele>507.3</ele>
        <time>2022-02-23T13:13:56Z</time>
      </trkpt>
      <trkpt lat="46.76283" lon="5.80616">
        <ele>507.5</ele>
        <time>2022-02-23T13:14:01Z</time>
      </trkpt>
      <trkpt lat="46.76287" lon="5.80611">
        <ele>507.6</ele>
        <time>2022-02-23T13:14:06Z</time>
      </trkpt>
      <trkpt lat="46.76292" lon="5.80607">
        <ele>507.7</ele>
        <time>2022-02-23T13:14:11Z</time>
      </trkpt>
      <trkpt lat="46.76297" lon="5.80604">
        <ele>507.9</ele>
        <time>2022-02-23T13:14:16Z</time>
      </trkpt>
      <trkpt lat="46.76301" lon="5.80602">
        <ele>508</ele>
        <time>2022-02-23T13:14:20Z</time>
      </trkpt>
      <trkpt lat="46.76306" lon="5.80601">
        <ele>508.2</ele>
        <time>2022-02-23T13:14:25Z</time>
      </trkpt>
      <trkpt lat="46.7631" lon="5.80599">
        <ele>508.2</ele>
        <time>2022-02-23T13:14:30Z</time>
      </trkpt>
      <trkpt lat="46.76315" lon="5.80598">
        <ele>508</ele>
        <time>2022-02-23T13:14:35Z</time>
      </trkpt>
      <trkpt lat="46.7632" lon="5.80596">
        <ele>507.6</ele>
        <time>2022-02-23T13:14:40Z</time>
      </trkpt>
      <trkpt lat="46.76325" lon="5.80595">
        <ele>507.6</ele>
        <time>2022-02-23T13:14:46Z</time>
      </trkpt>
      <trkpt lat="46.7633" lon="5.80595">
        <ele>507.9</ele>
        <time>2022-02-23T13:14:51Z</time>
      </trkpt>
      <trkpt lat="46.76336" lon="5.80595">
        <ele>508.4</ele>
        <time>2022-02-23T13:14:56Z</time>
      </trkpt>
      <trkpt lat="46.76341" lon="5.80594">
        <ele>508.9</ele>
        <time>2022-02-23T13:15:01Z</time>
      </trkpt>
      <trkpt lat="46.76345" lon="5.80593">
        <ele>509.5</ele>
        <time>2022-02-23T13:15:07Z</time>
      </trkpt>
      <trkpt lat="46.7635" lon="5.8059">
        <ele>510.3</ele>
        <time>2022-02-23T13:15:12Z</time>
      </trkpt>
      <trkpt lat="46.76354" lon="5.80587">
        <ele>511.6</ele>
        <time>2022-02-23T13:15:17Z</time>
      </trkpt>
      <trkpt lat="46.76358" lon="5.80583">
        <ele>512.7</ele>
        <time>2022-02-23T13:15:22Z</time>
      </trkpt>
      <trkpt lat="46.76361" lon="5.80577">
        <ele>513.9</ele>
        <time>2022-02-23T13:15:28Z</time>
      </trkpt>
      <trkpt lat="46.76362" lon="5.8057">
        <ele>515.3</ele>
        <time>2022-02-23T13:15:35Z</time>
      </trkpt>
      <trkpt lat="46.7636" lon="5.80564">
        <ele>516.1</ele>
        <time>2022-02-23T13:15:40Z</time>
      </trkpt>
      <trkpt lat="46.76358" lon="5.80558">
        <ele>517</ele>
        <time>2022-02-23T13:15:44Z</time>
      </trkpt>
      <trkpt lat="46.76355" lon="5.80553">
        <ele>517.8</ele>
        <time>2022-02-23T13:15:48Z</time>
      </trkpt>
      <trkpt lat="46.76349" lon="5.80549">
        <ele>519</ele>
        <time>2022-02-23T13:15:53Z</time>
      </trkpt>
      <trkpt lat="46.76345" lon="5.80544">
        <ele>520.3</ele>
        <time>2022-02-23T13:15:58Z</time>
      </trkpt>
      <trkpt lat="46.7634" lon="5.80541">
        <ele>521.3</ele>
        <time>2022-02-23T13:16:02Z</time>
      </trkpt>
      <trkpt lat="46.76336" lon="5.80539">
        <ele>522.7</ele>
        <time>2022-02-23T13:16:07Z</time>
      </trkpt>
      <trkpt lat="46.76334" lon="5.80533">
        <ele>523.4</ele>
        <time>2022-02-23T13:16:13Z</time>
      </trkpt>
      <trkpt lat="46.76331" lon="5.80528">
        <ele>522.9</ele>
        <time>2022-02-23T13:16:17Z</time>
      </trkpt>
      <trkpt lat="46.76327" lon="5.80523">
        <ele>520.7</ele>
        <time>2022-02-23T13:16:22Z</time>
      </trkpt>
      <trkpt lat="46.76323" lon="5.80519">
        <ele>518.1</ele>
        <time>2022-02-23T13:16:28Z</time>
      </trkpt>
      <trkpt lat="46.76318" lon="5.80517">
        <ele>515.9</ele>
        <time>2022-02-23T13:16:34Z</time>
      </trkpt>
      <trkpt lat="46.76314" lon="5.80512">
        <ele>514</ele>
        <time>2022-02-23T13:16:40Z</time>
      </trkpt>
      <trkpt lat="46.76311" lon="5.80507">
        <ele>513.2</ele>
        <time>2022-02-23T13:16:44Z</time>
      </trkpt>
      <trkpt lat="46.76306" lon="5.80504">
        <ele>512.4</ele>
        <time>2022-02-23T13:16:48Z</time>
      </trkpt>
      <trkpt lat="46.76303" lon="5.805">
        <ele>511.8</ele>
        <time>2022-02-23T13:16:53Z</time>
      </trkpt>
      <trkpt lat="46.76297" lon="5.80496">
        <ele>510.9</ele>
        <time>2022-02-23T13:16:59Z</time>
      </trkpt>
      <trkpt lat="46.76292" lon="5.80496">
        <ele>510.1</ele>
        <time>2022-02-23T13:17:04Z</time>
      </trkpt>
      <trkpt lat="46.76287" lon="5.80498">
        <ele>509.5</ele>
        <time>2022-02-23T13:17:09Z</time>
      </trkpt>
      <trkpt lat="46.76282" lon="5.80499">
        <ele>509.1</ele>
        <time>2022-02-23T13:17:13Z</time>
      </trkpt>
      <trkpt lat="46.76278" lon="5.80497">
        <ele>508.6</ele>
        <time>2022-02-23T13:17:17Z</time>
      </trkpt>
      <trkpt lat="46.76274" lon="5.80493">
        <ele>508</ele>
        <time>2022-02-23T13:17:22Z</time>
      </trkpt>
      <trkpt lat="46.7627" lon="5.8049">
        <ele>507.7</ele>
        <time>2022-02-23T13:17:27Z</time>
      </trkpt>
      <trkpt lat="46.76265" lon="5.80486">
        <ele>507.5</ele>
        <time>2022-02-23T13:17:33Z</time>
      </trkpt>
      <trkpt lat="46.76261" lon="5.80483">
        <ele>507.5</ele>
        <time>2022-02-23T13:17:37Z</time>
      </trkpt>
      <trkpt lat="46.76257" lon="5.80478">
        <ele>507.4</ele>
        <time>2022-02-23T13:17:41Z</time>
      </trkpt>
      <trkpt lat="46.76253" lon="5.80472">
        <ele>507.1</ele>
        <time>2022-02-23T13:17:46Z</time>
      </trkpt>
      <trkpt lat="46.76249" lon="5.80467">
        <ele>506.8</ele>
        <time>2022-02-23T13:17:50Z</time>
      </trkpt>
      <trkpt lat="46.76245" lon="5.80463">
        <ele>506.8</ele>
        <time>2022-02-23T13:17:55Z</time>
      </trkpt>
      <trkpt lat="46.76242" lon="5.80458">
        <ele>507.1</ele>
        <time>2022-02-23T13:18:00Z</time>
      </trkpt>
      <trkpt lat="46.76237" lon="5.80454">
        <ele>507</ele>
        <time>2022-02-23T13:18:05Z</time>
      </trkpt>
      <trkpt lat="46.76232" lon="5.8045">
        <ele>507</ele>
        <time>2022-02-23T13:18:10Z</time>
      </trkpt>
      <trkpt lat="46.76228" lon="5.80445">
        <ele>507.3</ele>
        <time>2022-02-23T13:18:15Z</time>
      </trkpt>
      <trkpt lat="46.76224" lon="5.80442">
        <ele>507.5</ele>
        <time>2022-02-23T13:18:19Z</time>
      </trkpt>
      <trkpt lat="46.7622" lon="5.80437">
        <ele>507.8</ele>
        <time>2022-02-23T13:18:23Z</time>
      </trkpt>
      <trkpt lat="46.76216" lon="5.80433">
        <ele>508.3</ele>
        <time>2022-02-23T13:18:27Z</time>
      </trkpt>
      <trkpt lat="46.76212" lon="5.8043">
        <ele>509.1</ele>
        <time>2022-02-23T13:18:32Z</time>
      </trkpt>
      <trkpt lat="46.76208" lon="5.80425">
        <ele>509.5</ele>
        <time>2022-02-23T13:18:37Z</time>
      </trkpt>
      <trkpt lat="46.76204" lon="5.80421">
        <ele>509.4</ele>
        <time>2022-02-23T13:18:42Z</time>
      </trkpt>
      <trkpt lat="46.762" lon="5.80417">
        <ele>509</ele>
        <time>2022-02-23T13:18:47Z</time>
      </trkpt>
      <trkpt lat="46.76196" lon="5.80412">
        <ele>508.7</ele>
        <time>2022-02-23T13:18:52Z</time>
      </trkpt>
      <trkpt lat="46.76191" lon="5.80408">
        <ele>508.2</ele>
        <time>2022-02-23T13:18:57Z</time>
      </trkpt>
      <trkpt lat="46.76188" lon="5.80403">
        <ele>507.4</ele>
        <time>2022-02-23T13:19:03Z</time>
      </trkpt>
      <trkpt lat="46.76185" lon="5.80398">
        <ele>506.8</ele>
        <time>2022-02-23T13:19:08Z</time>
      </trkpt>
      <trkpt lat="46.7618" lon="5.80395">
        <ele>506.3</ele>
        <time>2022-02-23T13:19:12Z</time>
      </trkpt>
      <trkpt lat="46.76176" lon="5.8039">
        <ele>505.8</ele>
        <time>2022-02-23T13:19:17Z</time>
      </trkpt>
      <trkpt lat="46.76171" lon="5.80386">
        <ele>505.5</ele>
        <time>2022-02-23T13:19:21Z</time>
      </trkpt>
      <trkpt lat="46.76167" lon="5.80381">
        <ele>504.7</ele>
        <time>2022-02-23T13:19:26Z</time>
      </trkpt>
      <trkpt lat="46.76163" lon="5.80377">
        <ele>504.1</ele>
        <time>2022-02-23T13:19:30Z</time>
      </trkpt>
      <trkpt lat="46.76159" lon="5.80372">
        <ele>503.3</ele>
        <time>2022-02-23T13:19:35Z</time>
      </trkpt>
      <trkpt lat="46.76155" lon="5.80367">
        <ele>502.8</ele>
        <time>2022-02-23T13:19:40Z</time>
      </trkpt>
      <trkpt lat="46.76152" lon="5.80361">
        <ele>502.4</ele>
        <time>2022-02-23T13:19:45Z</time>
      </trkpt>
      <trkpt lat="46.76148" lon="5.80355">
        <ele>502.1</ele>
        <time>2022-02-23T13:19:50Z</time>
      </trkpt>
      <trkpt lat="46.76144" lon="5.80351">
        <ele>501.8</ele>
        <time>2022-02-23T13:19:55Z</time>
      </trkpt>
      <trkpt lat="46.7614" lon="5.80345">
        <ele>501.6</ele>
        <time>2022-02-23T13:19:59Z</time>
      </trkpt>
      <trkpt lat="46.76136" lon="5.80341">
        <ele>501.6</ele>
        <time>2022-02-23T13:20:03Z</time>
      </trkpt>
      <trkpt lat="46.76133" lon="5.80336">
        <ele>501.8</ele>
        <time>2022-02-23T13:20:08Z</time>
      </trkpt>
      <trkpt lat="46.76129" lon="5.80333">
        <ele>502.1</ele>
        <time>2022-02-23T13:20:12Z</time>
      </trkpt>
      <trkpt lat="46.76124" lon="5.8033">
        <ele>502.5</ele>
        <time>2022-02-23T13:20:16Z</time>
      </trkpt>
      <trkpt lat="46.7612" lon="5.80326">
        <ele>502.9</ele>
        <time>2022-02-23T13:20:21Z</time>
      </trkpt>
      <trkpt lat="46.76116" lon="5.80322">
        <ele>502.5</ele>
        <time>2022-02-23T13:20:26Z</time>
      </trkpt>
      <trkpt lat="46.76112" lon="5.80316">
        <ele>501.1</ele>
        <time>2022-02-23T13:20:32Z</time>
      </trkpt>
      <trkpt lat="46.7611" lon="5.80309">
        <ele>499.3</ele>
        <time>2022-02-23T13:20:38Z</time>
      </trkpt>
      <trkpt lat="46.76109" lon="5.80303">
        <ele>497.6</ele>
        <time>2022-02-23T13:20:44Z</time>
      </trkpt>
      <trkpt lat="46.76111" lon="5.80297">
        <ele>495.8</ele>
        <time>2022-02-23T13:20:53Z</time>
      </trkpt>
      <trkpt lat="46.76116" lon="5.80296">
        <ele>494.1</ele>
        <time>2022-02-23T13:21:01Z</time>
      </trkpt>
      <trkpt lat="46.7612" lon="5.80292">
        <ele>492.1</ele>
        <time>2022-02-23T13:21:09Z</time>
      </trkpt>
      <trkpt lat="46.76122" lon="5.80286">
        <ele>490.8</ele>
        <time>2022-02-23T13:21:16Z</time>
      </trkpt>
      <trkpt lat="46.76125" lon="5.80281">
        <ele>490.4</ele>
        <time>2022-02-23T13:21:21Z</time>
      </trkpt>
      <trkpt lat="46.76128" lon="5.80277">
        <ele>490.3</ele>
        <time>2022-02-23T13:21:27Z</time>
      </trkpt>
      <trkpt lat="46.76131" lon="5.80271">
        <ele>490.8</ele>
        <time>2022-02-23T13:21:35Z</time>
      </trkpt>
      <trkpt lat="46.76135" lon="5.80266">
        <ele>492.5</ele>
        <time>2022-02-23T13:21:49Z</time>
      </trkpt>
      <trkpt lat="46.76139" lon="5.80262">
        <ele>494.2</ele>
        <time>2022-02-23T13:21:54Z</time>
      </trkpt>
      <trkpt lat="46.76144" lon="5.8026">
        <ele>495.9</ele>
        <time>2022-02-23T13:21:59Z</time>
      </trkpt>
      <trkpt lat="46.76148" lon="5.80256">
        <ele>498</ele>
        <time>2022-02-23T13:22:06Z</time>
      </trkpt>
      <trkpt lat="46.76153" lon="5.80254">
        <ele>499.9</ele>
        <time>2022-02-23T13:22:15Z</time>
      </trkpt>
      <trkpt lat="46.76157" lon="5.80251">
        <ele>500.8</ele>
        <time>2022-02-23T13:22:24Z</time>
      </trkpt>
      <trkpt lat="46.76161" lon="5.80249">
        <ele>501.4</ele>
        <time>2022-02-23T13:22:29Z</time>
      </trkpt>
      <trkpt lat="46.76167" lon="5.80247">
        <ele>502.3</ele>
        <time>2022-02-23T13:22:33Z</time>
      </trkpt>
      <trkpt lat="46.76171" lon="5.80245">
        <ele>503.3</ele>
        <time>2022-02-23T13:22:36Z</time>
      </trkpt>
      <trkpt lat="46.76177" lon="5.80244">
        <ele>504.7</ele>
        <time>2022-02-23T13:22:40Z</time>
      </trkpt>
      <trkpt lat="46.76182" lon="5.80242">
        <ele>506.1</ele>
        <time>2022-02-23T13:22:44Z</time>
      </trkpt>
      <trkpt lat="46.76186" lon="5.8024">
        <ele>507.9</ele>
        <time>2022-02-23T13:22:49Z</time>
      </trkpt>
      <trkpt lat="46.76191" lon="5.80237">
        <ele>510.1</ele>
        <time>2022-02-23T13:22:55Z</time>
      </trkpt>
      <trkpt lat="46.76194" lon="5.80233">
        <ele>511.9</ele>
        <time>2022-02-23T13:23:01Z</time>
      </trkpt>
      <trkpt lat="46.76199" lon="5.80231">
        <ele>513.9</ele>
        <time>2022-02-23T13:23:07Z</time>
      </trkpt>
      <trkpt lat="46.76204" lon="5.8023">
        <ele>515.5</ele>
        <time>2022-02-23T13:23:12Z</time>
      </trkpt>
      <trkpt lat="46.76209" lon="5.80229">
        <ele>517.4</ele>
        <time>2022-02-23T13:23:18Z</time>
      </trkpt>
      <trkpt lat="46.76213" lon="5.80227">
        <ele>519.4</ele>
        <time>2022-02-23T13:23:26Z</time>
      </trkpt>
      <trkpt lat="46.76218" lon="5.80225">
        <ele>520.9</ele>
        <time>2022-02-23T13:23:32Z</time>
      </trkpt>
      <trkpt lat="46.76223" lon="5.80225">
        <ele>522.1</ele>
        <time>2022-02-23T13:23:37Z</time>
      </trkpt>
      <trkpt lat="46.76228" lon="5.80224">
        <ele>523.7</ele>
        <time>2022-02-23T13:23:44Z</time>
      </trkpt>
      <trkpt lat="46.76232" lon="5.80221">
        <ele>524.7</ele>
        <time>2022-02-23T13:23:49Z</time>
      </trkpt>
      <trkpt lat="46.76236" lon="5.80217">
        <ele>527.7</ele>
        <time>2022-02-23T13:24:02Z</time>
      </trkpt>
      <trkpt lat="46.76239" lon="5.80213">
        <ele>529.5</ele>
        <time>2022-02-23T13:24:13Z</time>
      </trkpt>
      <trkpt lat="46.76244" lon="5.8021">
        <ele>530.4</ele>
        <time>2022-02-23T13:24:17Z</time>
      </trkpt>
      <trkpt lat="46.76249" lon="5.80209">
        <ele>531.5</ele>
        <time>2022-02-23T13:24:23Z</time>
      </trkpt>
      <trkpt lat="46.76254" lon="5.80209">
        <ele>532.9</ele>
        <time>2022-02-23T13:24:30Z</time>
      </trkpt>
      <trkpt lat="46.76258" lon="5.80207">
        <ele>534.5</ele>
        <time>2022-02-23T13:24:41Z</time>
      </trkpt>
      <trkpt lat="46.76263" lon="5.80205">
        <ele>534.9</ele>
        <time>2022-02-23T13:24:47Z</time>
      </trkpt>
      <trkpt lat="46.76267" lon="5.80203">
        <ele>535.6</ele>
        <time>2022-02-23T13:24:53Z</time>
      </trkpt>
      <trkpt lat="46.76272" lon="5.802">
        <ele>536.3</ele>
        <time>2022-02-23T13:24:59Z</time>
      </trkpt>
      <trkpt lat="46.76276" lon="5.80198">
        <ele>537</ele>
        <time>2022-02-23T13:25:04Z</time>
      </trkpt>
      <trkpt lat="46.76281" lon="5.80196">
        <ele>537.9</ele>
        <time>2022-02-23T13:25:10Z</time>
      </trkpt>
      <trkpt lat="46.76286" lon="5.80194">
        <ele>538.6</ele>
        <time>2022-02-23T13:25:15Z</time>
      </trkpt>
      <trkpt lat="46.76291" lon="5.80192">
        <ele>539.2</ele>
        <time>2022-02-23T13:25:21Z</time>
      </trkpt>
      <trkpt lat="46.76296" lon="5.80189">
        <ele>539.9</ele>
        <time>2022-02-23T13:25:26Z</time>
      </trkpt>
      <trkpt lat="46.763" lon="5.80187">
        <ele>540.5</ele>
        <time>2022-02-23T13:25:31Z</time>
      </trkpt>
      <trkpt lat="46.76305" lon="5.80185">
        <ele>541.1</ele>
        <time>2022-02-23T13:25:37Z</time>
      </trkpt>
      <trkpt lat="46.76309" lon="5.80183">
        <ele>542.1</ele>
        <time>2022-02-23T13:25:44Z</time>
      </trkpt>
      <trkpt lat="46.76314" lon="5.80182">
        <ele>543</ele>
        <time>2022-02-23T13:25:50Z</time>
      </trkpt>
      <trkpt lat="46.76319" lon="5.8018">
        <ele>544.1</ele>
        <time>2022-02-23T13:25:58Z</time>
      </trkpt>
      <trkpt lat="46.76323" lon="5.80178">
        <ele>545.4</ele>
        <time>2022-02-23T13:26:04Z</time>
      </trkpt>
      <trkpt lat="46.76328" lon="5.80179">
        <ele>547</ele>
        <time>2022-02-23T13:26:12Z</time>
      </trkpt>
      <trkpt lat="46.76332" lon="5.80178">
        <ele>548.7</ele>
        <time>2022-02-23T13:26:19Z</time>
      </trkpt>
      <trkpt lat="46.76338" lon="5.80178">
        <ele>549.5</ele>
        <time>2022-02-23T13:26:24Z</time>
      </trkpt>
      <trkpt lat="46.76342" lon="5.80178">
        <ele>550.5</ele>
        <time>2022-02-23T13:26:31Z</time>
      </trkpt>
      <trkpt lat="46.76347" lon="5.80177">
        <ele>551.7</ele>
        <time>2022-02-23T13:26:37Z</time>
      </trkpt>
      <trkpt lat="46.76351" lon="5.80173">
        <ele>552.4</ele>
        <time>2022-02-23T13:26:43Z</time>
      </trkpt>
      <trkpt lat="46.76355" lon="5.80169">
        <ele>553.1</ele>
        <time>2022-02-23T13:26:51Z</time>
      </trkpt>
      <trkpt lat="46.7636" lon="5.80166">
        <ele>553.7</ele>
        <time>2022-02-23T13:26:57Z</time>
      </trkpt>
      <trkpt lat="46.76364" lon="5.80163">
        <ele>554.5</ele>
        <time>2022-02-23T13:27:04Z</time>
      </trkpt>
      <trkpt lat="46.76369" lon="5.8016">
        <ele>555.4</ele>
        <time>2022-02-23T13:27:14Z</time>
      </trkpt>
      <trkpt lat="46.76373" lon="5.80156">
        <ele>556</ele>
        <time>2022-02-23T13:27:22Z</time>
      </trkpt>
      <trkpt lat="46.76378" lon="5.80155">
        <ele>556.9</ele>
        <time>2022-02-23T13:27:30Z</time>
      </trkpt>
      <trkpt lat="46.76383" lon="5.80153">
        <ele>558.3</ele>
        <time>2022-02-23T13:27:37Z</time>
      </trkpt>
      <trkpt lat="46.76388" lon="5.80151">
        <ele>561.9</ele>
        <time>2022-02-23T13:27:47Z</time>
      </trkpt>
      <trkpt lat="46.76391" lon="5.80148">
        <ele>564</ele>
        <time>2022-02-23T13:27:52Z</time>
      </trkpt>
      <trkpt lat="46.764" lon="5.80152">
        <ele>568.3</ele>
        <time>2022-02-23T13:28:16Z</time>
      </trkpt>
      <trkpt lat="46.76405" lon="5.80154">
        <ele>568.4</ele>
        <time>2022-02-23T13:28:19Z</time>
      </trkpt>
      <trkpt lat="46.76411" lon="5.80155">
        <ele>568.7</ele>
        <time>2022-02-23T13:28:23Z</time>
      </trkpt>
      <trkpt lat="46.76415" lon="5.80158">
        <ele>568.6</ele>
        <time>2022-02-23T13:28:29Z</time>
      </trkpt>
      <trkpt lat="46.7642" lon="5.80161">
        <ele>569.4</ele>
        <time>2022-02-23T13:28:35Z</time>
      </trkpt>
      <trkpt lat="46.76423" lon="5.80165">
        <ele>570.9</ele>
        <time>2022-02-23T13:28:44Z</time>
      </trkpt>
      <trkpt lat="46.76428" lon="5.80166">
        <ele>571.9</ele>
        <time>2022-02-23T13:28:51Z</time>
      </trkpt>
      <trkpt lat="46.76433" lon="5.80165">
        <ele>572.4</ele>
        <time>2022-02-23T13:28:55Z</time>
      </trkpt>
      <trkpt lat="46.76438" lon="5.80166">
        <ele>572.9</ele>
        <time>2022-02-23T13:29:00Z</time>
      </trkpt>
      <trkpt lat="46.76443" lon="5.80167">
        <ele>574.3</ele>
        <time>2022-02-23T13:29:05Z</time>
      </trkpt>
      <trkpt lat="46.76447" lon="5.8017">
        <ele>575.7</ele>
        <time>2022-02-23T13:29:13Z</time>
      </trkpt>
      <trkpt lat="46.76452" lon="5.80173">
        <ele>577.7</ele>
        <time>2022-02-23T13:29:21Z</time>
      </trkpt>
      <trkpt lat="46.76457" lon="5.80176">
        <ele>579.4</ele>
        <time>2022-02-23T13:29:27Z</time>
      </trkpt>
      <trkpt lat="46.76463" lon="5.80177">
        <ele>580.5</ele>
        <time>2022-02-23T13:29:32Z</time>
      </trkpt>
      <trkpt lat="46.76468" lon="5.80179">
        <ele>581.1</ele>
        <time>2022-02-23T13:29:37Z</time>
      </trkpt>
      <trkpt lat="46.76472" lon="5.80181">
        <ele>581.7</ele>
        <time>2022-02-23T13:29:45Z</time>
      </trkpt>
      <trkpt lat="46.76477" lon="5.80183">
        <ele>581.7</ele>
        <time>2022-02-23T13:29:51Z</time>
      </trkpt>
      <trkpt lat="46.76481" lon="5.80184">
        <ele>581.5</ele>
        <time>2022-02-23T13:29:56Z</time>
      </trkpt>
      <trkpt lat="46.76486" lon="5.80187">
        <ele>581.3</ele>
        <time>2022-02-23T13:30:06Z</time>
      </trkpt>
      <trkpt lat="46.7649" lon="5.8019">
        <ele>581.8</ele>
        <time>2022-02-23T13:30:13Z</time>
      </trkpt>
      <trkpt lat="46.76494" lon="5.80196">
        <ele>582.5</ele>
        <time>2022-02-23T13:30:20Z</time>
      </trkpt>
      <trkpt lat="46.76497" lon="5.80201">
        <ele>583.1</ele>
        <time>2022-02-23T13:30:24Z</time>
      </trkpt>
      <trkpt lat="46.76499" lon="5.80207">
        <ele>584.1</ele>
        <time>2022-02-23T13:30:29Z</time>
      </trkpt>
      <trkpt lat="46.76503" lon="5.80212">
        <ele>585.2</ele>
        <time>2022-02-23T13:30:34Z</time>
      </trkpt>
      <trkpt lat="46.76508" lon="5.80216">
        <ele>586.2</ele>
        <time>2022-02-23T13:30:40Z</time>
      </trkpt>
      <trkpt lat="46.76511" lon="5.80221">
        <ele>587</ele>
        <time>2022-02-23T13:30:44Z</time>
      </trkpt>
      <trkpt lat="46.76515" lon="5.80226">
        <ele>587.6</ele>
        <time>2022-02-23T13:30:49Z</time>
      </trkpt>
      <trkpt lat="46.7652" lon="5.80231">
        <ele>588.1</ele>
        <time>2022-02-23T13:30:54Z</time>
      </trkpt>
      <trkpt lat="46.76523" lon="5.80236">
        <ele>588.5</ele>
        <time>2022-02-23T13:30:59Z</time>
      </trkpt>
      <trkpt lat="46.76527" lon="5.80238">
        <ele>589.2</ele>
        <time>2022-02-23T13:31:04Z</time>
      </trkpt>
      <trkpt lat="46.76532" lon="5.80241">
        <ele>590</ele>
        <time>2022-02-23T13:31:09Z</time>
      </trkpt>
      <trkpt lat="46.76536" lon="5.80246">
        <ele>590.8</ele>
        <time>2022-02-23T13:31:14Z</time>
      </trkpt>
      <trkpt lat="46.7654" lon="5.8025">
        <ele>591.9</ele>
        <time>2022-02-23T13:31:20Z</time>
      </trkpt>
      <trkpt lat="46.76544" lon="5.80254">
        <ele>592.9</ele>
        <time>2022-02-23T13:31:26Z</time>
      </trkpt>
      <trkpt lat="46.76548" lon="5.80256">
        <ele>594</ele>
        <time>2022-02-23T13:31:35Z</time>
      </trkpt>
      <trkpt lat="46.76552" lon="5.8026">
        <ele>594.7</ele>
        <time>2022-02-23T13:31:42Z</time>
      </trkpt>
      <trkpt lat="46.76556" lon="5.80263">
        <ele>595.3</ele>
        <time>2022-02-23T13:31:47Z</time>
      </trkpt>
      <trkpt lat="46.76561" lon="5.80267">
        <ele>596.2</ele>
        <time>2022-02-23T13:31:53Z</time>
      </trkpt>
      <trkpt lat="46.76565" lon="5.80271">
        <ele>597</ele>
        <time>2022-02-23T13:31:58Z</time>
      </trkpt>
      <trkpt lat="46.76568" lon="5.80276">
        <ele>597.8</ele>
        <time>2022-02-23T13:32:03Z</time>
      </trkpt>
      <trkpt lat="46.76572" lon="5.80281">
        <ele>598.4</ele>
        <time>2022-02-23T13:32:08Z</time>
      </trkpt>
      <trkpt lat="46.76575" lon="5.80285">
        <ele>599</ele>
        <time>2022-02-23T13:32:13Z</time>
      </trkpt>
      <trkpt lat="46.76578" lon="5.80291">
        <ele>599.3</ele>
        <time>2022-02-23T13:32:18Z</time>
      </trkpt>
      <trkpt lat="46.76583" lon="5.80294">
        <ele>599.2</ele>
        <time>2022-02-23T13:32:24Z</time>
      </trkpt>
      <trkpt lat="46.76586" lon="5.80298">
        <ele>599.3</ele>
        <time>2022-02-23T13:32:30Z</time>
      </trkpt>
      <trkpt lat="46.7659" lon="5.80304">
        <ele>599.1</ele>
        <time>2022-02-23T13:32:36Z</time>
      </trkpt>
      <trkpt lat="46.76593" lon="5.80309">
        <ele>598.9</ele>
        <time>2022-02-23T13:32:43Z</time>
      </trkpt>
      <trkpt lat="46.76597" lon="5.80314">
        <ele>598.8</ele>
        <time>2022-02-23T13:32:48Z</time>
      </trkpt>
      <trkpt lat="46.76601" lon="5.80319">
        <ele>598.5</ele>
        <time>2022-02-23T13:32:53Z</time>
      </trkpt>
      <trkpt lat="46.76605" lon="5.80323">
        <ele>598.1</ele>
        <time>2022-02-23T13:32:59Z</time>
      </trkpt>
      <trkpt lat="46.76609" lon="5.80326">
        <ele>597.8</ele>
        <time>2022-02-23T13:33:05Z</time>
      </trkpt>
      <trkpt lat="46.76613" lon="5.80329">
        <ele>597.8</ele>
        <time>2022-02-23T13:33:11Z</time>
      </trkpt>
      <trkpt lat="46.76618" lon="5.80332">
        <ele>597.8</ele>
        <time>2022-02-23T13:33:17Z</time>
      </trkpt>
      <trkpt lat="46.76622" lon="5.80334">
        <ele>597.9</ele>
        <time>2022-02-23T13:33:22Z</time>
      </trkpt>
      <trkpt lat="46.76627" lon="5.80338">
        <ele>598</ele>
        <time>2022-02-23T13:33:28Z</time>
      </trkpt>
      <trkpt lat="46.76632" lon="5.8034">
        <ele>598</ele>
        <time>2022-02-23T13:33:32Z</time>
      </trkpt>
      <trkpt lat="46.76637" lon="5.80342">
        <ele>597.9</ele>
        <time>2022-02-23T13:33:38Z</time>
      </trkpt>
      <trkpt lat="46.76641" lon="5.80345">
        <ele>597.9</ele>
        <time>2022-02-23T13:33:42Z</time>
      </trkpt>
      <trkpt lat="46.76646" lon="5.80348">
        <ele>598.2</ele>
        <time>2022-02-23T13:33:46Z</time>
      </trkpt>
      <trkpt lat="46.76651" lon="5.80351">
        <ele>598.6</ele>
        <time>2022-02-23T13:33:51Z</time>
      </trkpt>
      <trkpt lat="46.76654" lon="5.80354">
        <ele>599</ele>
        <time>2022-02-23T13:33:57Z</time>
      </trkpt>
      <trkpt lat="46.76659" lon="5.80358">
        <ele>599.1</ele>
        <time>2022-02-23T13:34:04Z</time>
      </trkpt>
      <trkpt lat="46.76662" lon="5.80363">
        <ele>599.5</ele>
        <time>2022-02-23T13:34:09Z</time>
      </trkpt>
      <trkpt lat="46.76666" lon="5.80367">
        <ele>600</ele>
        <time>2022-02-23T13:34:14Z</time>
      </trkpt>
      <trkpt lat="46.7667" lon="5.80372">
        <ele>600.9</ele>
        <time>2022-02-23T13:34:20Z</time>
      </trkpt>
      <trkpt lat="46.76673" lon="5.80378">
        <ele>601.9</ele>
        <time>2022-02-23T13:34:27Z</time>
      </trkpt>
      <trkpt lat="46.76677" lon="5.80382">
        <ele>602.5</ele>
        <time>2022-02-23T13:34:35Z</time>
      </trkpt>
      <trkpt lat="46.76685" lon="5.80388">
        <ele>602.8</ele>
        <time>2022-02-23T13:34:56Z</time>
      </trkpt>
      <trkpt lat="46.7669" lon="5.80389">
        <ele>602.7</ele>
        <time>2022-02-23T13:34:59Z</time>
      </trkpt>
      <trkpt lat="46.76695" lon="5.80391">
        <ele>602.3</ele>
        <time>2022-02-23T13:35:02Z</time>
      </trkpt>
      <trkpt lat="46.767" lon="5.80391">
        <ele>601.6</ele>
        <time>2022-02-23T13:35:08Z</time>
      </trkpt>
      <trkpt lat="46.76704" lon="5.80389">
        <ele>601.2</ele>
        <time>2022-02-23T13:35:13Z</time>
      </trkpt>
      <trkpt lat="46.76709" lon="5.80391">
        <ele>601.1</ele>
        <time>2022-02-23T13:35:19Z</time>
      </trkpt>
      <trkpt lat="46.76712" lon="5.80395">
        <ele>602</ele>
        <time>2022-02-23T13:35:31Z</time>
      </trkpt>
      <trkpt lat="46.76717" lon="5.80397">
        <ele>602.6</ele>
        <time>2022-02-23T13:35:41Z</time>
      </trkpt>
      <trkpt lat="46.76721" lon="5.804">
        <ele>602.8</ele>
        <time>2022-02-23T13:35:44Z</time>
      </trkpt>
      <trkpt lat="46.76725" lon="5.80404">
        <ele>603.1</ele>
        <time>2022-02-23T13:35:50Z</time>
      </trkpt>
      <trkpt lat="46.76729" lon="5.80409">
        <ele>603.3</ele>
        <time>2022-02-23T13:35:57Z</time>
      </trkpt>
      <trkpt lat="46.76733" lon="5.80412">
        <ele>603.5</ele>
        <time>2022-02-23T13:36:04Z</time>
      </trkpt>
      <trkpt lat="46.76739" lon="5.80415">
        <ele>603.9</ele>
        <time>2022-02-23T13:36:09Z</time>
      </trkpt>
      <trkpt lat="46.76743" lon="5.80417">
        <ele>604.4</ele>
        <time>2022-02-23T13:36:13Z</time>
      </trkpt>
      <trkpt lat="46.76748" lon="5.80421">
        <ele>605</ele>
        <time>2022-02-23T13:36:19Z</time>
      </trkpt>
      <trkpt lat="46.76753" lon="5.80423">
        <ele>606.6</ele>
        <time>2022-02-23T13:36:31Z</time>
      </trkpt>
      <trkpt lat="46.76758" lon="5.80425">
        <ele>606.9</ele>
        <time>2022-02-23T13:36:36Z</time>
      </trkpt>
      <trkpt lat="46.76763" lon="5.80428">
        <ele>607.2</ele>
        <time>2022-02-23T13:36:40Z</time>
      </trkpt>
      <trkpt lat="46.76767" lon="5.80431">
        <ele>607.6</ele>
        <time>2022-02-23T13:36:44Z</time>
      </trkpt>
      <trkpt lat="46.76772" lon="5.80434">
        <ele>608.4</ele>
        <time>2022-02-23T13:36:51Z</time>
      </trkpt>
      <trkpt lat="46.76776" lon="5.80436">
        <ele>608.5</ele>
        <time>2022-02-23T13:36:56Z</time>
      </trkpt>
      <trkpt lat="46.76781" lon="5.80438">
        <ele>608.3</ele>
        <time>2022-02-23T13:37:02Z</time>
      </trkpt>
      <trkpt lat="46.76786" lon="5.80441">
        <ele>608</ele>
        <time>2022-02-23T13:37:09Z</time>
      </trkpt>
      <trkpt lat="46.7679" lon="5.80446">
        <ele>608.2</ele>
        <time>2022-02-23T13:37:17Z</time>
      </trkpt>
      <trkpt lat="46.76793" lon="5.8045">
        <ele>608.4</ele>
        <time>2022-02-23T13:37:23Z</time>
      </trkpt>
      <trkpt lat="46.76798" lon="5.80454">
        <ele>608.6</ele>
        <time>2022-02-23T13:37:29Z</time>
      </trkpt>
      <trkpt lat="46.76803" lon="5.80457">
        <ele>611.4</ele>
        <time>2022-02-23T13:40:17Z</time>
      </trkpt>
      <trkpt lat="46.76807" lon="5.8046">
        <ele>615.2</ele>
        <time>2022-02-23T13:40:26Z</time>
      </trkpt>
      <trkpt lat="46.76811" lon="5.80463">
        <ele>617.2</ele>
        <time>2022-02-23T13:40:47Z</time>
      </trkpt>
      <trkpt lat="46.76816" lon="5.80463">
        <ele>616.9</ele>
        <time>2022-02-23T13:40:53Z</time>
      </trkpt>
      <trkpt lat="46.76818" lon="5.80457">
        <ele>612.5</ele>
        <time>2022-02-23T13:41:49Z</time>
      </trkpt>
      <trkpt lat="46.7682" lon="5.80451">
        <ele>612.4</ele>
        <time>2022-02-23T13:41:55Z</time>
      </trkpt>
      <trkpt lat="46.76817" lon="5.80445">
        <ele>616.5</ele>
        <time>2022-02-23T13:42:15Z</time>
      </trkpt>
      <trkpt lat="46.76816" lon="5.80438">
        <ele>618.3</ele>
        <time>2022-02-23T13:42:22Z</time>
      </trkpt>
      <trkpt lat="46.76814" lon="5.80432">
        <ele>620.3</ele>
        <time>2022-02-23T13:42:31Z</time>
      </trkpt>
      <trkpt lat="46.76811" lon="5.80427">
        <ele>620.9</ele>
        <time>2022-02-23T13:42:38Z</time>
      </trkpt>
      <trkpt lat="46.7681" lon="5.8042">
        <ele>621.5</ele>
        <time>2022-02-23T13:42:45Z</time>
      </trkpt>
      <trkpt lat="46.76807" lon="5.80414">
        <ele>622.1</ele>
        <time>2022-02-23T13:42:50Z</time>
      </trkpt>
      <trkpt lat="46.76805" lon="5.80407">
        <ele>622.8</ele>
        <time>2022-02-23T13:42:55Z</time>
      </trkpt>
      <trkpt lat="46.76804" lon="5.804">
        <ele>623.1</ele>
        <time>2022-02-23T13:43:00Z</time>
      </trkpt>
      <trkpt lat="46.76802" lon="5.80393">
        <ele>622.8</ele>
        <time>2022-02-23T13:43:05Z</time>
      </trkpt>
      <trkpt lat="46.76801" lon="5.80386">
        <ele>622.2</ele>
        <time>2022-02-23T13:43:11Z</time>
      </trkpt>
      <trkpt lat="46.76801" lon="5.80379">
        <ele>621.9</ele>
        <time>2022-02-23T13:43:18Z</time>
      </trkpt>
      <trkpt lat="46.76799" lon="5.80372">
        <ele>622</ele>
        <time>2022-02-23T13:43:26Z</time>
      </trkpt>
      <trkpt lat="46.76797" lon="5.80365">
        <ele>622.5</ele>
        <time>2022-02-23T13:43:31Z</time>
      </trkpt>
      <trkpt lat="46.76795" lon="5.8036">
        <ele>623.4</ele>
        <time>2022-02-23T13:43:37Z</time>
      </trkpt>
      <trkpt lat="46.76792" lon="5.80353">
        <ele>624.7</ele>
        <time>2022-02-23T13:43:44Z</time>
      </trkpt>
      <trkpt lat="46.76787" lon="5.80348">
        <ele>625.7</ele>
        <time>2022-02-23T13:43:49Z</time>
      </trkpt>
      <trkpt lat="46.76784" lon="5.80343">
        <ele>626.4</ele>
        <time>2022-02-23T13:43:53Z</time>
      </trkpt>
      <trkpt lat="46.7678" lon="5.80339">
        <ele>627</ele>
        <time>2022-02-23T13:43:58Z</time>
      </trkpt>
      <trkpt lat="46.76777" lon="5.80333">
        <ele>627.6</ele>
        <time>2022-02-23T13:44:03Z</time>
      </trkpt>
      <trkpt lat="46.76775" lon="5.80326">
        <ele>627.8</ele>
        <time>2022-02-23T13:44:10Z</time>
      </trkpt>
      <trkpt lat="46.76774" lon="5.80319">
        <ele>627.2</ele>
        <time>2022-02-23T13:44:16Z</time>
      </trkpt>
      <trkpt lat="46.76773" lon="5.80312">
        <ele>626.3</ele>
        <time>2022-02-23T13:44:22Z</time>
      </trkpt>
      <trkpt lat="46.76773" lon="5.80305">
        <ele>624.7</ele>
        <time>2022-02-23T13:44:30Z</time>
      </trkpt>
      <trkpt lat="46.76776" lon="5.80299">
        <ele>623.3</ele>
        <time>2022-02-23T13:44:37Z</time>
      </trkpt>
      <trkpt lat="46.76779" lon="5.80294">
        <ele>621.8</ele>
        <time>2022-02-23T13:44:44Z</time>
      </trkpt>
      <trkpt lat="46.76781" lon="5.80288">
        <ele>620.5</ele>
        <time>2022-02-23T13:44:50Z</time>
      </trkpt>
      <trkpt lat="46.76783" lon="5.80282">
        <ele>619.6</ele>
        <time>2022-02-23T13:44:56Z</time>
      </trkpt>
      <trkpt lat="46.76787" lon="5.80277">
        <ele>619.2</ele>
        <time>2022-02-23T13:45:01Z</time>
      </trkpt>
      <trkpt lat="46.76791" lon="5.8027">
        <ele>618.9</ele>
        <time>2022-02-23T13:45:05Z</time>
      </trkpt>
      <trkpt lat="46.76795" lon="5.80264">
        <ele>618.8</ele>
        <time>2022-02-23T13:45:08Z</time>
      </trkpt>
      <trkpt lat="46.76798" lon="5.80258">
        <ele>618.7</ele>
        <time>2022-02-23T13:45:12Z</time>
      </trkpt>
      <trkpt lat="46.76801" lon="5.80253">
        <ele>618.8</ele>
        <time>2022-02-23T13:45:17Z</time>
      </trkpt>
      <trkpt lat="46.76803" lon="5.80247">
        <ele>618.8</ele>
        <time>2022-02-23T13:45:21Z</time>
      </trkpt>
      <trkpt lat="46.76805" lon="5.8024">
        <ele>618.9</ele>
        <time>2022-02-23T13:45:27Z</time>
      </trkpt>
      <trkpt lat="46.76806" lon="5.80233">
        <ele>618.8</ele>
        <time>2022-02-23T13:45:33Z</time>
      </trkpt>
      <trkpt lat="46.76804" lon="5.80225">
        <ele>618.9</ele>
        <time>2022-02-23T13:45:37Z</time>
      </trkpt>
      <trkpt lat="46.76802" lon="5.80218">
        <ele>618.8</ele>
        <time>2022-02-23T13:45:44Z</time>
      </trkpt>
      <trkpt lat="46.76803" lon="5.80211">
        <ele>618.2</ele>
        <time>2022-02-23T13:45:51Z</time>
      </trkpt>
      <trkpt lat="46.76803" lon="5.80205">
        <ele>618.1</ele>
        <time>2022-02-23T13:45:56Z</time>
      </trkpt>
      <trkpt lat="46.76804" lon="5.80197">
        <ele>617.6</ele>
        <time>2022-02-23T13:46:02Z</time>
      </trkpt>
      <trkpt lat="46.76807" lon="5.80192">
        <ele>617.3</ele>
        <time>2022-02-23T13:46:07Z</time>
      </trkpt>
      <trkpt lat="46.76812" lon="5.8019">
        <ele>616.8</ele>
        <time>2022-02-23T13:46:14Z</time>
      </trkpt>
      <trkpt lat="46.76817" lon="5.80191">
        <ele>616.2</ele>
        <time>2022-02-23T13:46:19Z</time>
      </trkpt>
      <trkpt lat="46.76822" lon="5.80192">
        <ele>616</ele>
        <time>2022-02-23T13:46:24Z</time>
      </trkpt>
      <trkpt lat="46.76827" lon="5.80195">
        <ele>615.9</ele>
        <time>2022-02-23T13:46:28Z</time>
      </trkpt>
      <trkpt lat="46.76832" lon="5.80198">
        <ele>615.3</ele>
        <time>2022-02-23T13:46:33Z</time>
      </trkpt>
      <trkpt lat="46.76835" lon="5.80203">
        <ele>614.7</ele>
        <time>2022-02-23T13:46:37Z</time>
      </trkpt>
      <trkpt lat="46.76839" lon="5.80206">
        <ele>614.3</ele>
        <time>2022-02-23T13:46:41Z</time>
      </trkpt>
      <trkpt lat="46.76844" lon="5.80209">
        <ele>613.5</ele>
        <time>2022-02-23T13:46:47Z</time>
      </trkpt>
      <trkpt lat="46.76848" lon="5.80212">
        <ele>612.8</ele>
        <time>2022-02-23T13:46:53Z</time>
      </trkpt>
      <trkpt lat="46.76851" lon="5.80216">
        <ele>612.4</ele>
        <time>2022-02-23T13:46:58Z</time>
      </trkpt>
      <trkpt lat="46.76856" lon="5.80221">
        <ele>612.2</ele>
        <time>2022-02-23T13:47:03Z</time>
      </trkpt>
      <trkpt lat="46.76862" lon="5.80223">
        <ele>612.1</ele>
        <time>2022-02-23T13:47:07Z</time>
      </trkpt>
      <trkpt lat="46.76866" lon="5.80227">
        <ele>612.1</ele>
        <time>2022-02-23T13:47:11Z</time>
      </trkpt>
      <trkpt lat="46.76872" lon="5.80231">
        <ele>612.2</ele>
        <time>2022-02-23T13:47:15Z</time>
      </trkpt>
      <trkpt lat="46.76877" lon="5.80235">
        <ele>612.6</ele>
        <time>2022-02-23T13:47:19Z</time>
      </trkpt>
      <trkpt lat="46.76882" lon="5.80239">
        <ele>612.9</ele>
        <time>2022-02-23T13:47:23Z</time>
      </trkpt>
      <trkpt lat="46.76885" lon="5.80243">
        <ele>613.3</ele>
        <time>2022-02-23T13:47:27Z</time>
      </trkpt>
      <trkpt lat="46.7689" lon="5.80247">
        <ele>613.7</ele>
        <time>2022-02-23T13:47:32Z</time>
      </trkpt>
      <trkpt lat="46.76894" lon="5.80252">
        <ele>613.8</ele>
        <time>2022-02-23T13:47:37Z</time>
      </trkpt>
      <trkpt lat="46.76897" lon="5.80258">
        <ele>614</ele>
        <time>2022-02-23T13:47:42Z</time>
      </trkpt>
      <trkpt lat="46.76899" lon="5.80264">
        <ele>613.9</ele>
        <time>2022-02-23T13:47:48Z</time>
      </trkpt>
      <trkpt lat="46.76902" lon="5.8027">
        <ele>613.7</ele>
        <time>2022-02-23T13:47:54Z</time>
      </trkpt>
      <trkpt lat="46.76906" lon="5.80274">
        <ele>613.8</ele>
        <time>2022-02-23T13:47:59Z</time>
      </trkpt>
      <trkpt lat="46.76911" lon="5.80277">
        <ele>614.1</ele>
        <time>2022-02-23T13:48:04Z</time>
      </trkpt>
      <trkpt lat="46.76915" lon="5.80282">
        <ele>614.6</ele>
        <time>2022-02-23T13:48:08Z</time>
      </trkpt>
      <trkpt lat="46.76918" lon="5.80288">
        <ele>615.1</ele>
        <time>2022-02-23T13:48:13Z</time>
      </trkpt>
      <trkpt lat="46.76921" lon="5.80293">
        <ele>615.5</ele>
        <time>2022-02-23T13:48:18Z</time>
      </trkpt>
      <trkpt lat="46.76926" lon="5.80297">
        <ele>615.7</ele>
        <time>2022-02-23T13:48:24Z</time>
      </trkpt>
      <trkpt lat="46.7693" lon="5.80302">
        <ele>615.6</ele>
        <time>2022-02-23T13:48:28Z</time>
      </trkpt>
      <trkpt lat="46.76935" lon="5.80307">
        <ele>615.6</ele>
        <time>2022-02-23T13:48:33Z</time>
      </trkpt>
      <trkpt lat="46.76938" lon="5.80312">
        <ele>615.6</ele>
        <time>2022-02-23T13:48:37Z</time>
      </trkpt>
      <trkpt lat="46.76941" lon="5.80319">
        <ele>615.7</ele>
        <time>2022-02-23T13:48:42Z</time>
      </trkpt>
      <trkpt lat="46.76946" lon="5.80325">
        <ele>615.8</ele>
        <time>2022-02-23T13:48:47Z</time>
      </trkpt>
      <trkpt lat="46.76949" lon="5.80329">
        <ele>616</ele>
        <time>2022-02-23T13:48:51Z</time>
      </trkpt>
      <trkpt lat="46.76953" lon="5.80333">
        <ele>616.1</ele>
        <time>2022-02-23T13:48:56Z</time>
      </trkpt>
      <trkpt lat="46.76957" lon="5.80339">
        <ele>615.9</ele>
        <time>2022-02-23T13:49:01Z</time>
      </trkpt>
      <trkpt lat="46.76961" lon="5.80344">
        <ele>615.8</ele>
        <time>2022-02-23T13:49:05Z</time>
      </trkpt>
      <trkpt lat="46.76964" lon="5.8035">
        <ele>615.9</ele>
        <time>2022-02-23T13:49:09Z</time>
      </trkpt>
      <trkpt lat="46.76967" lon="5.80355">
        <ele>616.1</ele>
        <time>2022-02-23T13:49:14Z</time>
      </trkpt>
      <trkpt lat="46.7697" lon="5.8036">
        <ele>616.4</ele>
        <time>2022-02-23T13:49:18Z</time>
      </trkpt>
      <trkpt lat="46.76974" lon="5.80365">
        <ele>616.6</ele>
        <time>2022-02-23T13:49:22Z</time>
      </trkpt>
      <trkpt lat="46.76977" lon="5.80372">
        <ele>616.9</ele>
        <time>2022-02-23T13:49:27Z</time>
      </trkpt>
      <trkpt lat="46.7698" lon="5.80376">
        <ele>617.2</ele>
        <time>2022-02-23T13:49:31Z</time>
      </trkpt>
      <trkpt lat="46.76984" lon="5.80381">
        <ele>617.6</ele>
        <time>2022-02-23T13:49:35Z</time>
      </trkpt>
      <trkpt lat="46.76987" lon="5.80385">
        <ele>617.9</ele>
        <time>2022-02-23T13:49:40Z</time>
      </trkpt>
      <trkpt lat="46.7699" lon="5.80391">
        <ele>618.2</ele>
        <time>2022-02-23T13:49:45Z</time>
      </trkpt>
      <trkpt lat="46.76993" lon="5.80397">
        <ele>618.4</ele>
        <time>2022-02-23T13:49:50Z</time>
      </trkpt>
      <trkpt lat="46.76996" lon="5.80402">
        <ele>618.5</ele>
        <time>2022-02-23T13:49:54Z</time>
      </trkpt>
      <trkpt lat="46.76999" lon="5.80409">
        <ele>618.6</ele>
        <time>2022-02-23T13:49:59Z</time>
      </trkpt>
      <trkpt lat="46.77002" lon="5.80414">
        <ele>618.9</ele>
        <time>2022-02-23T13:50:04Z</time>
      </trkpt>
      <trkpt lat="46.77004" lon="5.80421">
        <ele>619.2</ele>
        <time>2022-02-23T13:50:09Z</time>
      </trkpt>
      <trkpt lat="46.77007" lon="5.80427">
        <ele>619.4</ele>
        <time>2022-02-23T13:50:14Z</time>
      </trkpt>
      <trkpt lat="46.77011" lon="5.80431">
        <ele>619.6</ele>
        <time>2022-02-23T13:50:18Z</time>
      </trkpt>
      <trkpt lat="46.77014" lon="5.80436">
        <ele>619.8</ele>
        <time>2022-02-23T13:50:22Z</time>
      </trkpt>
      <trkpt lat="46.77018" lon="5.80442">
        <ele>620.1</ele>
        <time>2022-02-23T13:50:27Z</time>
      </trkpt>
      <trkpt lat="46.7702" lon="5.80448">
        <ele>620.4</ele>
        <time>2022-02-23T13:50:31Z</time>
      </trkpt>
      <trkpt lat="46.77023" lon="5.80455">
        <ele>620.9</ele>
        <time>2022-02-23T13:50:36Z</time>
      </trkpt>
      <trkpt lat="46.77025" lon="5.8046">
        <ele>621.3</ele>
        <time>2022-02-23T13:50:40Z</time>
      </trkpt>
      <trkpt lat="46.77028" lon="5.80466">
        <ele>621.6</ele>
        <time>2022-02-23T13:50:45Z</time>
      </trkpt>
      <trkpt lat="46.7703" lon="5.80473">
        <ele>622.2</ele>
        <time>2022-02-23T13:50:50Z</time>
      </trkpt>
      <trkpt lat="46.77033" lon="5.80479">
        <ele>622.6</ele>
        <time>2022-02-23T13:50:55Z</time>
      </trkpt>
      <trkpt lat="46.77034" lon="5.80486">
        <ele>622.9</ele>
        <time>2022-02-23T13:51:00Z</time>
      </trkpt>
      <trkpt lat="46.77035" lon="5.80493">
        <ele>623.1</ele>
        <time>2022-02-23T13:51:04Z</time>
      </trkpt>
      <trkpt lat="46.77037" lon="5.80501">
        <ele>623.4</ele>
        <time>2022-02-23T13:51:09Z</time>
      </trkpt>
      <trkpt lat="46.7704" lon="5.80506">
        <ele>623.8</ele>
        <time>2022-02-23T13:51:13Z</time>
      </trkpt>
      <trkpt lat="46.77042" lon="5.80512">
        <ele>624.4</ele>
        <time>2022-02-23T13:51:17Z</time>
      </trkpt>
      <trkpt lat="46.77045" lon="5.80518">
        <ele>624.5</ele>
        <time>2022-02-23T13:51:22Z</time>
      </trkpt>
      <trkpt lat="46.77048" lon="5.80525">
        <ele>624</ele>
        <time>2022-02-23T13:51:27Z</time>
      </trkpt>
      <trkpt lat="46.7705" lon="5.80531">
        <ele>623</ele>
        <time>2022-02-23T13:51:32Z</time>
      </trkpt>
      <trkpt lat="46.77053" lon="5.80537">
        <ele>622.4</ele>
        <time>2022-02-23T13:51:36Z</time>
      </trkpt>
      <trkpt lat="46.77054" lon="5.80544">
        <ele>621.8</ele>
        <time>2022-02-23T13:51:41Z</time>
      </trkpt>
      <trkpt lat="46.77056" lon="5.80549">
        <ele>621.3</ele>
        <time>2022-02-23T13:51:46Z</time>
      </trkpt>
      <trkpt lat="46.77057" lon="5.80556">
        <ele>620.8</ele>
        <time>2022-02-23T13:51:50Z</time>
      </trkpt>
      <trkpt lat="46.77061" lon="5.80561">
        <ele>620.3</ele>
        <time>2022-02-23T13:51:54Z</time>
      </trkpt>
      <trkpt lat="46.77064" lon="5.80566">
        <ele>619.8</ele>
        <time>2022-02-23T13:51:59Z</time>
      </trkpt>
      <trkpt lat="46.77068" lon="5.8057">
        <ele>619.8</ele>
        <time>2022-02-23T13:52:03Z</time>
      </trkpt>
      <trkpt lat="46.7707" lon="5.80576">
        <ele>620.1</ele>
        <time>2022-02-23T13:52:08Z</time>
      </trkpt>
      <trkpt lat="46.77071" lon="5.80583">
        <ele>620.9</ele>
        <time>2022-02-23T13:52:13Z</time>
      </trkpt>
      <trkpt lat="46.77074" lon="5.80588">
        <ele>621.7</ele>
        <time>2022-02-23T13:52:18Z</time>
      </trkpt>
      <trkpt lat="46.77078" lon="5.80592">
        <ele>622.5</ele>
        <time>2022-02-23T13:52:22Z</time>
      </trkpt>
      <trkpt lat="46.77081" lon="5.80596">
        <ele>623.2</ele>
        <time>2022-02-23T13:52:26Z</time>
      </trkpt>
      <trkpt lat="46.77085" lon="5.80601">
        <ele>624</ele>
        <time>2022-02-23T13:52:30Z</time>
      </trkpt>
      <trkpt lat="46.77088" lon="5.80607">
        <ele>624.7</ele>
        <time>2022-02-23T13:52:34Z</time>
      </trkpt>
      <trkpt lat="46.77093" lon="5.80612">
        <ele>625.4</ele>
        <time>2022-02-23T13:52:38Z</time>
      </trkpt>
      <trkpt lat="46.77096" lon="5.80618">
        <ele>626</ele>
        <time>2022-02-23T13:52:43Z</time>
      </trkpt>
      <trkpt lat="46.771" lon="5.80624">
        <ele>626.3</ele>
        <time>2022-02-23T13:52:48Z</time>
      </trkpt>
      <trkpt lat="46.77104" lon="5.80629">
        <ele>626.6</ele>
        <time>2022-02-23T13:52:52Z</time>
      </trkpt>
      <trkpt lat="46.77108" lon="5.80634">
        <ele>626.9</ele>
        <time>2022-02-23T13:52:57Z</time>
      </trkpt>
      <trkpt lat="46.77111" lon="5.80639">
        <ele>627</ele>
        <time>2022-02-23T13:53:02Z</time>
      </trkpt>
      <trkpt lat="46.77114" lon="5.80645">
        <ele>626.9</ele>
        <time>2022-02-23T13:53:07Z</time>
      </trkpt>
      <trkpt lat="46.77117" lon="5.8065">
        <ele>626.8</ele>
        <time>2022-02-23T13:53:11Z</time>
      </trkpt>
      <trkpt lat="46.7712" lon="5.80655">
        <ele>626.6</ele>
        <time>2022-02-23T13:53:15Z</time>
      </trkpt>
      <trkpt lat="46.77124" lon="5.80659">
        <ele>626.4</ele>
        <time>2022-02-23T13:53:19Z</time>
      </trkpt>
      <trkpt lat="46.77129" lon="5.80662">
        <ele>626.2</ele>
        <time>2022-02-23T13:53:24Z</time>
      </trkpt>
      <trkpt lat="46.77133" lon="5.80666">
        <ele>626.1</ele>
        <time>2022-02-23T13:53:28Z</time>
      </trkpt>
      <trkpt lat="46.77137" lon="5.8067">
        <ele>626.4</ele>
        <time>2022-02-23T13:53:32Z</time>
      </trkpt>
      <trkpt lat="46.77141" lon="5.80673">
        <ele>626.9</ele>
        <time>2022-02-23T13:53:36Z</time>
      </trkpt>
      <trkpt lat="46.77146" lon="5.80677">
        <ele>627.6</ele>
        <time>2022-02-23T13:53:41Z</time>
      </trkpt>
      <trkpt lat="46.77151" lon="5.8068">
        <ele>628</ele>
        <time>2022-02-23T13:53:45Z</time>
      </trkpt>
      <trkpt lat="46.77155" lon="5.80683">
        <ele>628.3</ele>
        <time>2022-02-23T13:53:50Z</time>
      </trkpt>
      <trkpt lat="46.7716" lon="5.80686">
        <ele>628.7</ele>
        <time>2022-02-23T13:53:56Z</time>
      </trkpt>
      <trkpt lat="46.77165" lon="5.8069">
        <ele>628.6</ele>
        <time>2022-02-23T13:54:01Z</time>
      </trkpt>
      <trkpt lat="46.7717" lon="5.80691">
        <ele>628.2</ele>
        <time>2022-02-23T13:54:06Z</time>
      </trkpt>
      <trkpt lat="46.77175" lon="5.80694">
        <ele>627.9</ele>
        <time>2022-02-23T13:54:11Z</time>
      </trkpt>
      <trkpt lat="46.77179" lon="5.80697">
        <ele>627.8</ele>
        <time>2022-02-23T13:54:16Z</time>
      </trkpt>
      <trkpt lat="46.77184" lon="5.807">
        <ele>627.5</ele>
        <time>2022-02-23T13:54:21Z</time>
      </trkpt>
      <trkpt lat="46.77189" lon="5.80702">
        <ele>627.2</ele>
        <time>2022-02-23T13:54:26Z</time>
      </trkpt>
      <trkpt lat="46.77193" lon="5.80704">
        <ele>626.6</ele>
        <time>2022-02-23T13:54:30Z</time>
      </trkpt>
      <trkpt lat="46.77198" lon="5.80706">
        <ele>626</ele>
        <time>2022-02-23T13:54:34Z</time>
      </trkpt>
      <trkpt lat="46.77203" lon="5.80708">
        <ele>625.6</ele>
        <time>2022-02-23T13:54:38Z</time>
      </trkpt>
      <trkpt lat="46.77207" lon="5.80711">
        <ele>625.1</ele>
        <time>2022-02-23T13:54:42Z</time>
      </trkpt>
      <trkpt lat="46.77212" lon="5.80714">
        <ele>624.5</ele>
        <time>2022-02-23T13:54:47Z</time>
      </trkpt>
      <trkpt lat="46.77217" lon="5.80717">
        <ele>624.1</ele>
        <time>2022-02-23T13:54:51Z</time>
      </trkpt>
      <trkpt lat="46.77221" lon="5.80721">
        <ele>623.6</ele>
        <time>2022-02-23T13:54:55Z</time>
      </trkpt>
      <trkpt lat="46.77225" lon="5.80723">
        <ele>623.2</ele>
        <time>2022-02-23T13:54:59Z</time>
      </trkpt>
      <trkpt lat="46.77229" lon="5.80725">
        <ele>622.5</ele>
        <time>2022-02-23T13:55:05Z</time>
      </trkpt>
      <trkpt lat="46.77233" lon="5.80729">
        <ele>622.1</ele>
        <time>2022-02-23T13:55:11Z</time>
      </trkpt>
      <trkpt lat="46.77238" lon="5.80733">
        <ele>622.4</ele>
        <time>2022-02-23T13:55:17Z</time>
      </trkpt>
      <trkpt lat="46.77242" lon="5.80737">
        <ele>622.8</ele>
        <time>2022-02-23T13:55:21Z</time>
      </trkpt>
      <trkpt lat="46.77246" lon="5.80741">
        <ele>623.1</ele>
        <time>2022-02-23T13:55:25Z</time>
      </trkpt>
      <trkpt lat="46.77249" lon="5.80745">
        <ele>623.2</ele>
        <time>2022-02-23T13:55:30Z</time>
      </trkpt>
      <trkpt lat="46.77252" lon="5.80751">
        <ele>623.2</ele>
        <time>2022-02-23T13:55:35Z</time>
      </trkpt>
      <trkpt lat="46.77255" lon="5.80756">
        <ele>623.2</ele>
        <time>2022-02-23T13:55:42Z</time>
      </trkpt>
      <trkpt lat="46.77259" lon="5.80759">
        <ele>623.7</ele>
        <time>2022-02-23T13:55:48Z</time>
      </trkpt>
      <trkpt lat="46.77263" lon="5.80763">
        <ele>624.8</ele>
        <time>2022-02-23T13:55:54Z</time>
      </trkpt>
      <trkpt lat="46.77264" lon="5.8077">
        <ele>626.4</ele>
        <time>2022-02-23T13:56:05Z</time>
      </trkpt>
      <trkpt lat="46.77269" lon="5.80775">
        <ele>627.5</ele>
        <time>2022-02-23T13:56:10Z</time>
      </trkpt>
      <trkpt lat="46.77273" lon="5.80777">
        <ele>628.3</ele>
        <time>2022-02-23T13:56:14Z</time>
      </trkpt>
      <trkpt lat="46.77278" lon="5.80779">
        <ele>628.8</ele>
        <time>2022-02-23T13:56:33Z</time>
      </trkpt>
      <trkpt lat="46.77282" lon="5.80783">
        <ele>629.1</ele>
        <time>2022-02-23T13:56:38Z</time>
      </trkpt>
      <trkpt lat="46.77286" lon="5.80787">
        <ele>629.3</ele>
        <time>2022-02-23T13:56:43Z</time>
      </trkpt>
      <trkpt lat="46.7729" lon="5.80793">
        <ele>629.5</ele>
        <time>2022-02-23T13:56:48Z</time>
      </trkpt>
      <trkpt lat="46.77294" lon="5.80797">
        <ele>629.5</ele>
        <time>2022-02-23T13:56:52Z</time>
      </trkpt>
      <trkpt lat="46.77297" lon="5.80802">
        <ele>629.4</ele>
        <time>2022-02-23T13:56:56Z</time>
      </trkpt>
      <trkpt lat="46.77302" lon="5.80807">
        <ele>628.9</ele>
        <time>2022-02-23T13:57:01Z</time>
      </trkpt>
      <trkpt lat="46.77305" lon="5.80811">
        <ele>628.6</ele>
        <time>2022-02-23T13:57:05Z</time>
      </trkpt>
      <trkpt lat="46.7731" lon="5.80816">
        <ele>628.2</ele>
        <time>2022-02-23T13:57:10Z</time>
      </trkpt>
      <trkpt lat="46.77314" lon="5.80819">
        <ele>628</ele>
        <time>2022-02-23T13:57:15Z</time>
      </trkpt>
      <trkpt lat="46.77317" lon="5.80824">
        <ele>628</ele>
        <time>2022-02-23T13:57:20Z</time>
      </trkpt>
      <trkpt lat="46.77321" lon="5.8083">
        <ele>628</ele>
        <time>2022-02-23T13:57:26Z</time>
      </trkpt>
      <trkpt lat="46.77324" lon="5.80836">
        <ele>627.8</ele>
        <time>2022-02-23T13:57:32Z</time>
      </trkpt>
      <trkpt lat="46.77328" lon="5.80841">
        <ele>627.6</ele>
        <time>2022-02-23T13:57:36Z</time>
      </trkpt>
      <trkpt lat="46.77333" lon="5.80845">
        <ele>627.5</ele>
        <time>2022-02-23T13:57:40Z</time>
      </trkpt>
      <trkpt lat="46.77337" lon="5.8085">
        <ele>627.7</ele>
        <time>2022-02-23T13:57:44Z</time>
      </trkpt>
      <trkpt lat="46.7734" lon="5.80855">
        <ele>628.2</ele>
        <time>2022-02-23T13:57:48Z</time>
      </trkpt>
      <trkpt lat="46.77344" lon="5.8086">
        <ele>628.8</ele>
        <time>2022-02-23T13:57:52Z</time>
      </trkpt>
      <trkpt lat="46.77347" lon="5.80867">
        <ele>629.5</ele>
        <time>2022-02-23T13:57:57Z</time>
      </trkpt>
      <trkpt lat="46.7735" lon="5.80873">
        <ele>630.2</ele>
        <time>2022-02-23T13:58:02Z</time>
      </trkpt>
      <trkpt lat="46.77353" lon="5.80877">
        <ele>631</ele>
        <time>2022-02-23T13:58:07Z</time>
      </trkpt>
      <trkpt lat="46.77357" lon="5.80883">
        <ele>631.7</ele>
        <time>2022-02-23T13:58:12Z</time>
      </trkpt>
      <trkpt lat="46.7736" lon="5.80887">
        <ele>632.1</ele>
        <time>2022-02-23T13:58:16Z</time>
      </trkpt>
      <trkpt lat="46.77365" lon="5.80892">
        <ele>632.7</ele>
        <time>2022-02-23T13:58:21Z</time>
      </trkpt>
      <trkpt lat="46.77369" lon="5.80896">
        <ele>633.2</ele>
        <time>2022-02-23T13:58:26Z</time>
      </trkpt>
      <trkpt lat="46.77373" lon="5.809">
        <ele>633.6</ele>
        <time>2022-02-23T13:58:30Z</time>
      </trkpt>
      <trkpt lat="46.77377" lon="5.80903">
        <ele>633.6</ele>
        <time>2022-02-23T13:58:34Z</time>
      </trkpt>
      <trkpt lat="46.77382" lon="5.80907">
        <ele>633.6</ele>
        <time>2022-02-23T13:58:38Z</time>
      </trkpt>
      <trkpt lat="46.77386" lon="5.8091">
        <ele>633.5</ele>
        <time>2022-02-23T13:58:43Z</time>
      </trkpt>
      <trkpt lat="46.77389" lon="5.80915">
        <ele>633.3</ele>
        <time>2022-02-23T13:58:49Z</time>
      </trkpt>
      <trkpt lat="46.77393" lon="5.80919">
        <ele>632.9</ele>
        <time>2022-02-23T13:58:55Z</time>
      </trkpt>
      <trkpt lat="46.77398" lon="5.80922">
        <ele>632.3</ele>
        <time>2022-02-23T13:59:00Z</time>
      </trkpt>
      <trkpt lat="46.77402" lon="5.80926">
        <ele>631.7</ele>
        <time>2022-02-23T13:59:05Z</time>
      </trkpt>
      <trkpt lat="46.77407" lon="5.80931">
        <ele>631.4</ele>
        <time>2022-02-23T13:59:09Z</time>
      </trkpt>
      <trkpt lat="46.77411" lon="5.80933">
        <ele>631.2</ele>
        <time>2022-02-23T13:59:12Z</time>
      </trkpt>
      <trkpt lat="46.77415" lon="5.80936">
        <ele>631.1</ele>
        <time>2022-02-23T13:59:15Z</time>
      </trkpt>
      <trkpt lat="46.77419" lon="5.80939">
        <ele>630.7</ele>
        <time>2022-02-23T13:59:19Z</time>
      </trkpt>
      <trkpt lat="46.77424" lon="5.80944">
        <ele>630</ele>
        <time>2022-02-23T13:59:24Z</time>
      </trkpt>
      <trkpt lat="46.77427" lon="5.80948">
        <ele>629.6</ele>
        <time>2022-02-23T13:59:29Z</time>
      </trkpt>
      <trkpt lat="46.77432" lon="5.80951">
        <ele>628.9</ele>
        <time>2022-02-23T13:59:35Z</time>
      </trkpt>
      <trkpt lat="46.77435" lon="5.80955">
        <ele>628.7</ele>
        <time>2022-02-23T13:59:39Z</time>
      </trkpt>
      <trkpt lat="46.77439" lon="5.8096">
        <ele>628.5</ele>
        <time>2022-02-23T13:59:43Z</time>
      </trkpt>
      <trkpt lat="46.77443" lon="5.80964">
        <ele>628.5</ele>
        <time>2022-02-23T13:59:48Z</time>
      </trkpt>
      <trkpt lat="46.77447" lon="5.80969">
        <ele>628.4</ele>
        <time>2022-02-23T13:59:54Z</time>
      </trkpt>
      <trkpt lat="46.77451" lon="5.80972">
        <ele>627.9</ele>
        <time>2022-02-23T14:00:00Z</time>
      </trkpt>
      <trkpt lat="46.77455" lon="5.80977">
        <ele>627.5</ele>
        <time>2022-02-23T14:00:06Z</time>
      </trkpt>
      <trkpt lat="46.77458" lon="5.80983">
        <ele>627.3</ele>
        <time>2022-02-23T14:00:10Z</time>
      </trkpt>
      <trkpt lat="46.77462" lon="5.80988">
        <ele>627.2</ele>
        <time>2022-02-23T14:00:15Z</time>
      </trkpt>
      <trkpt lat="46.77465" lon="5.80993">
        <ele>627.1</ele>
        <time>2022-02-23T14:00:19Z</time>
      </trkpt>
      <trkpt lat="46.7747" lon="5.80997">
        <ele>626.8</ele>
        <time>2022-02-23T14:00:24Z</time>
      </trkpt>
      <trkpt lat="46.77473" lon="5.81001">
        <ele>626.5</ele>
        <time>2022-02-23T14:00:28Z</time>
      </trkpt>
      <trkpt lat="46.77478" lon="5.81005">
        <ele>626</ele>
        <time>2022-02-23T14:00:34Z</time>
      </trkpt>
      <trkpt lat="46.77482" lon="5.8101">
        <ele>625.7</ele>
        <time>2022-02-23T14:00:39Z</time>
      </trkpt>
      <trkpt lat="46.77486" lon="5.81015">
        <ele>625.1</ele>
        <time>2022-02-23T14:00:45Z</time>
      </trkpt>
      <trkpt lat="46.77488" lon="5.81022">
        <ele>625.4</ele>
        <time>2022-02-23T14:00:48Z</time>
      </trkpt>
      <trkpt lat="46.77491" lon="5.81027">
        <ele>625.6</ele>
        <time>2022-02-23T14:00:51Z</time>
      </trkpt>
      <trkpt lat="46.77495" lon="5.81031">
        <ele>625.6</ele>
        <time>2022-02-23T14:00:56Z</time>
      </trkpt>
      <trkpt lat="46.775" lon="5.81033">
        <ele>625.1</ele>
        <time>2022-02-23T14:01:02Z</time>
      </trkpt>
      <trkpt lat="46.77505" lon="5.81038">
        <ele>624</ele>
        <time>2022-02-23T14:01:09Z</time>
      </trkpt>
      <trkpt lat="46.77507" lon="5.81045">
        <ele>623.3</ele>
        <time>2022-02-23T14:01:14Z</time>
      </trkpt>
      <trkpt lat="46.77509" lon="5.81051">
        <ele>622.9</ele>
        <time>2022-02-23T14:01:17Z</time>
      </trkpt>
      <trkpt lat="46.77512" lon="5.81058">
        <ele>622.7</ele>
        <time>2022-02-23T14:01:21Z</time>
      </trkpt>
      <trkpt lat="46.77515" lon="5.81063">
        <ele>622.3</ele>
        <time>2022-02-23T14:01:25Z</time>
      </trkpt>
      <trkpt lat="46.77519" lon="5.81068">
        <ele>621.8</ele>
        <time>2022-02-23T14:01:29Z</time>
      </trkpt>
      <trkpt lat="46.77522" lon="5.81074">
        <ele>621.2</ele>
        <time>2022-02-23T14:01:34Z</time>
      </trkpt>
      <trkpt lat="46.77526" lon="5.81078">
        <ele>620.7</ele>
        <time>2022-02-23T14:01:39Z</time>
      </trkpt>
      <trkpt lat="46.77531" lon="5.81081">
        <ele>620</ele>
        <time>2022-02-23T14:01:44Z</time>
      </trkpt>
      <trkpt lat="46.77535" lon="5.81085">
        <ele>619.6</ele>
        <time>2022-02-23T14:01:49Z</time>
      </trkpt>
      <trkpt lat="46.77538" lon="5.81091">
        <ele>619.8</ele>
        <time>2022-02-23T14:01:53Z</time>
      </trkpt>
      <trkpt lat="46.7754" lon="5.81097">
        <ele>620.1</ele>
        <time>2022-02-23T14:01:56Z</time>
      </trkpt>
      <trkpt lat="46.77542" lon="5.81105">
        <ele>620.4</ele>
        <time>2022-02-23T14:02:01Z</time>
      </trkpt>
      <trkpt lat="46.77545" lon="5.8111">
        <ele>620.5</ele>
        <time>2022-02-23T14:02:05Z</time>
      </trkpt>
      <trkpt lat="46.77549" lon="5.81114">
        <ele>620.6</ele>
        <time>2022-02-23T14:02:10Z</time>
      </trkpt>
      <trkpt lat="46.77554" lon="5.81118">
        <ele>620.6</ele>
        <time>2022-02-23T14:02:16Z</time>
      </trkpt>
      <trkpt lat="46.77557" lon="5.81123">
        <ele>620.2</ele>
        <time>2022-02-23T14:02:22Z</time>
      </trkpt>
      <trkpt lat="46.7756" lon="5.81129">
        <ele>620.3</ele>
        <time>2022-02-23T14:02:32Z</time>
      </trkpt>
      <trkpt lat="46.77564" lon="5.81133">
        <ele>620.6</ele>
        <time>2022-02-23T14:02:48Z</time>
      </trkpt>
      <trkpt lat="46.77568" lon="5.81136">
        <ele>620.7</ele>
        <time>2022-02-23T14:02:52Z</time>
      </trkpt>
      <trkpt lat="46.77571" lon="5.81141">
        <ele>621.2</ele>
        <time>2022-02-23T14:02:59Z</time>
      </trkpt>
      <trkpt lat="46.77575" lon="5.81135">
        <ele>614.9</ele>
        <time>2022-02-23T14:04:02Z</time>
      </trkpt>
      <trkpt lat="46.77575" lon="5.81128">
        <ele>615</ele>
        <time>2022-02-23T14:04:19Z</time>
      </trkpt>
      <trkpt lat="46.77576" lon="5.81134">
        <ele>611</ele>
        <time>2022-02-23T14:05:04Z</time>
      </trkpt>
      <trkpt lat="46.77579" lon="5.8114">
        <ele>612.2</ele>
        <time>2022-02-23T14:05:11Z</time>
      </trkpt>
      <trkpt lat="46.77583" lon="5.81143">
        <ele>614.2</ele>
        <time>2022-02-23T14:05:17Z</time>
      </trkpt>
      <trkpt lat="46.77588" lon="5.81147">
        <ele>618.4</ele>
        <time>2022-02-23T14:05:26Z</time>
      </trkpt>
      <trkpt lat="46.77593" lon="5.81149">
        <ele>620.9</ele>
        <time>2022-02-23T14:05:33Z</time>
      </trkpt>
      <trkpt lat="46.77597" lon="5.81151">
        <ele>621.9</ele>
        <time>2022-02-23T14:05:37Z</time>
      </trkpt>
      <trkpt lat="46.77602" lon="5.81153">
        <ele>623</ele>
        <time>2022-02-23T14:05:41Z</time>
      </trkpt>
      <trkpt lat="46.77607" lon="5.81155">
        <ele>624.9</ele>
        <time>2022-02-23T14:05:47Z</time>
      </trkpt>
      <trkpt lat="46.77612" lon="5.81156">
        <ele>626.9</ele>
        <time>2022-02-23T14:05:53Z</time>
      </trkpt>
      <trkpt lat="46.77617" lon="5.81156">
        <ele>628.5</ele>
        <time>2022-02-23T14:05:58Z</time>
      </trkpt>
      <trkpt lat="46.77622" lon="5.81157">
        <ele>630.1</ele>
        <time>2022-02-23T14:06:05Z</time>
      </trkpt>
      <trkpt lat="46.77627" lon="5.81157">
        <ele>631.3</ele>
        <time>2022-02-23T14:06:12Z</time>
      </trkpt>
      <trkpt lat="46.77631" lon="5.81157">
        <ele>630.9</ele>
        <time>2022-02-23T14:06:17Z</time>
      </trkpt>
      <trkpt lat="46.77637" lon="5.81156">
        <ele>630.7</ele>
        <time>2022-02-23T14:06:21Z</time>
      </trkpt>
      <trkpt lat="46.77641" lon="5.81154">
        <ele>630.1</ele>
        <time>2022-02-23T14:06:24Z</time>
      </trkpt>
      <trkpt lat="46.77647" lon="5.81152">
        <ele>629.6</ele>
        <time>2022-02-23T14:06:27Z</time>
      </trkpt>
      <trkpt lat="46.77654" lon="5.8115">
        <ele>629.1</ele>
        <time>2022-02-23T14:06:30Z</time>
      </trkpt>
      <trkpt lat="46.77658" lon="5.8115">
        <ele>628.5</ele>
        <time>2022-02-23T14:06:33Z</time>
      </trkpt>
      <trkpt lat="46.77664" lon="5.8115">
        <ele>627.9</ele>
        <time>2022-02-23T14:06:37Z</time>
      </trkpt>
      <trkpt lat="46.77669" lon="5.81148">
        <ele>626.9</ele>
        <time>2022-02-23T14:06:43Z</time>
      </trkpt>
      <trkpt lat="46.77666" lon="5.81154">
        <ele>624.7</ele>
        <time>2022-02-23T14:07:06Z</time>
      </trkpt>
      <trkpt lat="46.7767" lon="5.81156">
        <ele>622.6</ele>
        <time>2022-02-23T14:07:17Z</time>
      </trkpt>
      <trkpt lat="46.77675" lon="5.8116">
        <ele>622</ele>
        <time>2022-02-23T14:07:20Z</time>
      </trkpt>
      <trkpt lat="46.77679" lon="5.81164">
        <ele>621.8</ele>
        <time>2022-02-23T14:07:23Z</time>
      </trkpt>
      <trkpt lat="46.77682" lon="5.81169">
        <ele>621.6</ele>
        <time>2022-02-23T14:07:26Z</time>
      </trkpt>
      <trkpt lat="46.77686" lon="5.81174">
        <ele>621.2</ele>
        <time>2022-02-23T14:07:30Z</time>
      </trkpt>
      <trkpt lat="46.77688" lon="5.8118">
        <ele>618.9</ele>
        <time>2022-02-23T14:07:38Z</time>
      </trkpt>
      <trkpt lat="46.77692" lon="5.81184">
        <ele>617.7</ele>
        <time>2022-02-23T14:07:41Z</time>
      </trkpt>
      <trkpt lat="46.77696" lon="5.81188">
        <ele>616.2</ele>
        <time>2022-02-23T14:07:45Z</time>
      </trkpt>
      <trkpt lat="46.77701" lon="5.81192">
        <ele>615</ele>
        <time>2022-02-23T14:07:49Z</time>
      </trkpt>
      <trkpt lat="46.77705" lon="5.81197">
        <ele>614.3</ele>
        <time>2022-02-23T14:07:53Z</time>
      </trkpt>
      <trkpt lat="46.77709" lon="5.81202">
        <ele>613.9</ele>
        <time>2022-02-23T14:07:58Z</time>
      </trkpt>
      <trkpt lat="46.77713" lon="5.81208">
        <ele>614.2</ele>
        <time>2022-02-23T14:08:04Z</time>
      </trkpt>
      <trkpt lat="46.77716" lon="5.81214">
        <ele>614.9</ele>
        <time>2022-02-23T14:08:09Z</time>
      </trkpt>
      <trkpt lat="46.7772" lon="5.81219">
        <ele>615.8</ele>
        <time>2022-02-23T14:08:15Z</time>
      </trkpt>
      <trkpt lat="46.77723" lon="5.81225">
        <ele>616.5</ele>
        <time>2022-02-23T14:08:18Z</time>
      </trkpt>
      <trkpt lat="46.77725" lon="5.81232">
        <ele>617.3</ele>
        <time>2022-02-23T14:08:22Z</time>
      </trkpt>
      <trkpt lat="46.77729" lon="5.81237">
        <ele>617.9</ele>
        <time>2022-02-23T14:08:27Z</time>
      </trkpt>
      <trkpt lat="46.77732" lon="5.81243">
        <ele>618.3</ele>
        <time>2022-02-23T14:08:32Z</time>
      </trkpt>
      <trkpt lat="46.77735" lon="5.8125">
        <ele>618.5</ele>
        <time>2022-02-23T14:08:37Z</time>
      </trkpt>
      <trkpt lat="46.77737" lon="5.81257">
        <ele>618.6</ele>
        <time>2022-02-23T14:08:42Z</time>
      </trkpt>
      <trkpt lat="46.77739" lon="5.81263">
        <ele>618.9</ele>
        <time>2022-02-23T14:08:47Z</time>
      </trkpt>
      <trkpt lat="46.77744" lon="5.81267">
        <ele>619.1</ele>
        <time>2022-02-23T14:08:53Z</time>
      </trkpt>
      <trkpt lat="46.77748" lon="5.81268">
        <ele>619.3</ele>
        <time>2022-02-23T14:08:57Z</time>
      </trkpt>
      <trkpt lat="46.77754" lon="5.81271">
        <ele>619</ele>
        <time>2022-02-23T14:09:01Z</time>
      </trkpt>
      <trkpt lat="46.77759" lon="5.81272">
        <ele>618.2</ele>
        <time>2022-02-23T14:09:07Z</time>
      </trkpt>
      <trkpt lat="46.77763" lon="5.81276">
        <ele>616.7</ele>
        <time>2022-02-23T14:09:14Z</time>
      </trkpt>
      <trkpt lat="46.77769" lon="5.81279">
        <ele>615.8</ele>
        <time>2022-02-23T14:09:20Z</time>
      </trkpt>
      <trkpt lat="46.77773" lon="5.81281">
        <ele>614.1</ele>
        <time>2022-02-23T14:09:31Z</time>
      </trkpt>
      <trkpt lat="46.77778" lon="5.81282">
        <ele>613.4</ele>
        <time>2022-02-23T14:09:37Z</time>
      </trkpt>
      <trkpt lat="46.77783" lon="5.81282">
        <ele>613.5</ele>
        <time>2022-02-23T14:09:42Z</time>
      </trkpt>
      <trkpt lat="46.77788" lon="5.81283">
        <ele>613.8</ele>
        <time>2022-02-23T14:09:45Z</time>
      </trkpt>
      <trkpt lat="46.77793" lon="5.81286">
        <ele>614</ele>
        <time>2022-02-23T14:09:49Z</time>
      </trkpt>
      <trkpt lat="46.77798" lon="5.81287">
        <ele>614.4</ele>
        <time>2022-02-23T14:09:54Z</time>
      </trkpt>
      <trkpt lat="46.77801" lon="5.81291">
        <ele>615.1</ele>
        <time>2022-02-23T14:10:03Z</time>
      </trkpt>
      <trkpt lat="46.77805" lon="5.81296">
        <ele>616.1</ele>
        <time>2022-02-23T14:10:13Z</time>
      </trkpt>
      <trkpt lat="46.77806" lon="5.81303">
        <ele>616.6</ele>
        <time>2022-02-23T14:10:19Z</time>
      </trkpt>
      <trkpt lat="46.77804" lon="5.8131">
        <ele>616.8</ele>
        <time>2022-02-23T14:10:25Z</time>
      </trkpt>
      <trkpt lat="46.77805" lon="5.81317">
        <ele>616.9</ele>
        <time>2022-02-23T14:10:30Z</time>
      </trkpt>
      <trkpt lat="46.77808" lon="5.81324">
        <ele>616.5</ele>
        <time>2022-02-23T14:10:37Z</time>
      </trkpt>
      <trkpt lat="46.77814" lon="5.81328">
        <ele>616.2</ele>
        <time>2022-02-23T14:10:40Z</time>
      </trkpt>
      <trkpt lat="46.77819" lon="5.81331">
        <ele>615.6</ele>
        <time>2022-02-23T14:10:43Z</time>
      </trkpt>
      <trkpt lat="46.77823" lon="5.81335">
        <ele>615.2</ele>
        <time>2022-02-23T14:10:46Z</time>
      </trkpt>
      <trkpt lat="46.77828" lon="5.81339">
        <ele>614.8</ele>
        <time>2022-02-23T14:10:49Z</time>
      </trkpt>
      <trkpt lat="46.77833" lon="5.81341">
        <ele>614.4</ele>
        <time>2022-02-23T14:10:52Z</time>
      </trkpt>
      <trkpt lat="46.77838" lon="5.81343">
        <ele>614</ele>
        <time>2022-02-23T14:10:55Z</time>
      </trkpt>
      <trkpt lat="46.77843" lon="5.81345">
        <ele>613.6</ele>
        <time>2022-02-23T14:10:59Z</time>
      </trkpt>
      <trkpt lat="46.77848" lon="5.81349">
        <ele>613.3</ele>
        <time>2022-02-23T14:11:05Z</time>
      </trkpt>
      <trkpt lat="46.77851" lon="5.81354">
        <ele>613.6</ele>
        <time>2022-02-23T14:11:10Z</time>
      </trkpt>
      <trkpt lat="46.77855" lon="5.8136">
        <ele>614.4</ele>
        <time>2022-02-23T14:11:15Z</time>
      </trkpt>
      <trkpt lat="46.77858" lon="5.81365">
        <ele>615</ele>
        <time>2022-02-23T14:11:20Z</time>
      </trkpt>
      <trkpt lat="46.77862" lon="5.8137">
        <ele>615.7</ele>
        <time>2022-02-23T14:11:24Z</time>
      </trkpt>
      <trkpt lat="46.77866" lon="5.81374">
        <ele>616.2</ele>
        <time>2022-02-23T14:11:27Z</time>
      </trkpt>
      <trkpt lat="46.7787" lon="5.81378">
        <ele>616.7</ele>
        <time>2022-02-23T14:11:32Z</time>
      </trkpt>
      <trkpt lat="46.77874" lon="5.81382">
        <ele>617.1</ele>
        <time>2022-02-23T14:11:37Z</time>
      </trkpt>
      <trkpt lat="46.77878" lon="5.81387">
        <ele>617.7</ele>
        <time>2022-02-23T14:11:42Z</time>
      </trkpt>
      <trkpt lat="46.77882" lon="5.81391">
        <ele>618.2</ele>
        <time>2022-02-23T14:11:47Z</time>
      </trkpt>
      <trkpt lat="46.77886" lon="5.81397">
        <ele>618.4</ele>
        <time>2022-02-23T14:11:54Z</time>
      </trkpt>
      <trkpt lat="46.7789" lon="5.81401">
        <ele>618.8</ele>
        <time>2022-02-23T14:11:59Z</time>
      </trkpt>
      <trkpt lat="46.77895" lon="5.81404">
        <ele>619.2</ele>
        <time>2022-02-23T14:12:04Z</time>
      </trkpt>
      <trkpt lat="46.77898" lon="5.81409">
        <ele>619.8</ele>
        <time>2022-02-23T14:12:09Z</time>
      </trkpt>
      <trkpt lat="46.77902" lon="5.81413">
        <ele>620.3</ele>
        <time>2022-02-23T14:12:15Z</time>
      </trkpt>
      <trkpt lat="46.77905" lon="5.81418">
        <ele>620.7</ele>
        <time>2022-02-23T14:12:18Z</time>
      </trkpt>
      <trkpt lat="46.77909" lon="5.81422">
        <ele>620.9</ele>
        <time>2022-02-23T14:12:22Z</time>
      </trkpt>
      <trkpt lat="46.77913" lon="5.81426">
        <ele>620.6</ele>
        <time>2022-02-23T14:12:27Z</time>
      </trkpt>
      <trkpt lat="46.77916" lon="5.81431">
        <ele>619.9</ele>
        <time>2022-02-23T14:12:33Z</time>
      </trkpt>
      <trkpt lat="46.7792" lon="5.81436">
        <ele>619.6</ele>
        <time>2022-02-23T14:12:38Z</time>
      </trkpt>
      <trkpt lat="46.77925" lon="5.81439">
        <ele>619.7</ele>
        <time>2022-02-23T14:12:43Z</time>
      </trkpt>
      <trkpt lat="46.7793" lon="5.81442">
        <ele>619.9</ele>
        <time>2022-02-23T14:12:48Z</time>
      </trkpt>
      <trkpt lat="46.77934" lon="5.81446">
        <ele>620</ele>
        <time>2022-02-23T14:12:53Z</time>
      </trkpt>
      <trkpt lat="46.77937" lon="5.8145">
        <ele>619.7</ele>
        <time>2022-02-23T14:12:59Z</time>
      </trkpt>
      <trkpt lat="46.77941" lon="5.81454">
        <ele>619.9</ele>
        <time>2022-02-23T14:13:05Z</time>
      </trkpt>
      <trkpt lat="46.77944" lon="5.81459">
        <ele>620.1</ele>
        <time>2022-02-23T14:13:10Z</time>
      </trkpt>
      <trkpt lat="46.7795" lon="5.81463">
        <ele>620.5</ele>
        <time>2022-02-23T14:13:14Z</time>
      </trkpt>
      <trkpt lat="46.77951" lon="5.8147">
        <ele>621</ele>
        <time>2022-02-23T14:13:20Z</time>
      </trkpt>
      <trkpt lat="46.77956" lon="5.81474">
        <ele>621</ele>
        <time>2022-02-23T14:13:29Z</time>
      </trkpt>
      <trkpt lat="46.77959" lon="5.81481">
        <ele>620.7</ele>
        <time>2022-02-23T14:13:35Z</time>
      </trkpt>
      <trkpt lat="46.77963" lon="5.81486">
        <ele>620.3</ele>
        <time>2022-02-23T14:13:40Z</time>
      </trkpt>
      <trkpt lat="46.77967" lon="5.8149">
        <ele>619.9</ele>
        <time>2022-02-23T14:13:45Z</time>
      </trkpt>
      <trkpt lat="46.77972" lon="5.81494">
        <ele>619.2</ele>
        <time>2022-02-23T14:13:50Z</time>
      </trkpt>
      <trkpt lat="46.77974" lon="5.815">
        <ele>618.6</ele>
        <time>2022-02-23T14:13:54Z</time>
      </trkpt>
      <trkpt lat="46.77976" lon="5.81507">
        <ele>618.9</ele>
        <time>2022-02-23T14:14:00Z</time>
      </trkpt>
      <trkpt lat="46.77981" lon="5.81511">
        <ele>619</ele>
        <time>2022-02-23T14:14:07Z</time>
      </trkpt>
      <trkpt lat="46.77985" lon="5.81515">
        <ele>618.9</ele>
        <time>2022-02-23T14:14:14Z</time>
      </trkpt>
      <trkpt lat="46.77989" lon="5.8152">
        <ele>618.5</ele>
        <time>2022-02-23T14:14:19Z</time>
      </trkpt>
      <trkpt lat="46.77994" lon="5.81524">
        <ele>618.1</ele>
        <time>2022-02-23T14:14:23Z</time>
      </trkpt>
      <trkpt lat="46.77998" lon="5.81528">
        <ele>617.9</ele>
        <time>2022-02-23T14:14:27Z</time>
      </trkpt>
      <trkpt lat="46.78001" lon="5.81534">
        <ele>617.9</ele>
        <time>2022-02-23T14:14:31Z</time>
      </trkpt>
      <trkpt lat="46.78003" lon="5.8154">
        <ele>617.7</ele>
        <time>2022-02-23T14:14:36Z</time>
      </trkpt>
      <trkpt lat="46.78005" lon="5.81547">
        <ele>617.8</ele>
        <time>2022-02-23T14:14:41Z</time>
      </trkpt>
      <trkpt lat="46.78009" lon="5.8155">
        <ele>617.9</ele>
        <time>2022-02-23T14:14:47Z</time>
      </trkpt>
      <trkpt lat="46.78013" lon="5.81554">
        <ele>617.7</ele>
        <time>2022-02-23T14:14:54Z</time>
      </trkpt>
      <trkpt lat="46.78014" lon="5.8156">
        <ele>617</ele>
        <time>2022-02-23T14:14:59Z</time>
      </trkpt>
      <trkpt lat="46.78017" lon="5.81566">
        <ele>616.3</ele>
        <time>2022-02-23T14:15:07Z</time>
      </trkpt>
      <trkpt lat="46.78022" lon="5.81568">
        <ele>615.7</ele>
        <time>2022-02-23T14:15:12Z</time>
      </trkpt>
      <trkpt lat="46.78026" lon="5.81573">
        <ele>615.2</ele>
        <time>2022-02-23T14:15:18Z</time>
      </trkpt>
      <trkpt lat="46.7803" lon="5.81577">
        <ele>614.8</ele>
        <time>2022-02-23T14:15:23Z</time>
      </trkpt>
      <trkpt lat="46.78032" lon="5.81584">
        <ele>614.1</ele>
        <time>2022-02-23T14:15:30Z</time>
      </trkpt>
      <trkpt lat="46.78034" lon="5.8159">
        <ele>613.4</ele>
        <time>2022-02-23T14:15:35Z</time>
      </trkpt>
      <trkpt lat="46.78037" lon="5.81596">
        <ele>612.5</ele>
        <time>2022-02-23T14:15:41Z</time>
      </trkpt>
      <trkpt lat="46.78037" lon="5.81603">
        <ele>611</ele>
        <time>2022-02-23T14:15:47Z</time>
      </trkpt>
      <trkpt lat="46.7804" lon="5.81611">
        <ele>609.1</ele>
        <time>2022-02-23T14:15:54Z</time>
      </trkpt>
      <trkpt lat="46.78043" lon="5.81616">
        <ele>608.4</ele>
        <time>2022-02-23T14:15:57Z</time>
      </trkpt>
      <trkpt lat="46.78047" lon="5.81621">
        <ele>607.4</ele>
        <time>2022-02-23T14:16:02Z</time>
      </trkpt>
      <trkpt lat="46.78051" lon="5.81627">
        <ele>606.9</ele>
        <time>2022-02-23T14:16:07Z</time>
      </trkpt>
      <trkpt lat="46.78054" lon="5.81632">
        <ele>606.5</ele>
        <time>2022-02-23T14:16:12Z</time>
      </trkpt>
      <trkpt lat="46.78058" lon="5.81637">
        <ele>606.2</ele>
        <time>2022-02-23T14:16:18Z</time>
      </trkpt>
      <trkpt lat="46.78062" lon="5.81641">
        <ele>606</ele>
        <time>2022-02-23T14:16:25Z</time>
      </trkpt>
      <trkpt lat="46.78065" lon="5.81648">
        <ele>606.2</ele>
        <time>2022-02-23T14:16:29Z</time>
      </trkpt>
      <trkpt lat="46.78068" lon="5.81653">
        <ele>606.3</ele>
        <time>2022-02-23T14:16:32Z</time>
      </trkpt>
      <trkpt lat="46.78072" lon="5.81659">
        <ele>606.2</ele>
        <time>2022-02-23T14:16:37Z</time>
      </trkpt>
      <trkpt lat="46.78076" lon="5.81663">
        <ele>606.2</ele>
        <time>2022-02-23T14:16:42Z</time>
      </trkpt>
      <trkpt lat="46.7808" lon="5.81668">
        <ele>606.1</ele>
        <time>2022-02-23T14:16:49Z</time>
      </trkpt>
      <trkpt lat="46.78082" lon="5.81674">
        <ele>606.1</ele>
        <time>2022-02-23T14:16:54Z</time>
      </trkpt>
      <trkpt lat="46.78082" lon="5.81683">
        <ele>606.6</ele>
        <time>2022-02-23T14:16:57Z</time>
      </trkpt>
      <trkpt lat="46.78086" lon="5.81689">
        <ele>606.6</ele>
        <time>2022-02-23T14:17:07Z</time>
      </trkpt>
      <trkpt lat="46.78086" lon="5.81695">
        <ele>605.9</ele>
        <time>2022-02-23T14:17:13Z</time>
      </trkpt>
      <trkpt lat="46.78083" lon="5.81701">
        <ele>605.3</ele>
        <time>2022-02-23T14:17:17Z</time>
      </trkpt>
      <trkpt lat="46.78084" lon="5.81708">
        <ele>605.1</ele>
        <time>2022-02-23T14:17:25Z</time>
      </trkpt>
      <trkpt lat="46.7808" lon="5.81716">
        <ele>605.4</ele>
        <time>2022-02-23T14:17:34Z</time>
      </trkpt>
      <trkpt lat="46.78076" lon="5.8172">
        <ele>605.6</ele>
        <time>2022-02-23T14:17:40Z</time>
      </trkpt>
      <trkpt lat="46.78072" lon="5.8172">
        <ele>606</ele>
        <time>2022-02-23T14:17:47Z</time>
      </trkpt>
      <trkpt lat="46.78072" lon="5.81713">
        <ele>606.1</ele>
        <time>2022-02-23T14:17:52Z</time>
      </trkpt>
      <trkpt lat="46.78076" lon="5.81709">
        <ele>605.6</ele>
        <time>2022-02-23T14:17:55Z</time>
      </trkpt>
      <trkpt lat="46.78082" lon="5.81706">
        <ele>603.9</ele>
        <time>2022-02-23T14:18:01Z</time>
      </trkpt>
      <trkpt lat="46.78087" lon="5.81703">
        <ele>602.7</ele>
        <time>2022-02-23T14:18:07Z</time>
      </trkpt>
      <trkpt lat="46.78092" lon="5.81703">
        <ele>601.7</ele>
        <time>2022-02-23T14:18:12Z</time>
      </trkpt>
      <trkpt lat="46.78097" lon="5.81704">
        <ele>600.5</ele>
        <time>2022-02-23T14:18:17Z</time>
      </trkpt>
      <trkpt lat="46.78101" lon="5.81706">
        <ele>599</ele>
        <time>2022-02-23T14:18:22Z</time>
      </trkpt>
      <trkpt lat="46.78106" lon="5.81709">
        <ele>597.1</ele>
        <time>2022-02-23T14:18:28Z</time>
      </trkpt>
      <trkpt lat="46.78109" lon="5.81714">
        <ele>594.2</ele>
        <time>2022-02-23T14:18:37Z</time>
      </trkpt>
      <trkpt lat="46.78111" lon="5.81721">
        <ele>592.7</ele>
        <time>2022-02-23T14:18:44Z</time>
      </trkpt>
      <trkpt lat="46.78115" lon="5.81726">
        <ele>592.6</ele>
        <time>2022-02-23T14:18:51Z</time>
      </trkpt>
      <trkpt lat="46.78119" lon="5.81729">
        <ele>593.2</ele>
        <time>2022-02-23T14:18:58Z</time>
      </trkpt>
      <trkpt lat="46.78122" lon="5.81736">
        <ele>593.5</ele>
        <time>2022-02-23T14:19:04Z</time>
      </trkpt>
      <trkpt lat="46.78127" lon="5.8174">
        <ele>593.3</ele>
        <time>2022-02-23T14:19:10Z</time>
      </trkpt>
      <trkpt lat="46.7813" lon="5.81746">
        <ele>592.9</ele>
        <time>2022-02-23T14:19:14Z</time>
      </trkpt>
      <trkpt lat="46.78134" lon="5.81752">
        <ele>592.5</ele>
        <time>2022-02-23T14:19:19Z</time>
      </trkpt>
      <trkpt lat="46.78136" lon="5.81759">
        <ele>592.2</ele>
        <time>2022-02-23T14:19:23Z</time>
      </trkpt>
      <trkpt lat="46.7814" lon="5.81763">
        <ele>591.8</ele>
        <time>2022-02-23T14:19:27Z</time>
      </trkpt>
      <trkpt lat="46.78144" lon="5.81767">
        <ele>591.2</ele>
        <time>2022-02-23T14:19:31Z</time>
      </trkpt>
      <trkpt lat="46.7815" lon="5.81769">
        <ele>591.2</ele>
        <time>2022-02-23T14:19:35Z</time>
      </trkpt>
      <trkpt lat="46.78154" lon="5.81772">
        <ele>591.3</ele>
        <time>2022-02-23T14:19:40Z</time>
      </trkpt>
      <trkpt lat="46.78158" lon="5.81775">
        <ele>591.5</ele>
        <time>2022-02-23T14:19:46Z</time>
      </trkpt>
      <trkpt lat="46.78163" lon="5.81779">
        <ele>591.5</ele>
        <time>2022-02-23T14:19:54Z</time>
      </trkpt>
      <trkpt lat="46.78167" lon="5.8178">
        <ele>591.6</ele>
        <time>2022-02-23T14:19:57Z</time>
      </trkpt>
      <trkpt lat="46.78172" lon="5.81781">
        <ele>591.7</ele>
        <time>2022-02-23T14:20:00Z</time>
      </trkpt>
      <trkpt lat="46.78177" lon="5.81782">
        <ele>592</ele>
        <time>2022-02-23T14:20:05Z</time>
      </trkpt>
      <trkpt lat="46.78181" lon="5.81786">
        <ele>592.4</ele>
        <time>2022-02-23T14:20:13Z</time>
      </trkpt>
      <trkpt lat="46.78185" lon="5.8179">
        <ele>592.5</ele>
        <time>2022-02-23T14:20:19Z</time>
      </trkpt>
      <trkpt lat="46.78189" lon="5.81793">
        <ele>592.7</ele>
        <time>2022-02-23T14:20:23Z</time>
      </trkpt>
      <trkpt lat="46.78194" lon="5.81795">
        <ele>592.9</ele>
        <time>2022-02-23T14:20:28Z</time>
      </trkpt>
      <trkpt lat="46.78197" lon="5.818">
        <ele>592.9</ele>
        <time>2022-02-23T14:20:34Z</time>
      </trkpt>
      <trkpt lat="46.782" lon="5.81805">
        <ele>593.1</ele>
        <time>2022-02-23T14:20:38Z</time>
      </trkpt>
      <trkpt lat="46.78205" lon="5.81812">
        <ele>593.7</ele>
        <time>2022-02-23T14:20:41Z</time>
      </trkpt>
      <trkpt lat="46.78208" lon="5.81819">
        <ele>594.4</ele>
        <time>2022-02-23T14:20:44Z</time>
      </trkpt>
      <trkpt lat="46.7821" lon="5.81825">
        <ele>595.3</ele>
        <time>2022-02-23T14:20:48Z</time>
      </trkpt>
      <trkpt lat="46.78212" lon="5.81832">
        <ele>596.3</ele>
        <time>2022-02-23T14:20:54Z</time>
      </trkpt>
      <trkpt lat="46.78216" lon="5.81839">
        <ele>597.1</ele>
        <time>2022-02-23T14:21:01Z</time>
      </trkpt>
      <trkpt lat="46.7822" lon="5.81845">
        <ele>598.3</ele>
        <time>2022-02-23T14:21:04Z</time>
      </trkpt>
      <trkpt lat="46.78224" lon="5.81851">
        <ele>599.6</ele>
        <time>2022-02-23T14:21:09Z</time>
      </trkpt>
      <trkpt lat="46.78226" lon="5.81856">
        <ele>600.9</ele>
        <time>2022-02-23T14:21:15Z</time>
      </trkpt>
      <trkpt lat="46.7823" lon="5.81861">
        <ele>601.7</ele>
        <time>2022-02-23T14:21:21Z</time>
      </trkpt>
      <trkpt lat="46.78233" lon="5.81866">
        <ele>601.7</ele>
        <time>2022-02-23T14:21:26Z</time>
      </trkpt>
      <trkpt lat="46.78236" lon="5.81872">
        <ele>601.7</ele>
        <time>2022-02-23T14:21:31Z</time>
      </trkpt>
      <trkpt lat="46.78239" lon="5.81879">
        <ele>601.3</ele>
        <time>2022-02-23T14:21:37Z</time>
      </trkpt>
      <trkpt lat="46.78242" lon="5.81884">
        <ele>600.8</ele>
        <time>2022-02-23T14:21:43Z</time>
      </trkpt>
      <trkpt lat="46.78246" lon="5.81888">
        <ele>600.6</ele>
        <time>2022-02-23T14:21:48Z</time>
      </trkpt>
      <trkpt lat="46.78247" lon="5.81895">
        <ele>601.1</ele>
        <time>2022-02-23T14:21:51Z</time>
      </trkpt>
      <trkpt lat="46.78248" lon="5.81902">
        <ele>601.9</ele>
        <time>2022-02-23T14:21:54Z</time>
      </trkpt>
      <trkpt lat="46.78252" lon="5.81907">
        <ele>603.4</ele>
        <time>2022-02-23T14:22:00Z</time>
      </trkpt>
      <trkpt lat="46.78256" lon="5.8191">
        <ele>604.2</ele>
        <time>2022-02-23T14:22:06Z</time>
      </trkpt>
      <trkpt lat="46.7826" lon="5.81915">
        <ele>604.2</ele>
        <time>2022-02-23T14:22:13Z</time>
      </trkpt>
      <trkpt lat="46.78264" lon="5.81918">
        <ele>603.7</ele>
        <time>2022-02-23T14:22:19Z</time>
      </trkpt>
      <trkpt lat="46.78268" lon="5.81922">
        <ele>603.3</ele>
        <time>2022-02-23T14:22:25Z</time>
      </trkpt>
      <trkpt lat="46.78271" lon="5.81927">
        <ele>603</ele>
        <time>2022-02-23T14:22:30Z</time>
      </trkpt>
      <trkpt lat="46.78275" lon="5.8193">
        <ele>602.7</ele>
        <time>2022-02-23T14:22:36Z</time>
      </trkpt>
      <trkpt lat="46.78279" lon="5.81937">
        <ele>602.5</ele>
        <time>2022-02-23T14:22:42Z</time>
      </trkpt>
      <trkpt lat="46.78282" lon="5.81945">
        <ele>602.6</ele>
        <time>2022-02-23T14:22:45Z</time>
      </trkpt>
      <trkpt lat="46.78285" lon="5.81952">
        <ele>602.5</ele>
        <time>2022-02-23T14:22:49Z</time>
      </trkpt>
      <trkpt lat="46.78289" lon="5.81956">
        <ele>602.7</ele>
        <time>2022-02-23T14:22:54Z</time>
      </trkpt>
      <trkpt lat="46.78292" lon="5.81962">
        <ele>603.6</ele>
        <time>2022-02-23T14:22:59Z</time>
      </trkpt>
      <trkpt lat="46.78295" lon="5.81971">
        <ele>604.7</ele>
        <time>2022-02-23T14:23:03Z</time>
      </trkpt>
      <trkpt lat="46.78294" lon="5.8198">
        <ele>605.3</ele>
        <time>2022-02-23T14:23:06Z</time>
      </trkpt>
      <trkpt lat="46.78294" lon="5.81987">
        <ele>605.5</ele>
        <time>2022-02-23T14:23:09Z</time>
      </trkpt>
      <trkpt lat="46.78296" lon="5.81994">
        <ele>604.7</ele>
        <time>2022-02-23T14:23:13Z</time>
      </trkpt>
      <trkpt lat="46.78298" lon="5.82">
        <ele>603.8</ele>
        <time>2022-02-23T14:23:17Z</time>
      </trkpt>
      <trkpt lat="46.78303" lon="5.82006">
        <ele>603.9</ele>
        <time>2022-02-23T14:23:21Z</time>
      </trkpt>
      <trkpt lat="46.78307" lon="5.82009">
        <ele>603.8</ele>
        <time>2022-02-23T14:23:24Z</time>
      </trkpt>
      <trkpt lat="46.7831" lon="5.82015">
        <ele>604</ele>
        <time>2022-02-23T14:23:28Z</time>
      </trkpt>
      <trkpt lat="46.78313" lon="5.8202">
        <ele>604.2</ele>
        <time>2022-02-23T14:23:32Z</time>
      </trkpt>
      <trkpt lat="46.78316" lon="5.82025">
        <ele>604.2</ele>
        <time>2022-02-23T14:23:37Z</time>
      </trkpt>
      <trkpt lat="46.78318" lon="5.82032">
        <ele>604.1</ele>
        <time>2022-02-23T14:23:42Z</time>
      </trkpt>
      <trkpt lat="46.78319" lon="5.82038">
        <ele>604</ele>
        <time>2022-02-23T14:23:46Z</time>
      </trkpt>
      <trkpt lat="46.78322" lon="5.82044">
        <ele>604.1</ele>
        <time>2022-02-23T14:23:50Z</time>
      </trkpt>
      <trkpt lat="46.78324" lon="5.82049">
        <ele>604.9</ele>
        <time>2022-02-23T14:23:55Z</time>
      </trkpt>
      <trkpt lat="46.78322" lon="5.82056">
        <ele>606.1</ele>
        <time>2022-02-23T14:24:03Z</time>
      </trkpt>
      <trkpt lat="46.78319" lon="5.82062">
        <ele>606.8</ele>
        <time>2022-02-23T14:24:09Z</time>
      </trkpt>
      <trkpt lat="46.78316" lon="5.82068">
        <ele>607</ele>
        <time>2022-02-23T14:24:15Z</time>
      </trkpt>
      <trkpt lat="46.78315" lon="5.82074">
        <ele>607.4</ele>
        <time>2022-02-23T14:24:41Z</time>
      </trkpt>
      <trkpt lat="46.78313" lon="5.82081">
        <ele>610</ele>
        <time>2022-02-23T14:24:56Z</time>
      </trkpt>
      <trkpt lat="46.78309" lon="5.82085">
        <ele>611.1</ele>
        <time>2022-02-23T14:25:02Z</time>
      </trkpt>
      <trkpt lat="46.78305" lon="5.82089">
        <ele>612.2</ele>
        <time>2022-02-23T14:25:08Z</time>
      </trkpt>
      <trkpt lat="46.78301" lon="5.82093">
        <ele>613.1</ele>
        <time>2022-02-23T14:25:12Z</time>
      </trkpt>
      <trkpt lat="46.78296" lon="5.82097">
        <ele>613.9</ele>
        <time>2022-02-23T14:25:16Z</time>
      </trkpt>
      <trkpt lat="46.78292" lon="5.82101">
        <ele>614.7</ele>
        <time>2022-02-23T14:25:21Z</time>
      </trkpt>
      <trkpt lat="46.78288" lon="5.82105">
        <ele>615.3</ele>
        <time>2022-02-23T14:25:25Z</time>
      </trkpt>
      <trkpt lat="46.78283" lon="5.82107">
        <ele>616</ele>
        <time>2022-02-23T14:25:31Z</time>
      </trkpt>
      <trkpt lat="46.78278" lon="5.82107">
        <ele>616.8</ele>
        <time>2022-02-23T14:25:39Z</time>
      </trkpt>
      <trkpt lat="46.78274" lon="5.82109">
        <ele>617.4</ele>
        <time>2022-02-23T14:25:45Z</time>
      </trkpt>
      <trkpt lat="46.78269" lon="5.82111">
        <ele>617.9</ele>
        <time>2022-02-23T14:25:50Z</time>
      </trkpt>
      <trkpt lat="46.78264" lon="5.82114">
        <ele>618.5</ele>
        <time>2022-02-23T14:25:53Z</time>
      </trkpt>
      <trkpt lat="46.7826" lon="5.82115">
        <ele>619.1</ele>
        <time>2022-02-23T14:25:56Z</time>
      </trkpt>
      <trkpt lat="46.78254" lon="5.82115">
        <ele>620.5</ele>
        <time>2022-02-23T14:26:02Z</time>
      </trkpt>
      <trkpt lat="46.7825" lon="5.82119">
        <ele>621.6</ele>
        <time>2022-02-23T14:26:07Z</time>
      </trkpt>
      <trkpt lat="46.78246" lon="5.82122">
        <ele>622.3</ele>
        <time>2022-02-23T14:26:11Z</time>
      </trkpt>
      <trkpt lat="46.78242" lon="5.82125">
        <ele>623</ele>
        <time>2022-02-23T14:26:15Z</time>
      </trkpt>
      <trkpt lat="46.78238" lon="5.82128">
        <ele>623.8</ele>
        <time>2022-02-23T14:26:20Z</time>
      </trkpt>
      <trkpt lat="46.78233" lon="5.8213">
        <ele>624.4</ele>
        <time>2022-02-23T14:26:27Z</time>
      </trkpt>
      <trkpt lat="46.78229" lon="5.82133">
        <ele>624</ele>
        <time>2022-02-23T14:26:33Z</time>
      </trkpt>
      <trkpt lat="46.78224" lon="5.82134">
        <ele>623.3</ele>
        <time>2022-02-23T14:26:39Z</time>
      </trkpt>
      <trkpt lat="46.78219" lon="5.82137">
        <ele>622.4</ele>
        <time>2022-02-23T14:26:45Z</time>
      </trkpt>
      <trkpt lat="46.78215" lon="5.82141">
        <ele>621.8</ele>
        <time>2022-02-23T14:26:51Z</time>
      </trkpt>
      <trkpt lat="46.78212" lon="5.82146">
        <ele>621</ele>
        <time>2022-02-23T14:26:58Z</time>
      </trkpt>
      <trkpt lat="46.78209" lon="5.82151">
        <ele>620.3</ele>
        <time>2022-02-23T14:27:04Z</time>
      </trkpt>
      <trkpt lat="46.78204" lon="5.82153">
        <ele>619.5</ele>
        <time>2022-02-23T14:27:10Z</time>
      </trkpt>
      <trkpt lat="46.782" lon="5.82156">
        <ele>618.6</ele>
        <time>2022-02-23T14:27:16Z</time>
      </trkpt>
      <trkpt lat="46.78195" lon="5.82158">
        <ele>617.5</ele>
        <time>2022-02-23T14:27:22Z</time>
      </trkpt>
      <trkpt lat="46.78191" lon="5.8216">
        <ele>617</ele>
        <time>2022-02-23T14:27:26Z</time>
      </trkpt>
      <trkpt lat="46.78186" lon="5.82161">
        <ele>616.3</ele>
        <time>2022-02-23T14:27:31Z</time>
      </trkpt>
      <trkpt lat="46.78181" lon="5.82162">
        <ele>614.8</ele>
        <time>2022-02-23T14:27:39Z</time>
      </trkpt>
      <trkpt lat="46.78177" lon="5.82161">
        <ele>608.8</ele>
        <time>2022-02-23T14:28:01Z</time>
      </trkpt>
      <trkpt lat="46.78171" lon="5.82163">
        <ele>606.9</ele>
        <time>2022-02-23T14:28:05Z</time>
      </trkpt>
      <trkpt lat="46.78167" lon="5.82166">
        <ele>603.6</ele>
        <time>2022-02-23T14:28:37Z</time>
      </trkpt>
      <trkpt lat="46.78162" lon="5.82171">
        <ele>603.6</ele>
        <time>2022-02-23T14:28:42Z</time>
      </trkpt>
      <trkpt lat="46.78158" lon="5.82175">
        <ele>603.8</ele>
        <time>2022-02-23T14:28:46Z</time>
      </trkpt>
      <trkpt lat="46.78153" lon="5.82176">
        <ele>603.9</ele>
        <time>2022-02-23T14:28:54Z</time>
      </trkpt>
      <trkpt lat="46.78148" lon="5.82178">
        <ele>603.8</ele>
        <time>2022-02-23T14:29:01Z</time>
      </trkpt>
      <trkpt lat="46.78144" lon="5.82181">
        <ele>603.6</ele>
        <time>2022-02-23T14:29:06Z</time>
      </trkpt>
      <trkpt lat="46.7814" lon="5.82185">
        <ele>603.2</ele>
        <time>2022-02-23T14:29:11Z</time>
      </trkpt>
      <trkpt lat="46.78135" lon="5.82187">
        <ele>602.7</ele>
        <time>2022-02-23T14:29:16Z</time>
      </trkpt>
      <trkpt lat="46.7813" lon="5.82187">
        <ele>601.9</ele>
        <time>2022-02-23T14:29:21Z</time>
      </trkpt>
      <trkpt lat="46.78126" lon="5.82186">
        <ele>601.2</ele>
        <time>2022-02-23T14:29:26Z</time>
      </trkpt>
      <trkpt lat="46.78121" lon="5.82182">
        <ele>599.5</ele>
        <time>2022-02-23T14:29:34Z</time>
      </trkpt>
      <trkpt lat="46.78119" lon="5.82175">
        <ele>598.1</ele>
        <time>2022-02-23T14:29:40Z</time>
      </trkpt>
      <trkpt lat="46.78116" lon="5.8217">
        <ele>597.4</ele>
        <time>2022-02-23T14:29:44Z</time>
      </trkpt>
      <trkpt lat="46.78113" lon="5.82165">
        <ele>596.9</ele>
        <time>2022-02-23T14:29:49Z</time>
      </trkpt>
      <trkpt lat="46.7811" lon="5.82159">
        <ele>596</ele>
        <time>2022-02-23T14:29:55Z</time>
      </trkpt>
      <trkpt lat="46.78106" lon="5.82154">
        <ele>595</ele>
        <time>2022-02-23T14:30:00Z</time>
      </trkpt>
      <trkpt lat="46.78104" lon="5.82148">
        <ele>594.6</ele>
        <time>2022-02-23T14:30:07Z</time>
      </trkpt>
      <trkpt lat="46.78102" lon="5.82155">
        <ele>593.3</ele>
        <time>2022-02-23T14:30:23Z</time>
      </trkpt>
      <trkpt lat="46.78098" lon="5.82154">
        <ele>590.6</ele>
        <time>2022-02-23T14:30:35Z</time>
      </trkpt>
      <trkpt lat="46.78102" lon="5.82154">
        <ele>585.9</ele>
        <time>2022-02-23T14:30:52Z</time>
      </trkpt>
      <trkpt lat="46.78105" lon="5.82149">
        <ele>586.4</ele>
        <time>2022-02-23T14:31:03Z</time>
      </trkpt>
      <trkpt lat="46.781" lon="5.82147">
        <ele>592.2</ele>
        <time>2022-02-23T14:31:53Z</time>
      </trkpt>
      <trkpt lat="46.78097" lon="5.82141">
        <ele>591.6</ele>
        <time>2022-02-23T14:32:02Z</time>
      </trkpt>
      <trkpt lat="46.78093" lon="5.82138">
        <ele>592.1</ele>
        <time>2022-02-23T14:32:08Z</time>
      </trkpt>
      <trkpt lat="46.78091" lon="5.82132">
        <ele>592.4</ele>
        <time>2022-02-23T14:32:14Z</time>
      </trkpt>
      <trkpt lat="46.78088" lon="5.82126">
        <ele>592.2</ele>
        <time>2022-02-23T14:32:20Z</time>
      </trkpt>
      <trkpt lat="46.78086" lon="5.82121">
        <ele>591.5</ele>
        <time>2022-02-23T14:32:25Z</time>
      </trkpt>
      <trkpt lat="46.78083" lon="5.82115">
        <ele>590.8</ele>
        <time>2022-02-23T14:32:30Z</time>
      </trkpt>
      <trkpt lat="46.78078" lon="5.82112">
        <ele>589.7</ele>
        <time>2022-02-23T14:32:35Z</time>
      </trkpt>
      <trkpt lat="46.78075" lon="5.82106">
        <ele>588.9</ele>
        <time>2022-02-23T14:32:41Z</time>
      </trkpt>
      <trkpt lat="46.78073" lon="5.821">
        <ele>588.3</ele>
        <time>2022-02-23T14:32:45Z</time>
      </trkpt>
      <trkpt lat="46.78072" lon="5.82093">
        <ele>587.9</ele>
        <time>2022-02-23T14:32:49Z</time>
      </trkpt>
      <trkpt lat="46.78069" lon="5.82088">
        <ele>587.7</ele>
        <time>2022-02-23T14:32:53Z</time>
      </trkpt>
      <trkpt lat="46.78066" lon="5.82083">
        <ele>587.8</ele>
        <time>2022-02-23T14:32:58Z</time>
      </trkpt>
      <trkpt lat="46.78063" lon="5.82077">
        <ele>588.4</ele>
        <time>2022-02-23T14:33:04Z</time>
      </trkpt>
      <trkpt lat="46.78058" lon="5.82074">
        <ele>588.9</ele>
        <time>2022-02-23T14:33:08Z</time>
      </trkpt>
      <trkpt lat="46.78055" lon="5.8207">
        <ele>589.4</ele>
        <time>2022-02-23T14:33:12Z</time>
      </trkpt>
      <trkpt lat="46.78051" lon="5.82065">
        <ele>589.7</ele>
        <time>2022-02-23T14:33:18Z</time>
      </trkpt>
      <trkpt lat="46.78047" lon="5.8206">
        <ele>589.4</ele>
        <time>2022-02-23T14:33:23Z</time>
      </trkpt>
      <trkpt lat="46.78042" lon="5.82057">
        <ele>588.6</ele>
        <time>2022-02-23T14:33:26Z</time>
      </trkpt>
      <trkpt lat="46.78038" lon="5.82055">
        <ele>587.8</ele>
        <time>2022-02-23T14:33:29Z</time>
      </trkpt>
      <trkpt lat="46.78033" lon="5.82054">
        <ele>586.5</ele>
        <time>2022-02-23T14:33:35Z</time>
      </trkpt>
      <trkpt lat="46.78028" lon="5.82051">
        <ele>585.7</ele>
        <time>2022-02-23T14:33:40Z</time>
      </trkpt>
      <trkpt lat="46.78023" lon="5.8205">
        <ele>585.3</ele>
        <time>2022-02-23T14:33:45Z</time>
      </trkpt>
      <trkpt lat="46.78018" lon="5.82048">
        <ele>585.3</ele>
        <time>2022-02-23T14:33:49Z</time>
      </trkpt>
      <trkpt lat="46.78013" lon="5.82044">
        <ele>585.5</ele>
        <time>2022-02-23T14:33:53Z</time>
      </trkpt>
      <trkpt lat="46.78007" lon="5.82042">
        <ele>585.7</ele>
        <time>2022-02-23T14:33:57Z</time>
      </trkpt>
      <trkpt lat="46.78002" lon="5.82039">
        <ele>586.2</ele>
        <time>2022-02-23T14:34:02Z</time>
      </trkpt>
      <trkpt lat="46.77998" lon="5.82036">
        <ele>586.8</ele>
        <time>2022-02-23T14:34:06Z</time>
      </trkpt>
      <trkpt lat="46.77994" lon="5.82032">
        <ele>587.5</ele>
        <time>2022-02-23T14:34:10Z</time>
      </trkpt>
      <trkpt lat="46.7799" lon="5.82027">
        <ele>588.1</ele>
        <time>2022-02-23T14:34:15Z</time>
      </trkpt>
      <trkpt lat="46.77988" lon="5.8202">
        <ele>588.7</ele>
        <time>2022-02-23T14:34:20Z</time>
      </trkpt>
      <trkpt lat="46.77985" lon="5.82015">
        <ele>589.1</ele>
        <time>2022-02-23T14:34:24Z</time>
      </trkpt>
      <trkpt lat="46.77981" lon="5.8201">
        <ele>589.8</ele>
        <time>2022-02-23T14:34:29Z</time>
      </trkpt>
      <trkpt lat="46.77986" lon="5.82007">
        <ele>589.3</ele>
        <time>2022-02-23T14:34:38Z</time>
      </trkpt>
      <trkpt lat="46.77992" lon="5.82005">
        <ele>585.8</ele>
        <time>2022-02-23T14:34:48Z</time>
      </trkpt>
      <trkpt lat="46.77997" lon="5.82002">
        <ele>585.1</ele>
        <time>2022-02-23T14:34:52Z</time>
      </trkpt>
      <trkpt lat="46.77999" lon="5.81996">
        <ele>584.9</ele>
        <time>2022-02-23T14:34:58Z</time>
      </trkpt>
      <trkpt lat="46.78003" lon="5.81992">
        <ele>587.1</ele>
        <time>2022-02-23T14:35:12Z</time>
      </trkpt>
      <trkpt lat="46.77997" lon="5.81994">
        <ele>590.8</ele>
        <time>2022-02-23T14:35:29Z</time>
      </trkpt>
      <trkpt lat="46.77994" lon="5.81999">
        <ele>591.3</ele>
        <time>2022-02-23T14:35:32Z</time>
      </trkpt>
      <trkpt lat="46.77988" lon="5.82006">
        <ele>590.8</ele>
        <time>2022-02-23T14:35:35Z</time>
      </trkpt>
      <trkpt lat="46.77984" lon="5.8201">
        <ele>589.4</ele>
        <time>2022-02-23T14:35:40Z</time>
      </trkpt>
      <trkpt lat="46.77982" lon="5.82004">
        <ele>588.6</ele>
        <time>2022-02-23T14:35:47Z</time>
      </trkpt>
      <trkpt lat="46.77979" lon="5.81999">
        <ele>587.9</ele>
        <time>2022-02-23T14:35:51Z</time>
      </trkpt>
      <trkpt lat="46.77975" lon="5.81995">
        <ele>587.5</ele>
        <time>2022-02-23T14:35:54Z</time>
      </trkpt>
      <trkpt lat="46.77972" lon="5.81988">
        <ele>587</ele>
        <time>2022-02-23T14:35:59Z</time>
      </trkpt>
      <trkpt lat="46.77968" lon="5.81984">
        <ele>586.9</ele>
        <time>2022-02-23T14:36:03Z</time>
      </trkpt>
      <trkpt lat="46.77964" lon="5.81978">
        <ele>587.4</ele>
        <time>2022-02-23T14:36:08Z</time>
      </trkpt>
      <trkpt lat="46.77961" lon="5.81974">
        <ele>587.6</ele>
        <time>2022-02-23T14:36:12Z</time>
      </trkpt>
      <trkpt lat="46.77957" lon="5.81969">
        <ele>587.6</ele>
        <time>2022-02-23T14:36:16Z</time>
      </trkpt>
      <trkpt lat="46.77956" lon="5.81963">
        <ele>587</ele>
        <time>2022-02-23T14:36:20Z</time>
      </trkpt>
      <trkpt lat="46.77955" lon="5.81955">
        <ele>586.2</ele>
        <time>2022-02-23T14:36:25Z</time>
      </trkpt>
      <trkpt lat="46.77953" lon="5.81949">
        <ele>586.3</ele>
        <time>2022-02-23T14:36:29Z</time>
      </trkpt>
      <trkpt lat="46.77951" lon="5.81943">
        <ele>586.4</ele>
        <time>2022-02-23T14:36:35Z</time>
      </trkpt>
      <trkpt lat="46.77948" lon="5.81936">
        <ele>587.5</ele>
        <time>2022-02-23T14:36:41Z</time>
      </trkpt>
      <trkpt lat="46.77946" lon="5.81929">
        <ele>588.3</ele>
        <time>2022-02-23T14:36:47Z</time>
      </trkpt>
      <trkpt lat="46.77943" lon="5.81924">
        <ele>589</ele>
        <time>2022-02-23T14:36:51Z</time>
      </trkpt>
      <trkpt lat="46.77941" lon="5.81918">
        <ele>589.5</ele>
        <time>2022-02-23T14:36:55Z</time>
      </trkpt>
      <trkpt lat="46.77938" lon="5.81912">
        <ele>589.8</ele>
        <time>2022-02-23T14:37:00Z</time>
      </trkpt>
      <trkpt lat="46.77936" lon="5.81906">
        <ele>590</ele>
        <time>2022-02-23T14:37:06Z</time>
      </trkpt>
      <trkpt lat="46.77932" lon="5.819">
        <ele>590</ele>
        <time>2022-02-23T14:37:11Z</time>
      </trkpt>
      <trkpt lat="46.7793" lon="5.81894">
        <ele>589.6</ele>
        <time>2022-02-23T14:37:15Z</time>
      </trkpt>
      <trkpt lat="46.77927" lon="5.81889">
        <ele>589.5</ele>
        <time>2022-02-23T14:37:19Z</time>
      </trkpt>
      <trkpt lat="46.77925" lon="5.81883">
        <ele>589.4</ele>
        <time>2022-02-23T14:37:25Z</time>
      </trkpt>
      <trkpt lat="46.77922" lon="5.81877">
        <ele>589.5</ele>
        <time>2022-02-23T14:37:30Z</time>
      </trkpt>
      <trkpt lat="46.77918" lon="5.81871">
        <ele>589.3</ele>
        <time>2022-02-23T14:37:35Z</time>
      </trkpt>
      <trkpt lat="46.77915" lon="5.81866">
        <ele>588.7</ele>
        <time>2022-02-23T14:37:40Z</time>
      </trkpt>
      <trkpt lat="46.77912" lon="5.81861">
        <ele>588.3</ele>
        <time>2022-02-23T14:37:45Z</time>
      </trkpt>
      <trkpt lat="46.77909" lon="5.81855">
        <ele>587.9</ele>
        <time>2022-02-23T14:37:49Z</time>
      </trkpt>
      <trkpt lat="46.77908" lon="5.81848">
        <ele>587.7</ele>
        <time>2022-02-23T14:37:53Z</time>
      </trkpt>
      <trkpt lat="46.77907" lon="5.81841">
        <ele>587.5</ele>
        <time>2022-02-23T14:37:57Z</time>
      </trkpt>
      <trkpt lat="46.77904" lon="5.81835">
        <ele>587.5</ele>
        <time>2022-02-23T14:38:02Z</time>
      </trkpt>
      <trkpt lat="46.77901" lon="5.81828">
        <ele>587.4</ele>
        <time>2022-02-23T14:38:08Z</time>
      </trkpt>
      <trkpt lat="46.779" lon="5.81821">
        <ele>587.5</ele>
        <time>2022-02-23T14:38:12Z</time>
      </trkpt>
      <trkpt lat="46.77897" lon="5.81815">
        <ele>588</ele>
        <time>2022-02-23T14:38:17Z</time>
      </trkpt>
      <trkpt lat="46.77894" lon="5.81809">
        <ele>588.9</ele>
        <time>2022-02-23T14:38:21Z</time>
      </trkpt>
      <trkpt lat="46.7789" lon="5.81804">
        <ele>589.6</ele>
        <time>2022-02-23T14:38:24Z</time>
      </trkpt>
      <trkpt lat="46.77887" lon="5.81798">
        <ele>590.8</ele>
        <time>2022-02-23T14:38:28Z</time>
      </trkpt>
      <trkpt lat="46.77885" lon="5.81792">
        <ele>592.4</ele>
        <time>2022-02-23T14:38:33Z</time>
      </trkpt>
      <trkpt lat="46.77884" lon="5.81785">
        <ele>593</ele>
        <time>2022-02-23T14:38:38Z</time>
      </trkpt>
      <trkpt lat="46.77881" lon="5.81779">
        <ele>592.9</ele>
        <time>2022-02-23T14:38:47Z</time>
      </trkpt>
      <trkpt lat="46.77879" lon="5.81773">
        <ele>591.9</ele>
        <time>2022-02-23T14:38:52Z</time>
      </trkpt>
      <trkpt lat="46.77881" lon="5.81767">
        <ele>590.4</ele>
        <time>2022-02-23T14:38:59Z</time>
      </trkpt>
      <trkpt lat="46.77884" lon="5.8176">
        <ele>589.6</ele>
        <time>2022-02-23T14:39:04Z</time>
      </trkpt>
      <trkpt lat="46.77883" lon="5.81753">
        <ele>589.5</ele>
        <time>2022-02-23T14:39:08Z</time>
      </trkpt>
      <trkpt lat="46.77882" lon="5.81746">
        <ele>589.6</ele>
        <time>2022-02-23T14:39:12Z</time>
      </trkpt>
      <trkpt lat="46.77879" lon="5.8174">
        <ele>589.9</ele>
        <time>2022-02-23T14:39:16Z</time>
      </trkpt>
      <trkpt lat="46.77879" lon="5.81733">
        <ele>590.2</ele>
        <time>2022-02-23T14:39:21Z</time>
      </trkpt>
      <trkpt lat="46.77876" lon="5.81728">
        <ele>590.4</ele>
        <time>2022-02-23T14:39:26Z</time>
      </trkpt>
      <trkpt lat="46.77873" lon="5.81722">
        <ele>590.8</ele>
        <time>2022-02-23T14:39:32Z</time>
      </trkpt>
      <trkpt lat="46.77871" lon="5.81714">
        <ele>591.3</ele>
        <time>2022-02-23T14:39:38Z</time>
      </trkpt>
      <trkpt lat="46.7787" lon="5.81707">
        <ele>591.7</ele>
        <time>2022-02-23T14:39:43Z</time>
      </trkpt>
      <trkpt lat="46.77865" lon="5.81702">
        <ele>592.2</ele>
        <time>2022-02-23T14:39:48Z</time>
      </trkpt>
      <trkpt lat="46.77861" lon="5.81698">
        <ele>592.7</ele>
        <time>2022-02-23T14:39:52Z</time>
      </trkpt>
      <trkpt lat="46.77858" lon="5.81692">
        <ele>593.3</ele>
        <time>2022-02-23T14:39:56Z</time>
      </trkpt>
      <trkpt lat="46.77855" lon="5.81686">
        <ele>593.6</ele>
        <time>2022-02-23T14:40:00Z</time>
      </trkpt>
      <trkpt lat="46.77852" lon="5.81681">
        <ele>594.5</ele>
        <time>2022-02-23T14:40:05Z</time>
      </trkpt>
      <trkpt lat="46.77851" lon="5.81673">
        <ele>595.4</ele>
        <time>2022-02-23T14:40:09Z</time>
      </trkpt>
      <trkpt lat="46.77849" lon="5.81667">
        <ele>595.9</ele>
        <time>2022-02-23T14:40:14Z</time>
      </trkpt>
      <trkpt lat="46.77845" lon="5.81662">
        <ele>596.1</ele>
        <time>2022-02-23T14:40:19Z</time>
      </trkpt>
      <trkpt lat="46.77841" lon="5.8166">
        <ele>596.3</ele>
        <time>2022-02-23T14:40:24Z</time>
      </trkpt>
      <trkpt lat="46.77837" lon="5.81655">
        <ele>596.7</ele>
        <time>2022-02-23T14:40:28Z</time>
      </trkpt>
      <trkpt lat="46.77835" lon="5.81649">
        <ele>597.3</ele>
        <time>2022-02-23T14:40:34Z</time>
      </trkpt>
      <trkpt lat="46.77831" lon="5.81644">
        <ele>598.4</ele>
        <time>2022-02-23T14:40:39Z</time>
      </trkpt>
      <trkpt lat="46.77826" lon="5.81642">
        <ele>599.1</ele>
        <time>2022-02-23T14:40:42Z</time>
      </trkpt>
      <trkpt lat="46.77821" lon="5.81639">
        <ele>599.4</ele>
        <time>2022-02-23T14:40:46Z</time>
      </trkpt>
      <trkpt lat="46.77817" lon="5.81634">
        <ele>599.3</ele>
        <time>2022-02-23T14:40:51Z</time>
      </trkpt>
      <trkpt lat="46.77812" lon="5.81633">
        <ele>599.5</ele>
        <time>2022-02-23T14:40:56Z</time>
      </trkpt>
      <trkpt lat="46.77806" lon="5.81631">
        <ele>599.8</ele>
        <time>2022-02-23T14:41:01Z</time>
      </trkpt>
      <trkpt lat="46.77801" lon="5.81629">
        <ele>600</ele>
        <time>2022-02-23T14:41:04Z</time>
      </trkpt>
      <trkpt lat="46.77796" lon="5.81627">
        <ele>600.1</ele>
        <time>2022-02-23T14:41:07Z</time>
      </trkpt>
      <trkpt lat="46.77793" lon="5.81621">
        <ele>600.1</ele>
        <time>2022-02-23T14:41:11Z</time>
      </trkpt>
      <trkpt lat="46.7779" lon="5.81617">
        <ele>599.6</ele>
        <time>2022-02-23T14:41:16Z</time>
      </trkpt>
      <trkpt lat="46.77786" lon="5.81614">
        <ele>598.7</ele>
        <time>2022-02-23T14:41:21Z</time>
      </trkpt>
      <trkpt lat="46.77781" lon="5.81612">
        <ele>597.6</ele>
        <time>2022-02-23T14:41:28Z</time>
      </trkpt>
      <trkpt lat="46.77776" lon="5.81609">
        <ele>596.3</ele>
        <time>2022-02-23T14:41:38Z</time>
      </trkpt>
      <trkpt lat="46.77771" lon="5.81607">
        <ele>595.9</ele>
        <time>2022-02-23T14:41:42Z</time>
      </trkpt>
      <trkpt lat="46.77766" lon="5.81606">
        <ele>595.4</ele>
        <time>2022-02-23T14:41:47Z</time>
      </trkpt>
      <trkpt lat="46.77761" lon="5.81603">
        <ele>595</ele>
        <time>2022-02-23T14:41:52Z</time>
      </trkpt>
      <trkpt lat="46.77757" lon="5.816">
        <ele>593.8</ele>
        <time>2022-02-23T14:41:58Z</time>
      </trkpt>
      <trkpt lat="46.77755" lon="5.81593">
        <ele>593</ele>
        <time>2022-02-23T14:42:03Z</time>
      </trkpt>
      <trkpt lat="46.77751" lon="5.81589">
        <ele>592</ele>
        <time>2022-02-23T14:42:08Z</time>
      </trkpt>
      <trkpt lat="46.77747" lon="5.81587">
        <ele>591.1</ele>
        <time>2022-02-23T14:42:13Z</time>
      </trkpt>
      <trkpt lat="46.77742" lon="5.81584">
        <ele>590</ele>
        <time>2022-02-23T14:42:17Z</time>
      </trkpt>
      <trkpt lat="46.77737" lon="5.81581">
        <ele>588.2</ele>
        <time>2022-02-23T14:42:23Z</time>
      </trkpt>
      <trkpt lat="46.77736" lon="5.81575">
        <ele>586.6</ele>
        <time>2022-02-23T14:42:30Z</time>
      </trkpt>
      <trkpt lat="46.77731" lon="5.81571">
        <ele>585.9</ele>
        <time>2022-02-23T14:42:35Z</time>
      </trkpt>
      <trkpt lat="46.77728" lon="5.81567">
        <ele>585.4</ele>
        <time>2022-02-23T14:42:40Z</time>
      </trkpt>
      <trkpt lat="46.77723" lon="5.81564">
        <ele>585.1</ele>
        <time>2022-02-23T14:42:44Z</time>
      </trkpt>
      <trkpt lat="46.77718" lon="5.81561">
        <ele>585</ele>
        <time>2022-02-23T14:42:49Z</time>
      </trkpt>
      <trkpt lat="46.77714" lon="5.81558">
        <ele>585.1</ele>
        <time>2022-02-23T14:42:53Z</time>
      </trkpt>
      <trkpt lat="46.7771" lon="5.81553">
        <ele>585.6</ele>
        <time>2022-02-23T14:42:57Z</time>
      </trkpt>
      <trkpt lat="46.77707" lon="5.81548">
        <ele>586.3</ele>
        <time>2022-02-23T14:43:03Z</time>
      </trkpt>
      <trkpt lat="46.77702" lon="5.81544">
        <ele>587</ele>
        <time>2022-02-23T14:43:08Z</time>
      </trkpt>
      <trkpt lat="46.77698" lon="5.81542">
        <ele>587.5</ele>
        <time>2022-02-23T14:43:12Z</time>
      </trkpt>
      <trkpt lat="46.77694" lon="5.81538">
        <ele>588.4</ele>
        <time>2022-02-23T14:43:17Z</time>
      </trkpt>
      <trkpt lat="46.77689" lon="5.81537">
        <ele>590.7</ele>
        <time>2022-02-23T14:43:29Z</time>
      </trkpt>
      <trkpt lat="46.77684" lon="5.81536">
        <ele>591.6</ele>
        <time>2022-02-23T14:43:34Z</time>
      </trkpt>
      <trkpt lat="46.7768" lon="5.81532">
        <ele>591.7</ele>
        <time>2022-02-23T14:43:40Z</time>
      </trkpt>
      <trkpt lat="46.77675" lon="5.8153">
        <ele>590.9</ele>
        <time>2022-02-23T14:43:45Z</time>
      </trkpt>
      <trkpt lat="46.7767" lon="5.81526">
        <ele>589.6</ele>
        <time>2022-02-23T14:43:50Z</time>
      </trkpt>
      <trkpt lat="46.77665" lon="5.81523">
        <ele>587.9</ele>
        <time>2022-02-23T14:43:55Z</time>
      </trkpt>
      <trkpt lat="46.77661" lon="5.81519">
        <ele>585.3</ele>
        <time>2022-02-23T14:44:02Z</time>
      </trkpt>
      <trkpt lat="46.77659" lon="5.81513">
        <ele>582.5</ele>
        <time>2022-02-23T14:44:14Z</time>
      </trkpt>
      <trkpt lat="46.77655" lon="5.81508">
        <ele>582.3</ele>
        <time>2022-02-23T14:44:18Z</time>
      </trkpt>
      <trkpt lat="46.77649" lon="5.81503">
        <ele>582.6</ele>
        <time>2022-02-23T14:44:21Z</time>
      </trkpt>
      <trkpt lat="46.77644" lon="5.81498">
        <ele>583.2</ele>
        <time>2022-02-23T14:44:24Z</time>
      </trkpt>
      <trkpt lat="46.7764" lon="5.81494">
        <ele>584</ele>
        <time>2022-02-23T14:44:27Z</time>
      </trkpt>
      <trkpt lat="46.77635" lon="5.81492">
        <ele>585.2</ele>
        <time>2022-02-23T14:44:31Z</time>
      </trkpt>
      <trkpt lat="46.7763" lon="5.81489">
        <ele>586.4</ele>
        <time>2022-02-23T14:44:35Z</time>
      </trkpt>
      <trkpt lat="46.77625" lon="5.81487">
        <ele>587.3</ele>
        <time>2022-02-23T14:44:39Z</time>
      </trkpt>
      <trkpt lat="46.77621" lon="5.81484">
        <ele>589.2</ele>
        <time>2022-02-23T14:44:49Z</time>
      </trkpt>
      <trkpt lat="46.77624" lon="5.81479">
        <ele>589.6</ele>
        <time>2022-02-23T14:44:59Z</time>
      </trkpt>
      <trkpt lat="46.77629" lon="5.81479">
        <ele>589.3</ele>
        <time>2022-02-23T14:45:02Z</time>
      </trkpt>
      <trkpt lat="46.77623" lon="5.81481">
        <ele>581.3</ele>
        <time>2022-02-23T14:45:34Z</time>
      </trkpt>
      <trkpt lat="46.7762" lon="5.81487">
        <ele>579.2</ele>
        <time>2022-02-23T14:45:39Z</time>
      </trkpt>
      <trkpt lat="46.77616" lon="5.81488">
        <ele>578.4</ele>
        <time>2022-02-23T14:45:46Z</time>
      </trkpt>
      <trkpt lat="46.7762" lon="5.81484">
        <ele>577.7</ele>
        <time>2022-02-23T14:45:59Z</time>
      </trkpt>
      <trkpt lat="46.7762" lon="5.81477">
        <ele>578.1</ele>
        <time>2022-02-23T14:46:11Z</time>
      </trkpt>
      <trkpt lat="46.77614" lon="5.81474">
        <ele>578.5</ele>
        <time>2022-02-23T14:46:18Z</time>
      </trkpt>
      <trkpt lat="46.77609" lon="5.81471">
        <ele>577.9</ele>
        <time>2022-02-23T14:46:26Z</time>
      </trkpt>
      <trkpt lat="46.77605" lon="5.81465">
        <ele>578.1</ele>
        <time>2022-02-23T14:46:31Z</time>
      </trkpt>
      <trkpt lat="46.77602" lon="5.81459">
        <ele>579.6</ele>
        <time>2022-02-23T14:46:36Z</time>
      </trkpt>
      <trkpt lat="46.77598" lon="5.81453">
        <ele>581.8</ele>
        <time>2022-02-23T14:46:41Z</time>
      </trkpt>
      <trkpt lat="46.77594" lon="5.8145">
        <ele>583.8</ele>
        <time>2022-02-23T14:46:45Z</time>
      </trkpt>
      <trkpt lat="46.7759" lon="5.81447">
        <ele>587.3</ele>
        <time>2022-02-23T14:46:53Z</time>
      </trkpt>
      <trkpt lat="46.77586" lon="5.81442">
        <ele>588.4</ele>
        <time>2022-02-23T14:47:01Z</time>
      </trkpt>
      <trkpt lat="46.77581" lon="5.81439">
        <ele>588.9</ele>
        <time>2022-02-23T14:47:15Z</time>
      </trkpt>
      <trkpt lat="46.77576" lon="5.81435">
        <ele>587.9</ele>
        <time>2022-02-23T14:47:31Z</time>
      </trkpt>
      <trkpt lat="46.77572" lon="5.8143">
        <ele>586.8</ele>
        <time>2022-02-23T14:47:35Z</time>
      </trkpt>
      <trkpt lat="46.77567" lon="5.81428">
        <ele>585.6</ele>
        <time>2022-02-23T14:47:39Z</time>
      </trkpt>
      <trkpt lat="46.77563" lon="5.81426">
        <ele>582.5</ele>
        <time>2022-02-23T14:47:51Z</time>
      </trkpt>
      <trkpt lat="46.7756" lon="5.81421">
        <ele>581.1</ele>
        <time>2022-02-23T14:47:59Z</time>
      </trkpt>
      <trkpt lat="46.77555" lon="5.81417">
        <ele>579.9</ele>
        <time>2022-02-23T14:48:07Z</time>
      </trkpt>
      <trkpt lat="46.7755" lon="5.81416">
        <ele>578.8</ele>
        <time>2022-02-23T14:48:12Z</time>
      </trkpt>
      <trkpt lat="46.77545" lon="5.81416">
        <ele>577.8</ele>
        <time>2022-02-23T14:48:16Z</time>
      </trkpt>
      <trkpt lat="46.7754" lon="5.81416">
        <ele>576.7</ele>
        <time>2022-02-23T14:48:21Z</time>
      </trkpt>
      <trkpt lat="46.77535" lon="5.81413">
        <ele>576.1</ele>
        <time>2022-02-23T14:48:25Z</time>
      </trkpt>
      <trkpt lat="46.77531" lon="5.81409">
        <ele>576.3</ele>
        <time>2022-02-23T14:48:29Z</time>
      </trkpt>
      <trkpt lat="46.77526" lon="5.81405">
        <ele>576.9</ele>
        <time>2022-02-23T14:48:34Z</time>
      </trkpt>
      <trkpt lat="46.77521" lon="5.81403">
        <ele>577.4</ele>
        <time>2022-02-23T14:48:38Z</time>
      </trkpt>
      <trkpt lat="46.77517" lon="5.81398">
        <ele>578.4</ele>
        <time>2022-02-23T14:48:43Z</time>
      </trkpt>
      <trkpt lat="46.77514" lon="5.81392">
        <ele>579</ele>
        <time>2022-02-23T14:48:48Z</time>
      </trkpt>
      <trkpt lat="46.7751" lon="5.8139">
        <ele>580.1</ele>
        <time>2022-02-23T14:48:54Z</time>
      </trkpt>
      <trkpt lat="46.77506" lon="5.81388">
        <ele>580.8</ele>
        <time>2022-02-23T14:49:01Z</time>
      </trkpt>
      <trkpt lat="46.77501" lon="5.81385">
        <ele>581</ele>
        <time>2022-02-23T14:49:09Z</time>
      </trkpt>
      <trkpt lat="46.77496" lon="5.81385">
        <ele>579.6</ele>
        <time>2022-02-23T14:49:13Z</time>
      </trkpt>
      <trkpt lat="46.77491" lon="5.81388">
        <ele>578.7</ele>
        <time>2022-02-23T14:49:18Z</time>
      </trkpt>
      <trkpt lat="46.77486" lon="5.81388">
        <ele>578.1</ele>
        <time>2022-02-23T14:49:23Z</time>
      </trkpt>
      <trkpt lat="46.77481" lon="5.81387">
        <ele>576.9</ele>
        <time>2022-02-23T14:49:29Z</time>
      </trkpt>
      <trkpt lat="46.77477" lon="5.81385">
        <ele>576.1</ele>
        <time>2022-02-23T14:49:34Z</time>
      </trkpt>
      <trkpt lat="46.77472" lon="5.81381">
        <ele>575.8</ele>
        <time>2022-02-23T14:49:40Z</time>
      </trkpt>
      <trkpt lat="46.77468" lon="5.8138">
        <ele>576</ele>
        <time>2022-02-23T14:49:44Z</time>
      </trkpt>
      <trkpt lat="46.77462" lon="5.81379">
        <ele>576</ele>
        <time>2022-02-23T14:49:49Z</time>
      </trkpt>
      <trkpt lat="46.77458" lon="5.8138">
        <ele>575.7</ele>
        <time>2022-02-23T14:49:54Z</time>
      </trkpt>
      <trkpt lat="46.77452" lon="5.8138">
        <ele>575.7</ele>
        <time>2022-02-23T14:49:59Z</time>
      </trkpt>
      <trkpt lat="46.77448" lon="5.81382">
        <ele>575.8</ele>
        <time>2022-02-23T14:50:05Z</time>
      </trkpt>
      <trkpt lat="46.77443" lon="5.81379">
        <ele>575.9</ele>
        <time>2022-02-23T14:50:09Z</time>
      </trkpt>
      <trkpt lat="46.7744" lon="5.81373">
        <ele>574.1</ele>
        <time>2022-02-23T14:50:16Z</time>
      </trkpt>
      <trkpt lat="46.77434" lon="5.81374">
        <ele>573.1</ele>
        <time>2022-02-23T14:50:20Z</time>
      </trkpt>
      <trkpt lat="46.7743" lon="5.81373">
        <ele>572</ele>
        <time>2022-02-23T14:50:24Z</time>
      </trkpt>
      <trkpt lat="46.77425" lon="5.8137">
        <ele>571.2</ele>
        <time>2022-02-23T14:50:29Z</time>
      </trkpt>
      <trkpt lat="46.77422" lon="5.81364">
        <ele>570.6</ele>
        <time>2022-02-23T14:50:34Z</time>
      </trkpt>
      <trkpt lat="46.77416" lon="5.8136">
        <ele>570.9</ele>
        <time>2022-02-23T14:50:48Z</time>
      </trkpt>
      <trkpt lat="46.7741" lon="5.8136">
        <ele>571.4</ele>
        <time>2022-02-23T14:50:51Z</time>
      </trkpt>
      <trkpt lat="46.77406" lon="5.81363">
        <ele>572.1</ele>
        <time>2022-02-23T14:50:55Z</time>
      </trkpt>
      <trkpt lat="46.77402" lon="5.81365">
        <ele>573.1</ele>
        <time>2022-02-23T14:51:01Z</time>
      </trkpt>
      <trkpt lat="46.77398" lon="5.81362">
        <ele>572.9</ele>
        <time>2022-02-23T14:51:07Z</time>
      </trkpt>
      <trkpt lat="46.77392" lon="5.81362">
        <ele>572.7</ele>
        <time>2022-02-23T14:51:14Z</time>
      </trkpt>
      <trkpt lat="46.77387" lon="5.81364">
        <ele>572.2</ele>
        <time>2022-02-23T14:51:18Z</time>
      </trkpt>
      <trkpt lat="46.77382" lon="5.81366">
        <ele>570.3</ele>
        <time>2022-02-23T14:51:28Z</time>
      </trkpt>
      <trkpt lat="46.77378" lon="5.81364">
        <ele>568</ele>
        <time>2022-02-23T14:51:35Z</time>
      </trkpt>
      <trkpt lat="46.77372" lon="5.81364">
        <ele>566</ele>
        <time>2022-02-23T14:51:43Z</time>
      </trkpt>
      <trkpt lat="46.77368" lon="5.81367">
        <ele>565.9</ele>
        <time>2022-02-23T14:51:46Z</time>
      </trkpt>
      <trkpt lat="46.77363" lon="5.81369">
        <ele>566.2</ele>
        <time>2022-02-23T14:51:50Z</time>
      </trkpt>
      <trkpt lat="46.77359" lon="5.81367">
        <ele>566.6</ele>
        <time>2022-02-23T14:51:55Z</time>
      </trkpt>
      <trkpt lat="46.77354" lon="5.8137">
        <ele>565.8</ele>
        <time>2022-02-23T14:52:02Z</time>
      </trkpt>
      <trkpt lat="46.77351" lon="5.81365">
        <ele>564.2</ele>
        <time>2022-02-23T14:52:08Z</time>
      </trkpt>
      <trkpt lat="46.77346" lon="5.81364">
        <ele>562.9</ele>
        <time>2022-02-23T14:52:15Z</time>
      </trkpt>
      <trkpt lat="46.77341" lon="5.81365">
        <ele>562.5</ele>
        <time>2022-02-23T14:52:21Z</time>
      </trkpt>
      <trkpt lat="46.77336" lon="5.81365">
        <ele>561.7</ele>
        <time>2022-02-23T14:52:27Z</time>
      </trkpt>
      <trkpt lat="46.77331" lon="5.81367">
        <ele>561</ele>
        <time>2022-02-23T14:52:36Z</time>
      </trkpt>
      <trkpt lat="46.77325" lon="5.81369">
        <ele>561</ele>
        <time>2022-02-23T14:52:40Z</time>
      </trkpt>
      <trkpt lat="46.7732" lon="5.81372">
        <ele>561</ele>
        <time>2022-02-23T14:52:44Z</time>
      </trkpt>
      <trkpt lat="46.77315" lon="5.81375">
        <ele>561.1</ele>
        <time>2022-02-23T14:52:47Z</time>
      </trkpt>
      <trkpt lat="46.77311" lon="5.81379">
        <ele>560.4</ele>
        <time>2022-02-23T14:52:51Z</time>
      </trkpt>
      <trkpt lat="46.77309" lon="5.81385">
        <ele>559.5</ele>
        <time>2022-02-23T14:52:56Z</time>
      </trkpt>
      <trkpt lat="46.77309" lon="5.81392">
        <ele>558.7</ele>
        <time>2022-02-23T14:53:00Z</time>
      </trkpt>
      <trkpt lat="46.77312" lon="5.814">
        <ele>557.7</ele>
        <time>2022-02-23T14:53:05Z</time>
      </trkpt>
      <trkpt lat="46.7731" lon="5.81407">
        <ele>556.8</ele>
        <time>2022-02-23T14:53:11Z</time>
      </trkpt>
      <trkpt lat="46.77308" lon="5.81413">
        <ele>556.3</ele>
        <time>2022-02-23T14:53:15Z</time>
      </trkpt>
      <trkpt lat="46.77306" lon="5.81419">
        <ele>555.4</ele>
        <time>2022-02-23T14:53:23Z</time>
      </trkpt>
      <trkpt lat="46.77304" lon="5.81426">
        <ele>553.8</ele>
        <time>2022-02-23T14:53:33Z</time>
      </trkpt>
      <trkpt lat="46.77301" lon="5.81431">
        <ele>552.8</ele>
        <time>2022-02-23T14:53:38Z</time>
      </trkpt>
      <trkpt lat="46.77296" lon="5.81436">
        <ele>552</ele>
        <time>2022-02-23T14:53:41Z</time>
      </trkpt>
      <trkpt lat="46.77293" lon="5.81442">
        <ele>551</ele>
        <time>2022-02-23T14:53:44Z</time>
      </trkpt>
      <trkpt lat="46.77289" lon="5.81447">
        <ele>549.5</ele>
        <time>2022-02-23T14:53:49Z</time>
      </trkpt>
      <trkpt lat="46.77285" lon="5.81451">
        <ele>548.2</ele>
        <time>2022-02-23T14:53:55Z</time>
      </trkpt>
      <trkpt lat="46.77281" lon="5.81455">
        <ele>546.8</ele>
        <time>2022-02-23T14:54:03Z</time>
      </trkpt>
      <trkpt lat="46.77277" lon="5.81458">
        <ele>542.5</ele>
        <time>2022-02-23T14:54:21Z</time>
      </trkpt>
      <trkpt lat="46.77271" lon="5.81459">
        <ele>542.1</ele>
        <time>2022-02-23T14:54:26Z</time>
      </trkpt>
      <trkpt lat="46.77267" lon="5.81462">
        <ele>541.8</ele>
        <time>2022-02-23T14:54:30Z</time>
      </trkpt>
      <trkpt lat="46.77263" lon="5.81465">
        <ele>541.7</ele>
        <time>2022-02-23T14:54:34Z</time>
      </trkpt>
      <trkpt lat="46.77258" lon="5.81467">
        <ele>541.3</ele>
        <time>2022-02-23T14:54:39Z</time>
      </trkpt>
      <trkpt lat="46.77254" lon="5.81468">
        <ele>540.9</ele>
        <time>2022-02-23T14:54:43Z</time>
      </trkpt>
      <trkpt lat="46.77249" lon="5.81471">
        <ele>540.2</ele>
        <time>2022-02-23T14:54:48Z</time>
      </trkpt>
      <trkpt lat="46.77245" lon="5.81475">
        <ele>540.1</ele>
        <time>2022-02-23T14:54:52Z</time>
      </trkpt>
      <trkpt lat="46.77242" lon="5.8148">
        <ele>538.8</ele>
        <time>2022-02-23T14:54:59Z</time>
      </trkpt>
      <trkpt lat="46.77237" lon="5.81483">
        <ele>538.2</ele>
        <time>2022-02-23T14:55:04Z</time>
      </trkpt>
      <trkpt lat="46.77232" lon="5.81488">
        <ele>538.2</ele>
        <time>2022-02-23T14:55:08Z</time>
      </trkpt>
      <trkpt lat="46.77227" lon="5.81491">
        <ele>538.8</ele>
        <time>2022-02-23T14:55:12Z</time>
      </trkpt>
      <trkpt lat="46.77222" lon="5.81492">
        <ele>539.8</ele>
        <time>2022-02-23T14:55:17Z</time>
      </trkpt>
      <trkpt lat="46.77217" lon="5.81491">
        <ele>540.3</ele>
        <time>2022-02-23T14:55:22Z</time>
      </trkpt>
      <trkpt lat="46.77212" lon="5.81491">
        <ele>540.8</ele>
        <time>2022-02-23T14:55:27Z</time>
      </trkpt>
      <trkpt lat="46.77208" lon="5.81491">
        <ele>540.9</ele>
        <time>2022-02-23T14:55:32Z</time>
      </trkpt>
      <trkpt lat="46.77203" lon="5.8149">
        <ele>540.6</ele>
        <time>2022-02-23T14:55:37Z</time>
      </trkpt>
      <trkpt lat="46.77198" lon="5.8149">
        <ele>540.1</ele>
        <time>2022-02-23T14:55:41Z</time>
      </trkpt>
      <trkpt lat="46.77193" lon="5.8149">
        <ele>540</ele>
        <time>2022-02-23T14:55:46Z</time>
      </trkpt>
      <trkpt lat="46.77188" lon="5.81489">
        <ele>540.4</ele>
        <time>2022-02-23T14:55:51Z</time>
      </trkpt>
      <trkpt lat="46.77183" lon="5.81488">
        <ele>541.5</ele>
        <time>2022-02-23T14:56:00Z</time>
      </trkpt>
      <trkpt lat="46.77178" lon="5.81487">
        <ele>541.6</ele>
        <time>2022-02-23T14:56:05Z</time>
      </trkpt>
      <trkpt lat="46.77172" lon="5.81487">
        <ele>540.7</ele>
        <time>2022-02-23T14:56:11Z</time>
      </trkpt>
      <trkpt lat="46.77167" lon="5.81488">
        <ele>539.9</ele>
        <time>2022-02-23T14:56:15Z</time>
      </trkpt>
      <trkpt lat="46.77162" lon="5.81489">
        <ele>538.6</ele>
        <time>2022-02-23T14:56:19Z</time>
      </trkpt>
      <trkpt lat="46.77157" lon="5.81488">
        <ele>537</ele>
        <time>2022-02-23T14:56:24Z</time>
      </trkpt>
      <trkpt lat="46.77152" lon="5.81486">
        <ele>536.1</ele>
        <time>2022-02-23T14:56:29Z</time>
      </trkpt>
      <trkpt lat="46.77147" lon="5.81484">
        <ele>535.8</ele>
        <time>2022-02-23T14:56:34Z</time>
      </trkpt>
      <trkpt lat="46.77144" lon="5.81479">
        <ele>535.7</ele>
        <time>2022-02-23T14:56:38Z</time>
      </trkpt>
      <trkpt lat="46.77142" lon="5.81474">
        <ele>534.4</ele>
        <time>2022-02-23T14:56:47Z</time>
      </trkpt>
      <trkpt lat="46.77142" lon="5.81466">
        <ele>533.3</ele>
        <time>2022-02-23T14:56:58Z</time>
      </trkpt>
      <trkpt lat="46.77141" lon="5.81459">
        <ele>532.9</ele>
        <time>2022-02-23T14:57:01Z</time>
      </trkpt>
      <trkpt lat="46.77138" lon="5.81453">
        <ele>532.9</ele>
        <time>2022-02-23T14:57:05Z</time>
      </trkpt>
      <trkpt lat="46.77134" lon="5.81448">
        <ele>533.3</ele>
        <time>2022-02-23T14:57:11Z</time>
      </trkpt>
      <trkpt lat="46.77133" lon="5.81442">
        <ele>533.5</ele>
        <time>2022-02-23T14:57:19Z</time>
      </trkpt>
      <trkpt lat="46.77128" lon="5.81438">
        <ele>533.6</ele>
        <time>2022-02-23T14:57:24Z</time>
      </trkpt>
      <trkpt lat="46.77124" lon="5.81434">
        <ele>533.3</ele>
        <time>2022-02-23T14:57:29Z</time>
      </trkpt>
      <trkpt lat="46.77121" lon="5.81428">
        <ele>532.7</ele>
        <time>2022-02-23T14:57:35Z</time>
      </trkpt>
      <trkpt lat="46.77119" lon="5.81422">
        <ele>531.6</ele>
        <time>2022-02-23T14:57:41Z</time>
      </trkpt>
      <trkpt lat="46.77114" lon="5.81418">
        <ele>531.1</ele>
        <time>2022-02-23T14:57:47Z</time>
      </trkpt>
      <trkpt lat="46.77112" lon="5.81411">
        <ele>531.1</ele>
        <time>2022-02-23T14:57:51Z</time>
      </trkpt>
      <trkpt lat="46.77109" lon="5.81406">
        <ele>531.3</ele>
        <time>2022-02-23T14:57:54Z</time>
      </trkpt>
      <trkpt lat="46.77106" lon="5.81401">
        <ele>530.8</ele>
        <time>2022-02-23T14:57:59Z</time>
      </trkpt>
      <trkpt lat="46.77104" lon="5.81395">
        <ele>529.7</ele>
        <time>2022-02-23T14:58:06Z</time>
      </trkpt>
      <trkpt lat="46.77101" lon="5.81389">
        <ele>529.2</ele>
        <time>2022-02-23T14:58:10Z</time>
      </trkpt>
      <trkpt lat="46.77099" lon="5.81384">
        <ele>528.6</ele>
        <time>2022-02-23T14:58:14Z</time>
      </trkpt>
      <trkpt lat="46.77096" lon="5.81377">
        <ele>528.2</ele>
        <time>2022-02-23T14:58:18Z</time>
      </trkpt>
      <trkpt lat="46.77093" lon="5.8137">
        <ele>527.9</ele>
        <time>2022-02-23T14:58:22Z</time>
      </trkpt>
      <trkpt lat="46.77092" lon="5.81364">
        <ele>527.9</ele>
        <time>2022-02-23T14:58:26Z</time>
      </trkpt>
      <trkpt lat="46.77093" lon="5.81358">
        <ele>527.9</ele>
        <time>2022-02-23T14:58:31Z</time>
      </trkpt>
      <trkpt lat="46.77094" lon="5.81351">
        <ele>528</ele>
        <time>2022-02-23T14:58:36Z</time>
      </trkpt>
      <trkpt lat="46.77096" lon="5.81344">
        <ele>527.9</ele>
        <time>2022-02-23T14:58:41Z</time>
      </trkpt>
      <trkpt lat="46.77097" lon="5.81338">
        <ele>527.6</ele>
        <time>2022-02-23T14:58:45Z</time>
      </trkpt>
      <trkpt lat="46.77098" lon="5.81331">
        <ele>527.4</ele>
        <time>2022-02-23T14:58:50Z</time>
      </trkpt>
      <trkpt lat="46.77098" lon="5.81324">
        <ele>527.7</ele>
        <time>2022-02-23T14:58:54Z</time>
      </trkpt>
      <trkpt lat="46.77097" lon="5.81317">
        <ele>527.8</ele>
        <time>2022-02-23T14:58:58Z</time>
      </trkpt>
      <trkpt lat="46.77096" lon="5.8131">
        <ele>528.4</ele>
        <time>2022-02-23T14:59:02Z</time>
      </trkpt>
      <trkpt lat="46.77094" lon="5.81302">
        <ele>528.9</ele>
        <time>2022-02-23T14:59:07Z</time>
      </trkpt>
      <trkpt lat="46.77092" lon="5.81296">
        <ele>529.2</ele>
        <time>2022-02-23T14:59:12Z</time>
      </trkpt>
      <trkpt lat="46.7709" lon="5.8129">
        <ele>529.6</ele>
        <time>2022-02-23T14:59:18Z</time>
      </trkpt>
      <trkpt lat="46.77088" lon="5.81283">
        <ele>529.7</ele>
        <time>2022-02-23T14:59:22Z</time>
      </trkpt>
      <trkpt lat="46.77085" lon="5.81277">
        <ele>529.4</ele>
        <time>2022-02-23T14:59:26Z</time>
      </trkpt>
      <trkpt lat="46.77083" lon="5.81271">
        <ele>529</ele>
        <time>2022-02-23T14:59:30Z</time>
      </trkpt>
      <trkpt lat="46.7708" lon="5.81266">
        <ele>528.5</ele>
        <time>2022-02-23T14:59:35Z</time>
      </trkpt>
      <trkpt lat="46.77076" lon="5.81261">
        <ele>528.2</ele>
        <time>2022-02-23T14:59:40Z</time>
      </trkpt>
      <trkpt lat="46.77073" lon="5.81256">
        <ele>527.9</ele>
        <time>2022-02-23T14:59:44Z</time>
      </trkpt>
      <trkpt lat="46.77069" lon="5.81252">
        <ele>527.7</ele>
        <time>2022-02-23T14:59:49Z</time>
      </trkpt>
      <trkpt lat="46.77065" lon="5.81246">
        <ele>527.1</ele>
        <time>2022-02-23T14:59:54Z</time>
      </trkpt>
      <trkpt lat="46.77062" lon="5.81241">
        <ele>526.3</ele>
        <time>2022-02-23T15:00:00Z</time>
      </trkpt>
      <trkpt lat="46.77058" lon="5.81238">
        <ele>526.4</ele>
        <time>2022-02-23T15:00:06Z</time>
      </trkpt>
      <trkpt lat="46.77055" lon="5.81232">
        <ele>527.1</ele>
        <time>2022-02-23T15:00:12Z</time>
      </trkpt>
      <trkpt lat="46.7705" lon="5.81227">
        <ele>527.6</ele>
        <time>2022-02-23T15:00:16Z</time>
      </trkpt>
      <trkpt lat="46.77046" lon="5.81223">
        <ele>527.9</ele>
        <time>2022-02-23T15:00:20Z</time>
      </trkpt>
      <trkpt lat="46.77042" lon="5.81217">
        <ele>527.9</ele>
        <time>2022-02-23T15:00:25Z</time>
      </trkpt>
      <trkpt lat="46.77039" lon="5.81211">
        <ele>527.6</ele>
        <time>2022-02-23T15:00:30Z</time>
      </trkpt>
      <trkpt lat="46.77036" lon="5.81206">
        <ele>527.4</ele>
        <time>2022-02-23T15:00:34Z</time>
      </trkpt>
      <trkpt lat="46.77031" lon="5.81203">
        <ele>527.4</ele>
        <time>2022-02-23T15:00:40Z</time>
      </trkpt>
      <trkpt lat="46.77026" lon="5.812">
        <ele>527.1</ele>
        <time>2022-02-23T15:00:44Z</time>
      </trkpt>
      <trkpt lat="46.77022" lon="5.81198">
        <ele>526.8</ele>
        <time>2022-02-23T15:00:47Z</time>
      </trkpt>
      <trkpt lat="46.77017" lon="5.81196">
        <ele>526.7</ele>
        <time>2022-02-23T15:00:54Z</time>
      </trkpt>
      <trkpt lat="46.77012" lon="5.81194">
        <ele>526.8</ele>
        <time>2022-02-23T15:00:58Z</time>
      </trkpt>
      <trkpt lat="46.77007" lon="5.8119">
        <ele>526.9</ele>
        <time>2022-02-23T15:01:04Z</time>
      </trkpt>
      <trkpt lat="46.77002" lon="5.81186">
        <ele>526.6</ele>
        <time>2022-02-23T15:01:08Z</time>
      </trkpt>
      <trkpt lat="46.76998" lon="5.81182">
        <ele>526.1</ele>
        <time>2022-02-23T15:01:12Z</time>
      </trkpt>
      <trkpt lat="46.76995" lon="5.81177">
        <ele>525.7</ele>
        <time>2022-02-23T15:01:17Z</time>
      </trkpt>
      <trkpt lat="46.76991" lon="5.81173">
        <ele>526.2</ele>
        <time>2022-02-23T15:01:24Z</time>
      </trkpt>
      <trkpt lat="46.76987" lon="5.81168">
        <ele>525.8</ele>
        <time>2022-02-23T15:01:30Z</time>
      </trkpt>
      <trkpt lat="46.76982" lon="5.81166">
        <ele>525.3</ele>
        <time>2022-02-23T15:01:34Z</time>
      </trkpt>
      <trkpt lat="46.76979" lon="5.81163">
        <ele>524.1</ele>
        <time>2022-02-23T15:01:41Z</time>
      </trkpt>
      <trkpt lat="46.76973" lon="5.81161">
        <ele>523.6</ele>
        <time>2022-02-23T15:01:45Z</time>
      </trkpt>
      <trkpt lat="46.76968" lon="5.81157">
        <ele>523.2</ele>
        <time>2022-02-23T15:01:51Z</time>
      </trkpt>
      <trkpt lat="46.76964" lon="5.81155">
        <ele>523.1</ele>
        <time>2022-02-23T15:01:54Z</time>
      </trkpt>
      <trkpt lat="46.76958" lon="5.81153">
        <ele>523.7</ele>
        <time>2022-02-23T15:01:57Z</time>
      </trkpt>
      <trkpt lat="46.76954" lon="5.8115">
        <ele>524.5</ele>
        <time>2022-02-23T15:02:01Z</time>
      </trkpt>
      <trkpt lat="46.7695" lon="5.81145">
        <ele>525.6</ele>
        <time>2022-02-23T15:02:07Z</time>
      </trkpt>
      <trkpt lat="46.76949" lon="5.81137">
        <ele>526.4</ele>
        <time>2022-02-23T15:02:14Z</time>
      </trkpt>
      <trkpt lat="46.76945" lon="5.81131">
        <ele>525</ele>
        <time>2022-02-23T15:02:18Z</time>
      </trkpt>
      <trkpt lat="46.76941" lon="5.81127">
        <ele>524.7</ele>
        <time>2022-02-23T15:02:21Z</time>
      </trkpt>
      <trkpt lat="46.76938" lon="5.81121">
        <ele>525.1</ele>
        <time>2022-02-23T15:02:25Z</time>
      </trkpt>
      <trkpt lat="46.76934" lon="5.81115">
        <ele>525.5</ele>
        <time>2022-02-23T15:02:31Z</time>
      </trkpt>
      <trkpt lat="46.7693" lon="5.81112">
        <ele>525.3</ele>
        <time>2022-02-23T15:02:34Z</time>
      </trkpt>
      <trkpt lat="46.76926" lon="5.81108">
        <ele>525.4</ele>
        <time>2022-02-23T15:02:39Z</time>
      </trkpt>
      <trkpt lat="46.76923" lon="5.81104">
        <ele>525.2</ele>
        <time>2022-02-23T15:02:46Z</time>
      </trkpt>
      <trkpt lat="46.76918" lon="5.81099">
        <ele>525.4</ele>
        <time>2022-02-23T15:02:50Z</time>
      </trkpt>
      <trkpt lat="46.76913" lon="5.81094">
        <ele>526</ele>
        <time>2022-02-23T15:02:53Z</time>
      </trkpt>
      <trkpt lat="46.76909" lon="5.81091">
        <ele>526.4</ele>
        <time>2022-02-23T15:02:57Z</time>
      </trkpt>
      <trkpt lat="46.76904" lon="5.81092">
        <ele>526.3</ele>
        <time>2022-02-23T15:03:08Z</time>
      </trkpt>
      <trkpt lat="46.76899" lon="5.8109">
        <ele>525.4</ele>
        <time>2022-02-23T15:03:17Z</time>
      </trkpt>
      <trkpt lat="46.76896" lon="5.81084">
        <ele>525.2</ele>
        <time>2022-02-23T15:03:26Z</time>
      </trkpt>
      <trkpt lat="46.76892" lon="5.8108">
        <ele>524.4</ele>
        <time>2022-02-23T15:03:31Z</time>
      </trkpt>
      <trkpt lat="46.76886" lon="5.81076">
        <ele>523.3</ele>
        <time>2022-02-23T15:03:35Z</time>
      </trkpt>
      <trkpt lat="46.76882" lon="5.81073">
        <ele>523</ele>
        <time>2022-02-23T15:03:38Z</time>
      </trkpt>
      <trkpt lat="46.76877" lon="5.81071">
        <ele>523.1</ele>
        <time>2022-02-23T15:03:41Z</time>
      </trkpt>
      <trkpt lat="46.76872" lon="5.81068">
        <ele>523.4</ele>
        <time>2022-02-23T15:03:45Z</time>
      </trkpt>
      <trkpt lat="46.76868" lon="5.81064">
        <ele>524.3</ele>
        <time>2022-02-23T15:03:50Z</time>
      </trkpt>
      <trkpt lat="46.76865" lon="5.81057">
        <ele>524.8</ele>
        <time>2022-02-23T15:03:55Z</time>
      </trkpt>
      <trkpt lat="46.76862" lon="5.8105">
        <ele>524.5</ele>
        <time>2022-02-23T15:04:00Z</time>
      </trkpt>
      <trkpt lat="46.76857" lon="5.81048">
        <ele>524.2</ele>
        <time>2022-02-23T15:04:03Z</time>
      </trkpt>
      <trkpt lat="46.76852" lon="5.81046">
        <ele>524</ele>
        <time>2022-02-23T15:04:07Z</time>
      </trkpt>
      <trkpt lat="46.76846" lon="5.81043">
        <ele>524.1</ele>
        <time>2022-02-23T15:04:11Z</time>
      </trkpt>
      <trkpt lat="46.76842" lon="5.81042">
        <ele>524.3</ele>
        <time>2022-02-23T15:04:15Z</time>
      </trkpt>
      <trkpt lat="46.76837" lon="5.8104">
        <ele>524.1</ele>
        <time>2022-02-23T15:04:20Z</time>
      </trkpt>
      <trkpt lat="46.76833" lon="5.81041">
        <ele>523.9</ele>
        <time>2022-02-23T15:04:26Z</time>
      </trkpt>
      <trkpt lat="46.76831" lon="5.81035">
        <ele>525.9</ele>
        <time>2022-02-23T15:04:40Z</time>
      </trkpt>
      <trkpt lat="46.76828" lon="5.8103">
        <ele>526.2</ele>
        <time>2022-02-23T15:04:46Z</time>
      </trkpt>
      <trkpt lat="46.76831" lon="5.81039">
        <ele>526.4</ele>
        <time>2022-02-23T15:04:55Z</time>
      </trkpt>
      <trkpt lat="46.76829" lon="5.81032">
        <ele>524.1</ele>
        <time>2022-02-23T15:05:12Z</time>
      </trkpt>
      <trkpt lat="46.76828" lon="5.81025">
        <ele>522.4</ele>
        <time>2022-02-23T15:05:17Z</time>
      </trkpt>
      <trkpt lat="46.76825" lon="5.81019">
        <ele>521.1</ele>
        <time>2022-02-23T15:05:22Z</time>
      </trkpt>
      <trkpt lat="46.76821" lon="5.81014">
        <ele>520.7</ele>
        <time>2022-02-23T15:05:26Z</time>
      </trkpt>
      <trkpt lat="46.76817" lon="5.8101">
        <ele>520.9</ele>
        <time>2022-02-23T15:05:30Z</time>
      </trkpt>
      <trkpt lat="46.76812" lon="5.81008">
        <ele>521.4</ele>
        <time>2022-02-23T15:05:34Z</time>
      </trkpt>
      <trkpt lat="46.76807" lon="5.81007">
        <ele>522.1</ele>
        <time>2022-02-23T15:05:37Z</time>
      </trkpt>
      <trkpt lat="46.76804" lon="5.81001">
        <ele>522.8</ele>
        <time>2022-02-23T15:05:43Z</time>
      </trkpt>
      <trkpt lat="46.768" lon="5.80996">
        <ele>521.9</ele>
        <time>2022-02-23T15:05:50Z</time>
      </trkpt>
      <trkpt lat="46.76794" lon="5.80993">
        <ele>521.4</ele>
        <time>2022-02-23T15:05:55Z</time>
      </trkpt>
      <trkpt lat="46.7679" lon="5.80991">
        <ele>521.5</ele>
        <time>2022-02-23T15:05:59Z</time>
      </trkpt>
      <trkpt lat="46.76786" lon="5.80987">
        <ele>521.3</ele>
        <time>2022-02-23T15:06:04Z</time>
      </trkpt>
      <trkpt lat="46.76781" lon="5.80984">
        <ele>521.6</ele>
        <time>2022-02-23T15:06:08Z</time>
      </trkpt>
      <trkpt lat="46.76778" lon="5.8098">
        <ele>521.6</ele>
        <time>2022-02-23T15:06:14Z</time>
      </trkpt>
      <trkpt lat="46.76773" lon="5.80976">
        <ele>521.9</ele>
        <time>2022-02-23T15:06:18Z</time>
      </trkpt>
      <trkpt lat="46.7677" lon="5.80971">
        <ele>522.6</ele>
        <time>2022-02-23T15:06:23Z</time>
      </trkpt>
      <trkpt lat="46.76766" lon="5.80966">
        <ele>523.1</ele>
        <time>2022-02-23T15:06:28Z</time>
      </trkpt>
      <trkpt lat="46.76762" lon="5.80961">
        <ele>522.8</ele>
        <time>2022-02-23T15:06:33Z</time>
      </trkpt>
      <trkpt lat="46.76757" lon="5.80958">
        <ele>522.8</ele>
        <time>2022-02-23T15:06:37Z</time>
      </trkpt>
      <trkpt lat="46.76754" lon="5.80955">
        <ele>523.1</ele>
        <time>2022-02-23T15:06:40Z</time>
      </trkpt>
      <trkpt lat="46.76749" lon="5.80952">
        <ele>523.3</ele>
        <time>2022-02-23T15:06:45Z</time>
      </trkpt>
      <trkpt lat="46.76745" lon="5.80949">
        <ele>523.3</ele>
        <time>2022-02-23T15:06:49Z</time>
      </trkpt>
      <trkpt lat="46.76741" lon="5.80947">
        <ele>523.1</ele>
        <time>2022-02-23T15:06:54Z</time>
      </trkpt>
      <trkpt lat="46.76737" lon="5.80943">
        <ele>523.3</ele>
        <time>2022-02-23T15:06:59Z</time>
      </trkpt>
      <trkpt lat="46.76732" lon="5.80939">
        <ele>523.8</ele>
        <time>2022-02-23T15:07:03Z</time>
      </trkpt>
      <trkpt lat="46.76729" lon="5.80934">
        <ele>524.1</ele>
        <time>2022-02-23T15:07:09Z</time>
      </trkpt>
      <trkpt lat="46.76725" lon="5.8093">
        <ele>523.9</ele>
        <time>2022-02-23T15:07:14Z</time>
      </trkpt>
      <trkpt lat="46.76719" lon="5.80927">
        <ele>524.2</ele>
        <time>2022-02-23T15:07:18Z</time>
      </trkpt>
      <trkpt lat="46.76714" lon="5.80925">
        <ele>524.5</ele>
        <time>2022-02-23T15:07:21Z</time>
      </trkpt>
      <trkpt lat="46.76709" lon="5.80923">
        <ele>524.3</ele>
        <time>2022-02-23T15:07:25Z</time>
      </trkpt>
      <trkpt lat="46.76707" lon="5.80917">
        <ele>523.7</ele>
        <time>2022-02-23T15:07:31Z</time>
      </trkpt>
      <trkpt lat="46.76705" lon="5.8091">
        <ele>523.7</ele>
        <time>2022-02-23T15:07:36Z</time>
      </trkpt>
      <trkpt lat="46.76702" lon="5.80905">
        <ele>524.5</ele>
        <time>2022-02-23T15:07:41Z</time>
      </trkpt>
      <trkpt lat="46.76698" lon="5.80899">
        <ele>525.2</ele>
        <time>2022-02-23T15:07:46Z</time>
      </trkpt>
      <trkpt lat="46.76696" lon="5.80893">
        <ele>524.9</ele>
        <time>2022-02-23T15:07:51Z</time>
      </trkpt>
      <trkpt lat="46.76692" lon="5.80888">
        <ele>522.7</ele>
        <time>2022-02-23T15:07:56Z</time>
      </trkpt>
      <trkpt lat="46.76688" lon="5.80884">
        <ele>520.5</ele>
        <time>2022-02-23T15:08:01Z</time>
      </trkpt>
      <trkpt lat="46.76684" lon="5.80879">
        <ele>519.2</ele>
        <time>2022-02-23T15:08:05Z</time>
      </trkpt>
      <trkpt lat="46.76681" lon="5.80875">
        <ele>518.4</ele>
        <time>2022-02-23T15:08:09Z</time>
      </trkpt>
      <trkpt lat="46.76677" lon="5.80871">
        <ele>517.8</ele>
        <time>2022-02-23T15:08:13Z</time>
      </trkpt>
      <trkpt lat="46.76673" lon="5.80868">
        <ele>517.4</ele>
        <time>2022-02-23T15:08:18Z</time>
      </trkpt>
      <trkpt lat="46.76668" lon="5.80863">
        <ele>517.4</ele>
        <time>2022-02-23T15:08:23Z</time>
      </trkpt>
      <trkpt lat="46.76663" lon="5.80861">
        <ele>517.6</ele>
        <time>2022-02-23T15:08:28Z</time>
      </trkpt>
      <trkpt lat="46.76658" lon="5.80862">
        <ele>518.1</ele>
        <time>2022-02-23T15:08:33Z</time>
      </trkpt>
      <trkpt lat="46.76654" lon="5.80864">
        <ele>518.8</ele>
        <time>2022-02-23T15:08:37Z</time>
      </trkpt>
      <trkpt lat="46.76648" lon="5.80863">
        <ele>519.7</ele>
        <time>2022-02-23T15:08:42Z</time>
      </trkpt>
      <trkpt lat="46.76646" lon="5.80858">
        <ele>520.6</ele>
        <time>2022-02-23T15:08:47Z</time>
      </trkpt>
      <trkpt lat="46.76643" lon="5.80852">
        <ele>521.8</ele>
        <time>2022-02-23T15:08:52Z</time>
      </trkpt>
      <trkpt lat="46.7664" lon="5.80846">
        <ele>523.4</ele>
        <time>2022-02-23T15:08:59Z</time>
      </trkpt>
      <trkpt lat="46.76637" lon="5.80842">
        <ele>524.6</ele>
        <time>2022-02-23T15:09:04Z</time>
      </trkpt>
      <trkpt lat="46.76635" lon="5.80835">
        <ele>525.4</ele>
        <time>2022-02-23T15:09:10Z</time>
      </trkpt>
      <trkpt lat="46.76631" lon="5.8083">
        <ele>525.7</ele>
        <time>2022-02-23T15:09:14Z</time>
      </trkpt>
      <trkpt lat="46.76627" lon="5.80825">
        <ele>525.8</ele>
        <time>2022-02-23T15:09:21Z</time>
      </trkpt>
      <trkpt lat="46.76623" lon="5.8082">
        <ele>524.8</ele>
        <time>2022-02-23T15:09:26Z</time>
      </trkpt>
      <trkpt lat="46.76618" lon="5.80818">
        <ele>524.5</ele>
        <time>2022-02-23T15:09:30Z</time>
      </trkpt>
      <trkpt lat="46.76614" lon="5.80815">
        <ele>524.2</ele>
        <time>2022-02-23T15:09:37Z</time>
      </trkpt>
      <trkpt lat="46.7661" lon="5.80811">
        <ele>524.1</ele>
        <time>2022-02-23T15:09:42Z</time>
      </trkpt>
      <trkpt lat="46.76606" lon="5.80806">
        <ele>523.8</ele>
        <time>2022-02-23T15:09:47Z</time>
      </trkpt>
      <trkpt lat="46.76602" lon="5.80804">
        <ele>523.9</ele>
        <time>2022-02-23T15:09:51Z</time>
      </trkpt>
      <trkpt lat="46.76598" lon="5.808">
        <ele>525.2</ele>
        <time>2022-02-23T15:10:01Z</time>
      </trkpt>
      <trkpt lat="46.76595" lon="5.80794">
        <ele>524.1</ele>
        <time>2022-02-23T15:12:50Z</time>
      </trkpt>
      <trkpt lat="46.76592" lon="5.80789">
        <ele>523.9</ele>
        <time>2022-02-23T15:12:54Z</time>
      </trkpt>
      <trkpt lat="46.76587" lon="5.80787">
        <ele>523.4</ele>
        <time>2022-02-23T15:13:01Z</time>
      </trkpt>
      <trkpt lat="46.76582" lon="5.80786">
        <ele>522.7</ele>
        <time>2022-02-23T15:13:06Z</time>
      </trkpt>
      <trkpt lat="46.76579" lon="5.80781">
        <ele>520.9</ele>
        <time>2022-02-23T15:13:13Z</time>
      </trkpt>
      <trkpt lat="46.76575" lon="5.80776">
        <ele>519.8</ele>
        <time>2022-02-23T15:13:17Z</time>
      </trkpt>
      <trkpt lat="46.76571" lon="5.80772">
        <ele>519.1</ele>
        <time>2022-02-23T15:13:21Z</time>
      </trkpt>
      <trkpt lat="46.76566" lon="5.80768">
        <ele>519.1</ele>
        <time>2022-02-23T15:13:25Z</time>
      </trkpt>
      <trkpt lat="46.76561" lon="5.80765">
        <ele>519.3</ele>
        <time>2022-02-23T15:13:30Z</time>
      </trkpt>
      <trkpt lat="46.76557" lon="5.80761">
        <ele>519.4</ele>
        <time>2022-02-23T15:13:35Z</time>
      </trkpt>
      <trkpt lat="46.76553" lon="5.80757">
        <ele>519.7</ele>
        <time>2022-02-23T15:13:40Z</time>
      </trkpt>
      <trkpt lat="46.7655" lon="5.80752">
        <ele>520.2</ele>
        <time>2022-02-23T15:13:45Z</time>
      </trkpt>
      <trkpt lat="46.76548" lon="5.80746">
        <ele>520</ele>
        <time>2022-02-23T15:13:50Z</time>
      </trkpt>
      <trkpt lat="46.76545" lon="5.8074">
        <ele>518.6</ele>
        <time>2022-02-23T15:13:56Z</time>
      </trkpt>
      <trkpt lat="46.76541" lon="5.80737">
        <ele>517.1</ele>
        <time>2022-02-23T15:14:02Z</time>
      </trkpt>
      <trkpt lat="46.76536" lon="5.80732">
        <ele>516.4</ele>
        <time>2022-02-23T15:14:07Z</time>
      </trkpt>
      <trkpt lat="46.76532" lon="5.80729">
        <ele>516.2</ele>
        <time>2022-02-23T15:14:11Z</time>
      </trkpt>
      <trkpt lat="46.76528" lon="5.80726">
        <ele>516.6</ele>
        <time>2022-02-23T15:14:15Z</time>
      </trkpt>
      <trkpt lat="46.76523" lon="5.80724">
        <ele>516.9</ele>
        <time>2022-02-23T15:14:20Z</time>
      </trkpt>
      <trkpt lat="46.7652" lon="5.80719">
        <ele>517.1</ele>
        <time>2022-02-23T15:14:25Z</time>
      </trkpt>
      <trkpt lat="46.76515" lon="5.80716">
        <ele>517.6</ele>
        <time>2022-02-23T15:14:30Z</time>
      </trkpt>
      <trkpt lat="46.76511" lon="5.80712">
        <ele>518</ele>
        <time>2022-02-23T15:14:34Z</time>
      </trkpt>
      <trkpt lat="46.76507" lon="5.80708">
        <ele>518.8</ele>
        <time>2022-02-23T15:14:39Z</time>
      </trkpt>
      <trkpt lat="46.76503" lon="5.80704">
        <ele>519.6</ele>
        <time>2022-02-23T15:14:43Z</time>
      </trkpt>
      <trkpt lat="46.76499" lon="5.80699">
        <ele>519.9</ele>
        <time>2022-02-23T15:14:47Z</time>
      </trkpt>
      <trkpt lat="46.76495" lon="5.80694">
        <ele>520.1</ele>
        <time>2022-02-23T15:14:51Z</time>
      </trkpt>
      <trkpt lat="46.76491" lon="5.80691">
        <ele>520.3</ele>
        <time>2022-02-23T15:14:55Z</time>
      </trkpt>
      <trkpt lat="46.76486" lon="5.80687">
        <ele>520.4</ele>
        <time>2022-02-23T15:15:00Z</time>
      </trkpt>
      <trkpt lat="46.76482" lon="5.80683">
        <ele>520.3</ele>
        <time>2022-02-23T15:15:05Z</time>
      </trkpt>
      <trkpt lat="46.76478" lon="5.80678">
        <ele>520</ele>
        <time>2022-02-23T15:15:10Z</time>
      </trkpt>
      <trkpt lat="46.76474" lon="5.80673">
        <ele>519.5</ele>
        <time>2022-02-23T15:15:15Z</time>
      </trkpt>
      <trkpt lat="46.7647" lon="5.80669">
        <ele>518.5</ele>
        <time>2022-02-23T15:15:21Z</time>
      </trkpt>
      <trkpt lat="46.76465" lon="5.80666">
        <ele>517.8</ele>
        <time>2022-02-23T15:15:25Z</time>
      </trkpt>
      <trkpt lat="46.76461" lon="5.80662">
        <ele>517</ele>
        <time>2022-02-23T15:15:29Z</time>
      </trkpt>
      <trkpt lat="46.76457" lon="5.80657">
        <ele>516.8</ele>
        <time>2022-02-23T15:15:33Z</time>
      </trkpt>
      <trkpt lat="46.76453" lon="5.80651">
        <ele>516.7</ele>
        <time>2022-02-23T15:15:38Z</time>
      </trkpt>
      <trkpt lat="46.7645" lon="5.80645">
        <ele>516.7</ele>
        <time>2022-02-23T15:15:43Z</time>
      </trkpt>
      <trkpt lat="46.76448" lon="5.80639">
        <ele>517</ele>
        <time>2022-02-23T15:15:48Z</time>
      </trkpt>
      <trkpt lat="46.76444" lon="5.80634">
        <ele>517.8</ele>
        <time>2022-02-23T15:15:54Z</time>
      </trkpt>
      <trkpt lat="46.76441" lon="5.80628">
        <ele>518.5</ele>
        <time>2022-02-23T15:15:59Z</time>
      </trkpt>
      <trkpt lat="46.76438" lon="5.80623">
        <ele>518.9</ele>
        <time>2022-02-23T15:16:03Z</time>
      </trkpt>
      <trkpt lat="46.76434" lon="5.80618">
        <ele>519</ele>
        <time>2022-02-23T15:16:07Z</time>
      </trkpt>
      <trkpt lat="46.76429" lon="5.80616">
        <ele>518.7</ele>
        <time>2022-02-23T15:16:11Z</time>
      </trkpt>
      <trkpt lat="46.76424" lon="5.80613">
        <ele>518.5</ele>
        <time>2022-02-23T15:16:16Z</time>
      </trkpt>
      <trkpt lat="46.76419" lon="5.80608">
        <ele>518.3</ele>
        <time>2022-02-23T15:16:21Z</time>
      </trkpt>
      <trkpt lat="46.76415" lon="5.80604">
        <ele>518.4</ele>
        <time>2022-02-23T15:16:26Z</time>
      </trkpt>
      <trkpt lat="46.76412" lon="5.80598">
        <ele>518.1</ele>
        <time>2022-02-23T15:16:31Z</time>
      </trkpt>
      <trkpt lat="46.76407" lon="5.80594">
        <ele>518.1</ele>
        <time>2022-02-23T15:16:36Z</time>
      </trkpt>
      <trkpt lat="46.76403" lon="5.8059">
        <ele>518.3</ele>
        <time>2022-02-23T15:16:41Z</time>
      </trkpt>
      <trkpt lat="46.76399" lon="5.80588">
        <ele>518.4</ele>
        <time>2022-02-23T15:16:45Z</time>
      </trkpt>
      <trkpt lat="46.76394" lon="5.80586">
        <ele>518.3</ele>
        <time>2022-02-23T15:16:50Z</time>
      </trkpt>
      <trkpt lat="46.76389" lon="5.80584">
        <ele>518.6</ele>
        <time>2022-02-23T15:16:55Z</time>
      </trkpt>
      <trkpt lat="46.76384" lon="5.80581">
        <ele>518.8</ele>
        <time>2022-02-23T15:17:00Z</time>
      </trkpt>
      <trkpt lat="46.76379" lon="5.80577">
        <ele>518.6</ele>
        <time>2022-02-23T15:17:06Z</time>
      </trkpt>
      <trkpt lat="46.76375" lon="5.80575">
        <ele>517.1</ele>
        <time>2022-02-23T15:17:11Z</time>
      </trkpt>
      <trkpt lat="46.76369" lon="5.80577">
        <ele>515.6</ele>
        <time>2022-02-23T15:17:17Z</time>
      </trkpt>
      <trkpt lat="46.76365" lon="5.8058">
        <ele>514.7</ele>
        <time>2022-02-23T15:17:22Z</time>
      </trkpt>
      <trkpt lat="46.7636" lon="5.80581">
        <ele>514.2</ele>
        <time>2022-02-23T15:17:27Z</time>
      </trkpt>
      <trkpt lat="46.76355" lon="5.80584">
        <ele>514.2</ele>
        <time>2022-02-23T15:17:31Z</time>
      </trkpt>
      <trkpt lat="46.7635" lon="5.80586">
        <ele>513.6</ele>
        <time>2022-02-23T15:17:38Z</time>
      </trkpt>
      <trkpt lat="46.76345" lon="5.80588">
        <ele>513.8</ele>
        <time>2022-02-23T15:17:43Z</time>
      </trkpt>
      <trkpt lat="46.7634" lon="5.8059">
        <ele>512.4</ele>
        <time>2022-02-23T15:17:50Z</time>
      </trkpt>
      <trkpt lat="46.76335" lon="5.80591">
        <ele>511.7</ele>
        <time>2022-02-23T15:17:55Z</time>
      </trkpt>
      <trkpt lat="46.7633" lon="5.80592">
        <ele>511.7</ele>
        <time>2022-02-23T15:17:59Z</time>
      </trkpt>
      <trkpt lat="46.76325" lon="5.80594">
        <ele>511.7</ele>
        <time>2022-02-23T15:18:03Z</time>
      </trkpt>
      <trkpt lat="46.7632" lon="5.80594">
        <ele>510.6</ele>
        <time>2022-02-23T15:18:11Z</time>
      </trkpt>
      <trkpt lat="46.76315" lon="5.80595">
        <ele>509.4</ele>
        <time>2022-02-23T15:18:16Z</time>
      </trkpt>
      <trkpt lat="46.76311" lon="5.80597">
        <ele>508.4</ele>
        <time>2022-02-23T15:18:20Z</time>
      </trkpt>
      <trkpt lat="46.76306" lon="5.806">
        <ele>507.5</ele>
        <time>2022-02-23T15:18:25Z</time>
      </trkpt>
      <trkpt lat="46.76301" lon="5.80601">
        <ele>507.4</ele>
        <time>2022-02-23T15:18:30Z</time>
      </trkpt>
      <trkpt lat="46.76296" lon="5.80604">
        <ele>507.1</ele>
        <time>2022-02-23T15:18:34Z</time>
      </trkpt>
      <trkpt lat="46.76291" lon="5.80608">
        <ele>506.8</ele>
        <time>2022-02-23T15:18:38Z</time>
      </trkpt>
      <trkpt lat="46.76286" lon="5.8061">
        <ele>507</ele>
        <time>2022-02-23T15:18:42Z</time>
      </trkpt>
      <trkpt lat="46.76281" lon="5.80613">
        <ele>507.3</ele>
        <time>2022-02-23T15:18:46Z</time>
      </trkpt>
      <trkpt lat="46.76277" lon="5.80618">
        <ele>508</ele>
        <time>2022-02-23T15:18:51Z</time>
      </trkpt>
      <trkpt lat="46.76273" lon="5.80623">
        <ele>508.5</ele>
        <time>2022-02-23T15:18:57Z</time>
      </trkpt>
      <trkpt lat="46.76269" lon="5.80628">
        <ele>508.4</ele>
        <time>2022-02-23T15:19:02Z</time>
      </trkpt>
      <trkpt lat="46.76266" lon="5.80633">
        <ele>508.3</ele>
        <time>2022-02-23T15:19:07Z</time>
      </trkpt>
      <trkpt lat="46.76262" lon="5.80638">
        <ele>508.3</ele>
        <time>2022-02-23T15:19:12Z</time>
      </trkpt>
      <trkpt lat="46.76258" lon="5.80642">
        <ele>508.1</ele>
        <time>2022-02-23T15:19:16Z</time>
      </trkpt>
      <trkpt lat="46.76254" lon="5.80647">
        <ele>507.5</ele>
        <time>2022-02-23T15:19:21Z</time>
      </trkpt>
      <trkpt lat="46.76249" lon="5.8065">
        <ele>506.5</ele>
        <time>2022-02-23T15:19:26Z</time>
      </trkpt>
      <trkpt lat="46.76245" lon="5.80653">
        <ele>505.9</ele>
        <time>2022-02-23T15:19:30Z</time>
      </trkpt>
      <trkpt lat="46.7624" lon="5.80654">
        <ele>505.6</ele>
        <time>2022-02-23T15:19:34Z</time>
      </trkpt>
      <trkpt lat="46.76235" lon="5.80655">
        <ele>505.6</ele>
        <time>2022-02-23T15:19:39Z</time>
      </trkpt>
      <trkpt lat="46.7623" lon="5.80657">
        <ele>505.8</ele>
        <time>2022-02-23T15:19:44Z</time>
      </trkpt>
      <trkpt lat="46.76224" lon="5.80659">
        <ele>505.9</ele>
        <time>2022-02-23T15:19:49Z</time>
      </trkpt>
      <trkpt lat="46.7622" lon="5.80661">
        <ele>506</ele>
        <time>2022-02-23T15:19:53Z</time>
      </trkpt>
      <trkpt lat="46.76214" lon="5.80662">
        <ele>506.1</ele>
        <time>2022-02-23T15:19:58Z</time>
      </trkpt>
      <trkpt lat="46.76209" lon="5.80662">
        <ele>505.7</ele>
        <time>2022-02-23T15:20:03Z</time>
      </trkpt>
      <trkpt lat="46.76204" lon="5.80663">
        <ele>504.8</ele>
        <time>2022-02-23T15:20:08Z</time>
      </trkpt>
      <trkpt lat="46.762" lon="5.80663">
        <ele>504.1</ele>
        <time>2022-02-23T15:20:12Z</time>
      </trkpt>
      <trkpt lat="46.76194" lon="5.80662">
        <ele>503.7</ele>
        <time>2022-02-23T15:20:17Z</time>
      </trkpt>
      <trkpt lat="46.76189" lon="5.80662">
        <ele>503.9</ele>
        <time>2022-02-23T15:20:21Z</time>
      </trkpt>
      <trkpt lat="46.76185" lon="5.80662">
        <ele>504</ele>
        <time>2022-02-23T15:20:25Z</time>
      </trkpt>
      <trkpt lat="46.76179" lon="5.8066">
        <ele>503.8</ele>
        <time>2022-02-23T15:20:30Z</time>
      </trkpt>
      <trkpt lat="46.76174" lon="5.80659">
        <ele>503.5</ele>
        <time>2022-02-23T15:20:34Z</time>
      </trkpt>
      <trkpt lat="46.7617" lon="5.80657">
        <ele>503</ele>
        <time>2022-02-23T15:20:38Z</time>
      </trkpt>
      <trkpt lat="46.76165" lon="5.80655">
        <ele>502.6</ele>
        <time>2022-02-23T15:20:42Z</time>
      </trkpt>
      <trkpt lat="46.76161" lon="5.80652">
        <ele>502</ele>
        <time>2022-02-23T15:20:46Z</time>
      </trkpt>
      <trkpt lat="46.76157" lon="5.80649">
        <ele>502</ele>
        <time>2022-02-23T15:20:51Z</time>
      </trkpt>
      <trkpt lat="46.76152" lon="5.80645">
        <ele>501.9</ele>
        <time>2022-02-23T15:20:56Z</time>
      </trkpt>
      <trkpt lat="46.76148" lon="5.80641">
        <ele>501.7</ele>
        <time>2022-02-23T15:21:01Z</time>
      </trkpt>
      <trkpt lat="46.76143" lon="5.80638">
        <ele>501.6</ele>
        <time>2022-02-23T15:21:06Z</time>
      </trkpt>
      <trkpt lat="46.76139" lon="5.80635">
        <ele>501.8</ele>
        <time>2022-02-23T15:21:10Z</time>
      </trkpt>
      <trkpt lat="46.76134" lon="5.80633">
        <ele>502.5</ele>
        <time>2022-02-23T15:21:14Z</time>
      </trkpt>
      <trkpt lat="46.7613" lon="5.80629">
        <ele>503.6</ele>
        <time>2022-02-23T15:21:19Z</time>
      </trkpt>
      <trkpt lat="46.76126" lon="5.80624">
        <ele>504.2</ele>
        <time>2022-02-23T15:21:24Z</time>
      </trkpt>
      <trkpt lat="46.76122" lon="5.80621">
        <ele>504.7</ele>
        <time>2022-02-23T15:21:28Z</time>
      </trkpt>
      <trkpt lat="46.76117" lon="5.80616">
        <ele>505.2</ele>
        <time>2022-02-23T15:21:32Z</time>
      </trkpt>
      <trkpt lat="46.76112" lon="5.80614">
        <ele>505.8</ele>
        <time>2022-02-23T15:21:36Z</time>
      </trkpt>
      <trkpt lat="46.76106" lon="5.80611">
        <ele>506.6</ele>
        <time>2022-02-23T15:21:41Z</time>
      </trkpt>
      <trkpt lat="46.76102" lon="5.80609">
        <ele>507</ele>
        <time>2022-02-23T15:21:45Z</time>
      </trkpt>
      <trkpt lat="46.76098" lon="5.80605">
        <ele>507.5</ele>
        <time>2022-02-23T15:21:50Z</time>
      </trkpt>
      <trkpt lat="46.76094" lon="5.806">
        <ele>507.5</ele>
        <time>2022-02-23T15:21:56Z</time>
      </trkpt>
      <trkpt lat="46.76088" lon="5.80598">
        <ele>507.8</ele>
        <time>2022-02-23T15:22:00Z</time>
      </trkpt>
      <trkpt lat="46.76085" lon="5.80594">
        <ele>507.3</ele>
        <time>2022-02-23T15:22:04Z</time>
      </trkpt>
      <trkpt lat="46.7608" lon="5.80589">
        <ele>506.8</ele>
        <time>2022-02-23T15:22:08Z</time>
      </trkpt>
      <trkpt lat="46.76075" lon="5.80586">
        <ele>506.8</ele>
        <time>2022-02-23T15:22:12Z</time>
      </trkpt>
      <trkpt lat="46.76071" lon="5.80583">
        <ele>506.8</ele>
        <time>2022-02-23T15:22:16Z</time>
      </trkpt>
      <trkpt lat="46.76067" lon="5.80578">
        <ele>506.4</ele>
        <time>2022-02-23T15:22:21Z</time>
      </trkpt>
      <trkpt lat="46.76063" lon="5.80574">
        <ele>504.9</ele>
        <time>2022-02-23T15:22:27Z</time>
      </trkpt>
      <trkpt lat="46.76059" lon="5.8057">
        <ele>503.1</ele>
        <time>2022-02-23T15:22:33Z</time>
      </trkpt>
      <trkpt lat="46.76056" lon="5.80563">
        <ele>501.6</ele>
        <time>2022-02-23T15:22:39Z</time>
      </trkpt>
      <trkpt lat="46.76052" lon="5.80558">
        <ele>501</ele>
        <time>2022-02-23T15:22:44Z</time>
      </trkpt>
      <trkpt lat="46.76047" lon="5.80554">
        <ele>500.7</ele>
        <time>2022-02-23T15:22:48Z</time>
      </trkpt>
      <trkpt lat="46.76043" lon="5.80549">
        <ele>500.5</ele>
        <time>2022-02-23T15:22:52Z</time>
      </trkpt>
      <trkpt lat="46.7604" lon="5.80543">
        <ele>500.6</ele>
        <time>2022-02-23T15:22:57Z</time>
      </trkpt>
      <trkpt lat="46.76036" lon="5.80538">
        <ele>500.7</ele>
        <time>2022-02-23T15:23:03Z</time>
      </trkpt>
      <trkpt lat="46.76031" lon="5.80534">
        <ele>501.4</ele>
        <time>2022-02-23T15:23:08Z</time>
      </trkpt>
      <trkpt lat="46.76026" lon="5.80531">
        <ele>501.9</ele>
        <time>2022-02-23T15:23:13Z</time>
      </trkpt>
      <trkpt lat="46.76023" lon="5.80526">
        <ele>502.7</ele>
        <time>2022-02-23T15:23:18Z</time>
      </trkpt>
      <trkpt lat="46.76019" lon="5.80521">
        <ele>503.5</ele>
        <time>2022-02-23T15:23:23Z</time>
      </trkpt>
      <trkpt lat="46.76016" lon="5.80517">
        <ele>503.8</ele>
        <time>2022-02-23T15:23:27Z</time>
      </trkpt>
      <trkpt lat="46.76012" lon="5.80514">
        <ele>503.8</ele>
        <time>2022-02-23T15:23:31Z</time>
      </trkpt>
      <trkpt lat="46.76008" lon="5.80509">
        <ele>503.7</ele>
        <time>2022-02-23T15:23:36Z</time>
      </trkpt>
      <trkpt lat="46.76004" lon="5.80504">
        <ele>503.7</ele>
        <time>2022-02-23T15:23:42Z</time>
      </trkpt>
      <trkpt lat="46.76" lon="5.80501">
        <ele>503.9</ele>
        <time>2022-02-23T15:23:47Z</time>
      </trkpt>
      <trkpt lat="46.75995" lon="5.80497">
        <ele>504.3</ele>
        <time>2022-02-23T15:23:51Z</time>
      </trkpt>
      <trkpt lat="46.75991" lon="5.80494">
        <ele>504.8</ele>
        <time>2022-02-23T15:23:56Z</time>
      </trkpt>
      <trkpt lat="46.75988" lon="5.80488">
        <ele>506.3</ele>
        <time>2022-02-23T15:24:04Z</time>
      </trkpt>
      <trkpt lat="46.75984" lon="5.80483">
        <ele>506.8</ele>
        <time>2022-02-23T15:24:09Z</time>
      </trkpt>
      <trkpt lat="46.75981" lon="5.80478">
        <ele>506.8</ele>
        <time>2022-02-23T15:24:13Z</time>
      </trkpt>
      <trkpt lat="46.75978" lon="5.80473">
        <ele>506.7</ele>
        <time>2022-02-23T15:24:17Z</time>
      </trkpt>
      <trkpt lat="46.75975" lon="5.80466">
        <ele>506.7</ele>
        <time>2022-02-23T15:24:22Z</time>
      </trkpt>
      <trkpt lat="46.7597" lon="5.80462">
        <ele>507</ele>
        <time>2022-02-23T15:24:27Z</time>
      </trkpt>
      <trkpt lat="46.75967" lon="5.80458">
        <ele>506.5</ele>
        <time>2022-02-23T15:24:31Z</time>
      </trkpt>
      <trkpt lat="46.75963" lon="5.80452">
        <ele>506.2</ele>
        <time>2022-02-23T15:24:36Z</time>
      </trkpt>
      <trkpt lat="46.75959" lon="5.80449">
        <ele>506.1</ele>
        <time>2022-02-23T15:24:41Z</time>
      </trkpt>
      <trkpt lat="46.75955" lon="5.80445">
        <ele>506.2</ele>
        <time>2022-02-23T15:24:45Z</time>
      </trkpt>
      <trkpt lat="46.7595" lon="5.80442">
        <ele>506.7</ele>
        <time>2022-02-23T15:24:50Z</time>
      </trkpt>
      <trkpt lat="46.75946" lon="5.80439">
        <ele>507.1</ele>
        <time>2022-02-23T15:24:55Z</time>
      </trkpt>
      <trkpt lat="46.75941" lon="5.80436">
        <ele>507.2</ele>
        <time>2022-02-23T15:25:00Z</time>
      </trkpt>
      <trkpt lat="46.75937" lon="5.80432">
        <ele>507</ele>
        <time>2022-02-23T15:25:04Z</time>
      </trkpt>
      <trkpt lat="46.75932" lon="5.80428">
        <ele>506.6</ele>
        <time>2022-02-23T15:25:09Z</time>
      </trkpt>
      <trkpt lat="46.75929" lon="5.80423">
        <ele>505.8</ele>
        <time>2022-02-23T15:25:14Z</time>
      </trkpt>
      <trkpt lat="46.75925" lon="5.80418">
        <ele>505.1</ele>
        <time>2022-02-23T15:25:19Z</time>
      </trkpt>
      <trkpt lat="46.7592" lon="5.80415">
        <ele>504.8</ele>
        <time>2022-02-23T15:25:23Z</time>
      </trkpt>
      <trkpt lat="46.75916" lon="5.80412">
        <ele>504.6</ele>
        <time>2022-02-23T15:25:27Z</time>
      </trkpt>
      <trkpt lat="46.75911" lon="5.80409">
        <ele>504.3</ele>
        <time>2022-02-23T15:25:32Z</time>
      </trkpt>
      <trkpt lat="46.75907" lon="5.80407">
        <ele>504.2</ele>
        <time>2022-02-23T15:25:36Z</time>
      </trkpt>
      <trkpt lat="46.75903" lon="5.80403">
        <ele>504.4</ele>
        <time>2022-02-23T15:25:40Z</time>
      </trkpt>
      <trkpt lat="46.75898" lon="5.804">
        <ele>504.7</ele>
        <time>2022-02-23T15:25:44Z</time>
      </trkpt>
      <trkpt lat="46.75894" lon="5.80398">
        <ele>505.3</ele>
        <time>2022-02-23T15:25:48Z</time>
      </trkpt>
      <trkpt lat="46.75889" lon="5.80396">
        <ele>505.6</ele>
        <time>2022-02-23T15:25:52Z</time>
      </trkpt>
      <trkpt lat="46.75885" lon="5.80393">
        <ele>505.3</ele>
        <time>2022-02-23T15:25:57Z</time>
      </trkpt>
      <trkpt lat="46.7588" lon="5.80388">
        <ele>504.8</ele>
        <time>2022-02-23T15:26:02Z</time>
      </trkpt>
      <trkpt lat="46.75876" lon="5.80385">
        <ele>504.5</ele>
        <time>2022-02-23T15:26:06Z</time>
      </trkpt>
      <trkpt lat="46.75871" lon="5.80383">
        <ele>503.9</ele>
        <time>2022-02-23T15:26:11Z</time>
      </trkpt>
      <trkpt lat="46.75867" lon="5.8038">
        <ele>503.6</ele>
        <time>2022-02-23T15:26:15Z</time>
      </trkpt>
      <trkpt lat="46.75862" lon="5.80378">
        <ele>504</ele>
        <time>2022-02-23T15:26:20Z</time>
      </trkpt>
      <trkpt lat="46.75858" lon="5.80373">
        <ele>504.4</ele>
        <time>2022-02-23T15:26:25Z</time>
      </trkpt>
      <trkpt lat="46.75853" lon="5.80371">
        <ele>504.4</ele>
        <time>2022-02-23T15:26:29Z</time>
      </trkpt>
      <trkpt lat="46.75848" lon="5.8037">
        <ele>504.2</ele>
        <time>2022-02-23T15:26:33Z</time>
      </trkpt>
      <trkpt lat="46.75843" lon="5.80368">
        <ele>504.2</ele>
        <time>2022-02-23T15:26:37Z</time>
      </trkpt>
      <trkpt lat="46.75838" lon="5.80364">
        <ele>504.5</ele>
        <time>2022-02-23T15:26:42Z</time>
      </trkpt>
      <trkpt lat="46.75834" lon="5.80362">
        <ele>504.7</ele>
        <time>2022-02-23T15:26:46Z</time>
      </trkpt>
      <trkpt lat="46.75829" lon="5.80361">
        <ele>504.6</ele>
        <time>2022-02-23T15:26:50Z</time>
      </trkpt>
      <trkpt lat="46.75824" lon="5.80362">
        <ele>504.8</ele>
        <time>2022-02-23T15:26:54Z</time>
      </trkpt>
      <trkpt lat="46.7582" lon="5.80358">
        <ele>505.4</ele>
        <time>2022-02-23T15:26:59Z</time>
      </trkpt>
      <trkpt lat="46.75816" lon="5.80353">
        <ele>505.7</ele>
        <time>2022-02-23T15:27:04Z</time>
      </trkpt>
      <trkpt lat="46.75811" lon="5.80349">
        <ele>505.7</ele>
        <time>2022-02-23T15:27:09Z</time>
      </trkpt>
      <trkpt lat="46.75806" lon="5.80348">
        <ele>505.5</ele>
        <time>2022-02-23T15:27:13Z</time>
      </trkpt>
      <trkpt lat="46.75802" lon="5.80344">
        <ele>505.8</ele>
        <time>2022-02-23T15:27:18Z</time>
      </trkpt>
      <trkpt lat="46.75797" lon="5.80346">
        <ele>506</ele>
        <time>2022-02-23T15:27:23Z</time>
      </trkpt>
      <trkpt lat="46.75793" lon="5.80348">
        <ele>505.6</ele>
        <time>2022-02-23T15:27:28Z</time>
      </trkpt>
      <trkpt lat="46.75787" lon="5.80351">
        <ele>505.3</ele>
        <time>2022-02-23T15:27:34Z</time>
      </trkpt>
      <trkpt lat="46.75782" lon="5.80352">
        <ele>505.5</ele>
        <time>2022-02-23T15:27:39Z</time>
      </trkpt>
      <trkpt lat="46.75778" lon="5.80351">
        <ele>505.3</ele>
        <time>2022-02-23T15:27:45Z</time>
      </trkpt>
      <trkpt lat="46.75773" lon="5.80352">
        <ele>505.3</ele>
        <time>2022-02-23T15:27:50Z</time>
      </trkpt>
      <trkpt lat="46.75768" lon="5.80354">
        <ele>506.9</ele>
        <time>2022-02-23T15:28:45Z</time>
      </trkpt>
      <trkpt lat="46.75764" lon="5.80358">
        <ele>507.5</ele>
        <time>2022-02-23T15:28:50Z</time>
      </trkpt>
      <trkpt lat="46.75768" lon="5.80355">
        <ele>510.4</ele>
        <time>2022-02-23T15:30:30Z</time>
      </trkpt>
    </trkseg>
  </trk>
</gpx>